Dati stazioni meteo - Rete MeteoNetwork


Dati realtime - Dati giornalieri

Sfoglia tabella
Regione selezionata: Nessuna
Filtra dati per regione

Stazione Prov. Temperatura Umidità Dewpoint Pioggia Rateo Pioggia Vento Pressione Aggiorn.
Avezzano AQ 13.3°C 74% 8.8°C 0 mm 0 mm/h 0 km/h 1020 hPa 00:25 del 09/05/2021
Chieti CH 14.2°C 74% 9.7°C 0 mm 0 mm/h 8 km/h 1021.4 hPa 00:25 del 09/05/2021
Controguerra TE 13.8°C 64% 7.2°C 0 mm 0 mm/h 3.2 km/h 1017.9 hPa 23:49 del 08/05/2021
Tortoreto TE 13.7°C 68% 7.9°C 0 mm 0 mm/h 0 km/h 1020.8 hPa 00:29 del 09/05/2021
L'Aquila AQ 10.8°C 72% 6°C 0 mm 0 mm/h 0 km/h 1023.3 hPa 00:27 del 09/05/2021
Pescara PE 15.1°C 75% 10.7°C 0 mm 0 mm/h 0 km/h 1019.7 hPa 00:29 del 09/05/2021
San Salvo CH 12.1°C 85% 9.6°C 0 mm 0 mm/h 1.6 km/h 1017.8 hPa 00:29 del 09/05/2021
Nereto TE 14.2°C 71% 8.9°C 0 mm 0 mm/h 0 km/h 1020.9 hPa 00:27 del 09/05/2021
Chieti CH 14.4°C 70% 9°C 0 mm 0 mm/h 8 km/h 1020.6 hPa 00:25 del 09/05/2021
Fara San Martino CH 12.2°C 80% 8.9°C 0 mm 0 mm/h 0 km/h 1020.7 hPa 23:47 del 08/05/2021
Pineto TE 13.1°C 80% 9.7°C 0 mm 0 mm/h 12.9 km/h 1018.4 hPa 00:25 del 09/05/2021
Chieti CH 13.8°C 73% 0°C 0 mm 0 mm/h 0 km/h 1020 hPa 00:25 del 09/05/2021
Chieti CH 12.7°C 77% 8.9°C 0 mm 0 mm/h 0 km/h 1019.6 hPa 00:27 del 09/05/2021
L'Aquila AQ 12.6°C 79% 9°C 0 mm 0 mm/h 0 km/h 1023 hPa 00:15 del 09/05/2021
San Demetrio ne' Vestini AQ 9.2°C 89% 7.5°C 0 mm 0 mm/h 0 km/h 1022.8 hPa 00:20 del 09/05/2021
L'Aquila AQ 8.5°C 91% 7.1°C 0 mm 0 mm/h 3.2 km/h 1025 hPa 00:25 del 09/05/2021
Roseto degli Abruzzi TE 12.3°C 83% 9.4°C 0 mm 0 mm/h 4.8 km/h 1021.4 hPa 00:27 del 09/05/2021
Tortoreto TE 13.6°C 68% 7.8°C 0 mm 0 mm/h 4.8 km/h 1019.7 hPa 00:29 del 09/05/2021
Loreto Aprutino PE 11.3°C 83% 8.4°C 0 mm 0 mm/h 0 km/h 1016.9 hPa 23:49 del 08/05/2021
Montesilvano PE 13.7°C 79% 10.1°C 0 mm 0 mm/h 3.2 km/h 1021 hPa 00:15 del 09/05/2021
Roccaraso AQ 5.2°C 94% 4.3°C 0 mm 0 mm/h 0 km/h 1024.3 hPa 00:29 del 09/05/2021
Montereale AQ 7°C 84% 4.5°C 0 mm 0 mm/h 3.6 km/h 1017.6 hPa 00:29 del 09/05/2021
Canzano TE 12.9°C 75% 8.6°C 0 mm 0 mm/h 5 km/h 1019 hPa 23:59 del 08/05/2021
Pretoro CH 6.4°C 91% 5.1°C 0 mm 0 mm/h 14 km/h 1023.3 hPa 00:20 del 09/05/2021
Oricola AQ 11.3°C 83% 8.5°C 0 mm 0 mm/h 0.6 km/h 1013.5 hPa 00:25 del 09/05/2021
Pescara PE 14.9°C 66% 8.6°C 0 mm 0 mm/h 6.4 km/h 1021.9 hPa 00:26 del 09/05/2021
Namur PE 13.9°C 75% 9.6°C 0 mm 0 mm/h 0.9 km/h 1008.5 hPa 00:20 del 09/05/2021
Lobbes PE 13.7°C 82% 10.6°C 0 mm 0 mm/h 1.6 km/h 1006.6 hPa 00:20 del 09/05/2021
Houyet PE 11.7°C 82% 8.9°C 0 mm 0 mm/h 6.4 km/h 0 hPa 00:20 del 09/05/2021
Miglionico MT 13.5°C 77% 9.5°C 0 mm 0 mm/h 16.1 km/h 1016.4 hPa 00:30 del 09/05/2021
Pisticci MT 16.2°C 67% 10°C 0 mm 0 mm/h 14.5 km/h 1016.8 hPa 00:27 del 09/05/2021
Grassano MT 13.7°C 80% 10.3°C 0 mm 0 mm/h 16.1 km/h 1018.2 hPa 00:29 del 09/05/2021
Lagonegro PZ 11.1°C 0% 0°C 0 mm 0 mm/h 0 km/h 0 hPa 00:00 del 09/05/2021
Castelluccio Inferiore PZ 14.4°C 77% 10.4°C 0 mm 0 mm/h 5 km/h 1022.9 hPa 00:25 del 09/05/2021
Grassano MT 12.2°C 85% 9.8°C 0 mm 0 mm/h 12.2 km/h 1021.1 hPa 00:29 del 09/05/2021
Montescaglioso MT 12.7°C 81% 9.5°C 0 mm 0 mm/h 14.4 km/h 1020.5 hPa 00:29 del 09/05/2021
Rende CS 14.8°C 72% 9.8°C 0 mm 0 mm/h 0 km/h 1018.3 hPa 00:29 del 09/05/2021
Luzzi CS 13.7°C 81% 10.5°C 0 mm 0 mm/h 1.9 km/h 1002.3 hPa 00:27 del 09/05/2021
Cittanova RC 14.7°C 72% 9.7°C 0 mm 0 mm/h 11.7 km/h 1017.1 hPa 00:26 del 09/05/2021
Lattarico CS 16.2°C 60% 8.4°C 0 mm 0 mm/h 2.9 km/h 1018.8 hPa 00:29 del 09/05/2021
Roseto Capo Spulico CS 18.8°C 0% 0°C 0 mm 22.3 mm/h 2.3 km/h 0 hPa 00:00 del 09/05/2021
Oriolo CS 16°C 61% 0°C 0 mm 15.8 mm/h 2.8 km/h 0 hPa 00:00 del 09/05/2021
Albidona CS 13.5°C 0% 0°C 0 mm 0 mm/h 0 km/h 0 hPa 00:00 del 09/05/2021
Cerchiara di Calabria CS 0°C 0% 0°C 0 mm 0 mm/h 0 km/h 0 hPa 00:00 del 09/05/2021
Villapiana CS 14.9°C 0% 0°C 0 mm 0 mm/h 0 km/h 0 hPa 00:00 del 09/05/2021
Cassano allo Ionio CS 0°C 0% 0°C 0 mm 0 mm/h 0 km/h 0 hPa 00:00 del 09/05/2021
Domanico CS 12.2°C 0% 0°C 0 mm 0 mm/h 0 km/h 0 hPa 00:00 del 09/05/2021
Cosenza CS 13.1°C 83% 0°C 0 mm 0 mm/h 0 km/h 0 hPa 00:00 del 09/05/2021
Cosenza CS 15.3°C 65% 0°C 0 mm 13.7 mm/h 1.3 km/h 0 hPa 00:00 del 09/05/2021
San Pietro in Guarano CS 13.3°C 0% 0°C 0 mm 0 mm/h 0 km/h 0 hPa 00:00 del 09/05/2021
Montalto Uffugo CS 14.8°C 0% 0°C 0 mm 0 mm/h 0 km/h 0 hPa 00:00 del 09/05/2021
Spezzano della Sila CS 6.3°C 0% 0°C 0 mm 0 mm/h 0 km/h 0 hPa 00:00 del 09/05/2021
Longobucco CS 6.4°C 94% 0°C 0 mm 5 mm/h 0.2 km/h 0 hPa 00:00 del 09/05/2021
Torano Castello CS 14.7°C 74% 0°C 0 mm 0 mm/h 0 km/h 0 hPa 00:00 del 09/05/2021
Tarsia CS 16.2°C 0% 0°C 0 mm 0 mm/h 0 km/h 0 hPa 00:00 del 09/05/2021
Castrovillari CS 0°C 0% 0°C 0 mm 0 mm/h 0 km/h 0 hPa 23:50 del 08/05/2021
Lungro CS 0°C 0% 0°C 0 mm 0 mm/h 0 km/h 0 hPa 00:00 del 09/05/2021
San Sosti CS 14.4°C 70% 0°C 0 mm 0 mm/h 0 km/h 0 hPa 00:00 del 09/05/2021
Cassano allo Ionio CS 0°C 0% 0°C 0 mm 0 mm/h 0 km/h 0 hPa 00:00 del 09/05/2021
Corigliano Calabro CS 15.8°C 0% 0°C 0 mm 0 mm/h 0 km/h 0 hPa 00:00 del 09/05/2021
Longobucco CS 0°C 0% 0°C 0 mm 0 mm/h 0 km/h 0 hPa 00:00 del 09/05/2021
Cropalati CS 16.7°C 0% 0°C 0 mm 0 mm/h 0 km/h 0 hPa 00:00 del 09/05/2021
Cariati CS 0°C 0% 0°C 0 mm 0 mm/h 0 km/h 0 hPa 00:00 del 09/05/2021
Crucoli KR 15.9°C 0% 0°C 0 mm 0 mm/h 0 km/h 0 hPa 00:00 del 09/05/2021
Cirò KR 17.4°C 0% 0°C 0 mm 0 mm/h 0 km/h 0 hPa 00:00 del 09/05/2021
Cirò KR 16.1°C 58% 0°C 0 mm 0 mm/h 0 km/h 0 hPa 00:00 del 09/05/2021
San Giovanni in Fiore CS 7.5°C 85% 0°C 0 mm 7.2 mm/h 0.9 km/h 0 hPa 00:00 del 09/05/2021
Savelli KR 0°C 0% 0°C 0 mm 0 mm/h 0 km/h 0 hPa 00:00 del 09/05/2021
Cerenzia KR 15.4°C 0% 0°C 0 mm 0 mm/h 0 km/h 0 hPa 00:00 del 09/05/2021
San Nicola dell'Alto KR 0°C 0% 0°C 0 mm 0 mm/h 0 km/h 0 hPa 00:00 del 09/05/2021
Cutro KR 15.7°C 0% 0°C 0 mm 0 mm/h 0 km/h 0 hPa 00:00 del 09/05/2021
Crotone KR 17.7°C 0% 0°C 0 mm 0 mm/h 0 km/h 0 hPa 00:00 del 09/05/2021
Crotone KR 18.3°C 0% 0°C 0 mm 22.3 mm/h 3.5 km/h 0 hPa 00:00 del 09/05/2021
Crotone KR 16.2°C 0% 0°C 0 mm 0 mm/h 0 km/h 0 hPa 00:00 del 09/05/2021
Isola di Capo Rizzuto KR 17.4°C 0% 0°C 0 mm 0 mm/h 0 km/h 0 hPa 00:00 del 09/05/2021
Cotronei KR 0°C 0% 0°C 0 mm 0 mm/h 0 km/h 0 hPa 00:00 del 09/05/2021
Roccabernarda KR 16.3°C 0% 0°C 0 mm 0 mm/h 0 km/h 0 hPa 00:00 del 09/05/2021
Petronà CZ 0°C 0% 0°C 0 mm 0 mm/h 0 km/h 0 hPa 00:00 del 09/05/2021
Petilia Policastro KR 16.1°C 46% 0°C 0 mm 31.3 mm/h 3.7 km/h 0 hPa 00:00 del 09/05/2021
San Mauro Marchesato KR 17.1°C 0% 0°C 0 mm 0 mm/h 0 km/h 0 hPa 00:00 del 09/05/2021
Petilia Policastro KR 0°C 0% 0°C 0 mm 0 mm/h 0 km/h 0 hPa 00:00 del 09/05/2021
Botricello CZ 17.3°C 0% 0°C 0 mm 0 mm/h 0 km/h 0 hPa 00:00 del 09/05/2021
Cropani CZ 0°C 0% 0°C 0 mm 0 mm/h 0 km/h 0 hPa 00:00 del 09/05/2021
Soveria Simeri CZ 0°C 0% 0°C 0 mm 0 mm/h 0 km/h 0 hPa 00:00 del 09/05/2021
Taverna CZ 6.2°C 0% 0°C 0 mm 0 mm/h 0 km/h 0 hPa 00:00 del 09/05/2021
Albi CZ 0°C 0% 0°C 0 mm 0 mm/h 0 km/h 0 hPa 00:00 del 09/05/2021
Sellia CZ 14.8°C 73% 0°C 0 mm 11.2 mm/h 1.6 km/h 0 hPa 00:00 del 09/05/2021
Catanzaro CZ 16.2°C 0% 0°C 0 mm 0 mm/h 0 km/h 0 hPa 00:00 del 09/05/2021
Catanzaro CZ 0°C 0% 0°C 0 mm 0 mm/h 0 km/h 0 hPa 00:00 del 09/05/2021
Gimigliano CZ 14.7°C 67% 0°C 0 mm 20.5 mm/h 4.3 km/h 0 hPa 00:00 del 09/05/2021
Borgia CZ 17°C 0% 0°C 0 mm 0 mm/h 0 km/h 0 hPa 00:00 del 09/05/2021
Gimigliano CZ 0°C 0% 0°C 0 mm 0 mm/h 0 km/h 0 hPa 00:00 del 09/05/2021
Cenadi CZ 10.7°C 0% 0°C 0 mm 0 mm/h 0 km/h 0 hPa 00:00 del 09/05/2021
Palermiti CZ 13.7°C 0% 0°C 0 mm 0 mm/h 0 km/h 0 hPa 00:00 del 09/05/2021
Chiaravalle Centrale CZ 12.6°C 85% 0°C 0 mm 14.4 mm/h 2.6 km/h 0 hPa 00:00 del 09/05/2021
Soverato CZ 19.6°C 0% 0°C 0 mm 0 mm/h 0 km/h 0 hPa 00:00 del 09/05/2021
Serra San Bruno VV 6.9°C 0% 0°C 0 mm 0 mm/h 0 km/h 0 hPa 00:00 del 09/05/2021
Santa Caterina dello Ionio CZ 0°C 0% 0°C 0 mm 0 mm/h 0 km/h 0 hPa 00:00 del 09/05/2021
Monasterace RC 19°C 0% 0°C 0 mm 13.7 mm/h 0.4 km/h 0 hPa 00:00 del 09/05/2021
Stignano RC 17.2°C 0% 0°C 0 mm 0 mm/h 0 km/h 0 hPa 00:00 del 09/05/2021
Mongiana VV 7.4°C 0% 0°C 0 mm 0 mm/h 0 km/h 0 hPa 00:00 del 09/05/2021
Fabrizia VV 10.5°C 0% 0°C 0 mm 0 mm/h 0 km/h 0 hPa 00:00 del 09/05/2021
Roccella Ionica RC 0°C 0% 0°C 0 mm 0 mm/h 0 km/h 0 hPa 00:00 del 09/05/2021
Fabrizia VV 10.3°C 0% 0°C 0 mm 0 mm/h 0 km/h 0 hPa 00:00 del 09/05/2021
Gioiosa Ionica RC 18.5°C 0% 0°C 0 mm 0 mm/h 0 km/h 0 hPa 00:00 del 09/05/2021
Antonimina RC 7.2°C 0% 0°C 0 mm 0 mm/h 0 km/h 0 hPa 00:00 del 09/05/2021
Antonimina RC 17.2°C 0% 0°C 0 mm 0 mm/h 0 km/h 0 hPa 00:00 del 09/05/2021
Locri RC 0°C 0% 0°C 0 mm 0 mm/h 0 km/h 0 hPa 00:00 del 09/05/2021
Ardore RC 0°C 0% 0°C 0 mm 0 mm/h 0 km/h 0 hPa 00:00 del 09/05/2021
Bovalino RC 18.1°C 0% 0°C 0 mm 0 mm/h 0 km/h 0 hPa 00:00 del 09/05/2021
Platì RC 17.5°C 0% 0°C 0 mm 0 mm/h 0 km/h 0 hPa 00:00 del 09/05/2021
San Luca RC 0°C 0% 0°C 0 mm 0 mm/h 0 km/h 0 hPa 00:00 del 09/05/2021
Sant'Agata del Bianco RC 15.9°C 0% 0°C 0 mm 0 mm/h 0 km/h 0 hPa 00:00 del 09/05/2021
Staiti RC 17.2°C 0% 0°C 0 mm 0 mm/h 0 km/h 0 hPa 00:00 del 09/05/2021
Brancaleone RC 18.9°C 0% 0°C 0 mm 7.2 mm/h 0.9 km/h 0 hPa 00:00 del 09/05/2021
Bova RC 15.3°C 0% 0°C 0 mm 0 mm/h 0 km/h 0 hPa 00:00 del 09/05/2021
Bova RC 19.1°C 45% 0°C 0 mm 0 mm/h 0 km/h 0 hPa 00:00 del 09/05/2021
Roccaforte del Greco RC 13.3°C 0% 0°C 0 mm 0 mm/h 0 km/h 0 hPa 00:00 del 09/05/2021
Montebello Ionico RC 14.6°C 0% 0°C 0 mm 0 mm/h 0 km/h 0 hPa 00:00 del 09/05/2021
Cardeto RC 10.9°C 0% 0°C 0 mm 0 mm/h 0 km/h 0 hPa 00:00 del 09/05/2021
Reggio Calabria RC 17.3°C 74% 0°C 0 mm 22 mm/h 1.2 km/h 0 hPa 00:00 del 09/05/2021
Motta San Giovanni RC 13.6°C 60% 0°C 0 mm 22 mm/h 4.3 km/h 0 hPa 00:00 del 09/05/2021
Reggio Calabria RC 13.4°C 60% 0°C 0 mm 9.4 mm/h 2.2 km/h 0 hPa 00:00 del 09/05/2021
Reggio Calabria RC 0°C 0% 0°C 0 mm 0 mm/h 0 km/h 0 hPa 00:00 del 09/05/2021
Cardeto RC 9.3°C 0% 0°C 0 mm 0 mm/h 0 km/h 0 hPa 00:00 del 09/05/2021
Sant'Alessio in Aspromonte RC 13.2°C 0% 0°C 0 mm 0 mm/h 0 km/h 0 hPa 00:00 del 09/05/2021
Reggio Calabria RC 15.5°C 55% 0°C 0 mm 12.2 mm/h 1.7 km/h 0 hPa 00:00 del 09/05/2021
Santo Stefano in Aspromonte RC 9.4°C 0% 0°C 0 mm 0 mm/h 0 km/h 0 hPa 00:00 del 09/05/2021
Reggio Calabria RC 15.7°C 0% 0°C 0 mm 0 mm/h 0 km/h 0 hPa 00:00 del 09/05/2021
Reggio Calabria RC 17°C 0% 0°C 0 mm 0 mm/h 0 km/h 0 hPa 00:00 del 09/05/2021
Scilla RC 16.9°C 0% 0°C 0 mm 0 mm/h 0 km/h 0 hPa 00:00 del 09/05/2021
Scilla RC 0°C 0% 0°C 0 mm 0 mm/h 0 km/h 0 hPa 00:00 del 09/05/2021
Scilla RC 0°C 0% 0°C 0 mm 0 mm/h 0 km/h 0 hPa 00:00 del 09/05/2021
Scilla RC 11.3°C 0% 0°C 0 mm 0 mm/h 0 km/h 0 hPa 00:00 del 09/05/2021
Scilla RC 0°C 0% 0°C 0 mm 0 mm/h 0 km/h 0 hPa 00:00 del 09/05/2021
Scilla RC 11.5°C 100% 0°C 0 mm 17.3 mm/h 4 km/h 0 hPa 00:00 del 09/05/2021
Bagnara Calabra RC 0°C 0% 0°C 0 mm 0 mm/h 0 km/h 0 hPa 00:00 del 09/05/2021
Palmi RC 0°C 0% 0°C 0 mm 0 mm/h 0 km/h 0 hPa 00:00 del 09/05/2021
Santa Cristina d'Aspromonte RC 13°C 0% 0°C 0 mm 0 mm/h 0 km/h 0 hPa 00:00 del 09/05/2021
Rizziconi RC 0°C 0% 0°C 0 mm 0 mm/h 0 km/h 0 hPa 00:00 del 09/05/2021
Sinopoli RC 0°C 0% 0°C 0 mm 0 mm/h 0 km/h 0 hPa 00:00 del 09/05/2021
Molochio RC 0°C 0% 0°C 0 mm 0 mm/h 0 km/h 0 hPa 00:00 del 09/05/2021
Cittanova RC 12.4°C 0% 0°C 0 mm 0 mm/h 0 km/h 0 hPa 00:00 del 09/05/2021
Rizziconi RC 13°C 0% 0°C 0 mm 0 mm/h 0 km/h 0 hPa 00:00 del 09/05/2021
Gioia Tauro RC 0°C 0% 0°C 0 mm 0 mm/h 0 km/h 0 hPa 00:00 del 09/05/2021
San Nicola da Crissa VV 12.9°C 92% 0°C 0 mm 12.6 mm/h 2.7 km/h 0 hPa 00:00 del 09/05/2021
Pizzoni VV 0°C 0% 0°C 0 mm 0 mm/h 0 km/h 0 hPa 00:00 del 09/05/2021
Dinami VV 0°C 0% 0°C 0 mm 0 mm/h 0 km/h 0 hPa 00:00 del 09/05/2021
Arena VV 12.9°C 0% 0°C 0 mm 0 mm/h 0 km/h 0 hPa 00:00 del 09/05/2021
Feroleto della Chiesa RC 14.8°C 0% 0°C 0 mm 0 mm/h 0 km/h 0 hPa 00:00 del 09/05/2021
Giffone RC 0°C 0% 0°C 0 mm 0 mm/h 0 km/h 0 hPa 00:00 del 09/05/2021
Mammola RC 13.6°C 0% 0°C 0 mm 0 mm/h 0 km/h 0 hPa 00:00 del 09/05/2021
Polistena RC 0°C 0% 0°C 0 mm 0 mm/h 0 km/h 0 hPa 00:00 del 09/05/2021
Mileto VV 13.8°C 0% 0°C 0 mm 0 mm/h 0 km/h 0 hPa 00:00 del 09/05/2021
Rosarno RC 13.1°C 0% 0°C 0 mm 0 mm/h 0 km/h 0 hPa 00:00 del 09/05/2021
Joppolo VV 14.2°C 76% 0°C 0 mm 0 mm/h 0 km/h 0 hPa 00:00 del 09/05/2021
Zungri VV 12.4°C 0% 0°C 0 mm 0 mm/h 0 km/h 0 hPa 00:00 del 09/05/2021
Vibo Valentia VV 13.9°C 0% 0°C 0 mm 0 mm/h 0 km/h 0 hPa 00:00 del 09/05/2021
Vibo Valentia VV 0°C 0% 0°C 0 mm 0 mm/h 0 km/h 0 hPa 00:00 del 09/05/2021
Vibo Valentia VV 0°C 0% 0°C 0 mm 0 mm/h 0 km/h 0 hPa 00:00 del 09/05/2021
Ricadi VV 17.4°C 0% 0°C 0 mm 10.8 mm/h 1.9 km/h 0 hPa 00:00 del 09/05/2021
Maierato VV 0°C 0% 0°C 0 mm 0 mm/h 0 km/h 0 hPa 00:00 del 09/05/2021
Monterosso Calabro VV 0°C 0% 0°C 0 mm 0 mm/h 0 km/h 0 hPa 00:00 del 09/05/2021
Filadelfia VV 0°C 0% 0°C 0 mm 0 mm/h 0 km/h 0 hPa 00:00 del 09/05/2021
Decollatura CZ 11.7°C 0% 0°C 0 mm 0 mm/h 0 km/h 0 hPa 00:00 del 09/05/2021
Tiriolo CZ 13.9°C 0% 0°C 0 mm 0 mm/h 0 km/h 0 hPa 00:00 del 09/05/2021
Maida CZ 0°C 0% 0°C 0 mm 0 mm/h 0 km/h 0 hPa 00:00 del 09/05/2021
Cortale CZ 13°C 0% 0°C 0 mm 0 mm/h 0 km/h 0 hPa 00:00 del 09/05/2021
Lamezia Terme CZ 12.8°C 0% 0°C 0 mm 0 mm/h 0 km/h 0 hPa 00:00 del 09/05/2021
Lamezia Terme CZ 15.9°C 90% 0°C 0 mm 4.7 mm/h 0 km/h 0 hPa 00:00 del 09/05/2021
Altilia CS 12.4°C 82% 0°C 0 mm 10.1 mm/h 1.7 km/h 0 hPa 00:00 del 09/05/2021
Parenti CS 11.1°C 0% 0°C 0 mm 0 mm/h 0 km/h 0 hPa 00:00 del 09/05/2021
Rogliano CS 12.7°C 0% 0°C 0 mm 0 mm/h 0 km/h 0 hPa 00:00 del 09/05/2021
Belsito CS 11.3°C 80% 0°C 0 mm 5.4 mm/h 0.8 km/h 0 hPa 00:00 del 09/05/2021
Martirano CZ 12.6°C 0% 0°C 0 mm 0 mm/h 0 km/h 0 hPa 00:00 del 09/05/2021
Amantea CS 14.2°C 0% 0°C 0 mm 0 mm/h 0 km/h 0 hPa 00:00 del 09/05/2021
Paola CS 15.2°C 85% 0°C 0 mm 11.9 mm/h 1.1 km/h 0 hPa 00:00 del 09/05/2021
Cetraro CS 14.3°C 0% 0°C 0 mm 0 mm/h 0 km/h 0 hPa 00:00 del 09/05/2021
Belvedere Marittimo CS 16.9°C 0% 0°C 0 mm 6.8 mm/h 1.5 km/h 0 hPa 00:00 del 09/05/2021
Tortora CS 0°C 0% 0°C 0 mm 0 mm/h 0 km/h 0 hPa 00:00 del 09/05/2021
Fiumefreddo Bruzio CS 0°C 0% 0°C 0 mm 0 mm/h 0 km/h 0 hPa 00:00 del 09/05/2021
Fiumefreddo Bruzio CS 0°C 0% 0°C 0 mm 0 mm/h 0 km/h 0 hPa 00:00 del 09/05/2021
Fiumefreddo Bruzio CS 0°C 0% 0°C 0 mm 0 mm/h 0 km/h 0 hPa 00:00 del 09/05/2021
Domanico CS 0°C 0% 0°C 0 mm 0 mm/h 0 km/h 0 hPa 00:00 del 09/05/2021
Paterno Calabro CS 0°C 0% 0°C 0 mm 0 mm/h 0 km/h 0 hPa 00:00 del 09/05/2021
Parenti CS 0°C 0% 0°C 0 mm 0 mm/h 0 km/h 0 hPa 00:00 del 09/05/2021
Mesoraca KR 0°C 0% 0°C 0 mm 0 mm/h 0 km/h 0 hPa 00:00 del 09/05/2021
Petilia Policastro KR 0°C 0% 0°C 0 mm 0 mm/h 0 km/h 0 hPa 00:00 del 09/05/2021
Acri CS 0°C 0% 0°C 0 mm 0 mm/h 0 km/h 0 hPa 00:00 del 09/05/2021
Serra Pedace CS 5.9°C 90% 0°C 0 mm 0 mm/h 6.6 km/h 0 hPa 00:00 del 09/05/2021
Satriano CZ 18.2°C 66% 0°C 0 mm 0 mm/h 0 km/h 0 hPa 00:00 del 09/05/2021
Spadola VV 8.9°C 94% 0°C 0 mm 0 mm/h 0 km/h 0 hPa 00:00 del 09/05/2021
Savelli KR 9.9°C 83% 7.1°C 0 mm 0 mm/h 1.4 km/h 1016.9 hPa 00:29 del 09/05/2021
Tropea VV 17.9°C 61% 10.3°C 0 mm 0 mm/h 3 km/h 1019.3 hPa 00:25 del 09/05/2021
Bisignano CS 14.9°C 76% 10.7°C 0 mm 0 mm/h 0 km/h 1018.6 hPa 00:24 del 09/05/2021
Dipignano CS 13°C 80% 9.6°C 0 mm 0 mm/h 0 km/h 1016.9 hPa 00:29 del 09/05/2021
Castrolibero CS 15.6°C 66% 9.3°C 0 mm 0 mm/h 0 km/h 1018 hPa 00:29 del 09/05/2021
Cosenza CS 15.3°C 72% 10.3°C 0 mm 0 mm/h 3.2 km/h 1017.5 hPa 00:27 del 09/05/2021
Catanzaro CZ 13.9°C 72% 8.9°C 0 mm 0 mm/h 14.3 km/h 1014.9 hPa 00:29 del 09/05/2021
Montalto Uffugo CS 14.9°C 77% 10.9°C 0 mm 0 mm/h 0 km/h 1020.3 hPa 00:28 del 09/05/2021
Soverato CZ 19.8°C 61% 12.1°C 0 mm 0 mm/h 19.3 km/h 1017.8 hPa 00:26 del 09/05/2021
Rosarno RC 13.7°C 98% 13.4°C 0 mm 0 mm/h 0 km/h 1021.2 hPa 00:29 del 09/05/2021
San Demetrio Corone CS 16.1°C 60% 7.2°C 0 mm 0 mm/h 2.9 km/h 1020.6 hPa 00:11 del 09/05/2021
Simeri Crichi CZ 17°C 68% 9.9°C 0 mm 0 mm/h 2.1 km/h 1017.6 hPa 00:10 del 09/05/2021
Decollatura CZ 10.6°C 85% 8.1°C 0 mm 0 mm/h 0 km/h 1021 hPa 00:27 del 09/05/2021
Zumpano CS 14.9°C 74% 10.3°C 0 mm 0 mm/h 3.2 km/h 1021 hPa 00:29 del 09/05/2021
Rende CS 16.4°C 67% 10°C 0 mm 0 mm/h 0 km/h 1019.6 hPa 00:27 del 09/05/2021
Dipignano CS 14.3°C 67% 7.1°C 0 mm 0 mm/h 4 km/h 1019.8 hPa 00:15 del 09/05/2021
Rogliano CS 11.5°C 78% 7.8°C 0 mm 0 mm/h 0 km/h 1023 hPa 00:29 del 09/05/2021
Pignataro Maggiore CE 19.3°C 61% 11.6°C 0 mm 0 mm/h 3.2 km/h 1020.5 hPa 00:24 del 09/05/2021
Pontelandolfo BN 12.3°C 84% 9.7°C 0 mm 0 mm/h 0 km/h 1020.3 hPa 00:20 del 09/05/2021
Napoli NA 18.8°C 77% 14.7°C 0 mm 0 mm/h 3.3 km/h 1017.4 hPa 00:00 del 09/05/2021
Buonabitacolo SA 12.6°C 65% 6.2°C 0 mm 0 mm/h 0 km/h 1020.2 hPa 00:25 del 09/05/2021
San Bartolomeo in Galdo BN 11.9°C 79% 8.4°C 0 mm 0 mm/h 0 km/h 1014.9 hPa 00:29 del 09/05/2021
Palma Campania NA 16.9°C 75% 12.4°C 0 mm 0 mm/h 0 km/h 1020 hPa 23:49 del 08/05/2021
Boscoreale NA 12.9°C 91% 11.5°C 0 mm 0 mm/h 0 km/h 1018.3 hPa 00:20 del 09/05/2021
Santa Maria a Vico CE 19.5°C 58% 11.1°C 0 mm 0 mm/h 11.3 km/h 0 hPa 00:27 del 09/05/2021
Alife CE 13.1°C 87% 11.1°C 0 mm 0 mm/h 0 km/h 1018.5 hPa 00:27 del 09/05/2021
Oliveto Citra SA 13.2°C 83% 10.3°C 0 mm 0 mm/h 6.5 km/h 1019.4 hPa 00:25 del 09/05/2021
Roscigno SA 14.4°C 82% 11.4°C 0 mm 0 mm/h 0 km/h 1019.5 hPa 00:26 del 09/05/2021
Padula SA 10.8°C 85% 8.4°C 0 mm 0 mm/h 0 km/h 1019.3 hPa 00:15 del 09/05/2021
Arienzo CE 18.1°C 61% 10.5°C 0 mm 0 mm/h 14.1 km/h 1019.1 hPa 00:25 del 09/05/2021
Altavilla Silentina SA 16.1°C 76% 11.9°C 0 mm 0 mm/h 0 km/h 1020.1 hPa 00:29 del 09/05/2021
Napoli NA 17.6°C 75% 13.1°C 0 mm 0 mm/h 0 km/h 1019.9 hPa 00:20 del 09/05/2021
Controne SA 14.7°C 79% 11.1°C 0 mm 0 mm/h 0 km/h 1023.9 hPa 00:27 del 09/05/2021
Ascea SA 16.7°C 83% 13.8°C 0 mm 0 mm/h 0 km/h 1019.4 hPa 00:26 del 09/05/2021
Campoli del Monte Taburno BN 13.9°C 72% 8.9°C 0 mm 0 mm/h 4.4 km/h 1019.2 hPa 00:25 del 09/05/2021
San Giovanni a Piro SA 14.1°C 84% 11.4°C 0 mm 0 mm/h 0 km/h 1020.5 hPa 00:20 del 09/05/2021
Castiglione del Genovesi SA 12.9°C 83% 10.1°C 0 mm 0 mm/h 0.4 km/h 1021.3 hPa 00:29 del 09/05/2021
Fisciano SA 14.1°C 80% 10.7°C 0 mm 0 mm/h 0 km/h 1018.6 hPa 00:15 del 09/05/2021
Caserta CE 19°C 51% 8.6°C 0 mm 0 mm/h 0 km/h 1019 hPa 00:29 del 09/05/2021
Caiazzo CE 16.2°C 72% 11.1°C 0 mm 0 mm/h 4.1 km/h 1019.8 hPa 00:29 del 09/05/2021
Agropoli SA 15.1°C 84% 12.4°C 0 mm 0 mm/h 2.6 km/h 1019.3 hPa 00:29 del 09/05/2021
Circello BN 11°C 81% 7.8°C 0 mm 0 mm/h 0 km/h 1027.1 hPa 00:29 del 09/05/2021
Morcone BN 10.3°C 90% 8.7°C 0 mm 0 mm/h 1.3 km/h 1015.9 hPa 00:24 del 09/05/2021
Padula SA 12.7°C 79% 9.2°C 0 mm 0 mm/h 0 km/h 1019 hPa 00:30 del 09/05/2021
Nicosia SA 19.6°C 86% 17.2°C 0 mm 0 mm/h 12.9 km/h 1007.7 hPa 01:10 del 09/05/2021
Frassinoro MO 8.4°C 95% 7.8°C 0 mm 0 mm/h 0 km/h 1019.7 hPa 00:38 del 09/05/2021
Gambettola FC 13.1°C 72% 8.3°C 0 mm 0 mm/h 8 km/h 1019.1 hPa 00:30 del 09/05/2021
Mirandola MO 11.7°C 78% 8°C 0 mm 0 mm/h 2.9 km/h 1020.1 hPa 00:29 del 09/05/2021
Savignano sul Panaro MO 11.8°C 88% 10°C 0 mm 0 mm/h 0 km/h 1017.2 hPa 00:26 del 09/05/2021
Vergato BO 0°C 0% 0°C 0 mm 0 mm/h 0 km/h 1020 hPa 00:24 del 09/05/2021
Cattolica RN 11.9°C 59% 4.2°C 0 mm 0 mm/h 3.2 km/h 1021.7 hPa 00:23 del 09/05/2021
Ferrara FE 13.8°C 72% 8.8°C 0 mm 0 mm/h 3.2 km/h 1019.1 hPa 00:25 del 09/05/2021
Savignano sul Panaro MO 13.2°C 86% 11.1°C 0 mm 0 mm/h 6.5 km/h 1018.9 hPa 00:29 del 09/05/2021
Savignano sul Panaro MO 13.8°C 84% 11.1°C 0 mm 0 mm/h 1.7 km/h 1017.4 hPa 00:29 del 09/05/2021
Novi di Modena MO 11.9°C 82% 9°C 0 mm 0 mm/h 0 km/h 1018.5 hPa 00:27 del 09/05/2021
Longiano FC 10.4°C 82% 7.5°C 0 mm 0 mm/h 0 km/h 1018.6 hPa 23:59 del 08/05/2021
Bellaria Igea Marina RN 13.7°C 67% 7.6°C 0 mm 0 mm/h 0 km/h 1018.9 hPa 00:29 del 09/05/2021
Bologna BO 12.4°C 0% 8.1°C 0 mm 0 mm/h 0 km/h 1015.6 hPa 00:29 del 09/05/2021
Ostellato FE 12.8°C 81% 9.7°C 0 mm 0 mm/h 0.2 km/h 1021 hPa 23:49 del 08/05/2021
Cervia RA 16.4°C 80% 13°C 0 mm 0 mm/h 16.1 km/h 1019.9 hPa 23:59 del 08/05/2021
Verghereto FC 5.3°C 95% 4.4°C 0 mm 0 mm/h 0 km/h 1021.2 hPa 00:02 del 09/05/2021
Imola BO 11.7°C 81% 8.6°C 0 mm 0 mm/h 0 km/h 1020.6 hPa 00:25 del 09/05/2021
Forlì FC 12.7°C 83% 10°C 0 mm 0 mm/h 0 km/h 1019.2 hPa 00:27 del 09/05/2021
Faenza RA 8.8°C 87% 6.7°C 0 mm 0 mm/h 0 km/h 1019.1 hPa 00:27 del 09/05/2021
Rimini RN 13.4°C 65% 7°C 0 mm 0 mm/h 4.8 km/h 1020.1 hPa 00:20 del 09/05/2021
Argenta FE 11.7°C 81% 8.6°C 0 mm 0 mm/h 0 km/h 1020.6 hPa 00:25 del 09/05/2021
Prignano sulla Secchia MO 12.5°C 74% 8°C 0 mm 0 mm/h 0 km/h 1020.1 hPa 00:28 del 09/05/2021
Bellaria Igea Marina RN 14°C 59% 6.1°C 0 mm 0 mm/h 0 km/h 1012.6 hPa 00:29 del 09/05/2021
Codigoro FE 13.2°C 83% 10.6°C 0 mm 0 mm/h 0 km/h 1020.3 hPa 00:27 del 09/05/2021
Roncofreddo FC 13.1°C 78% 9.4°C 0 mm 0 mm/h 1.6 km/h 1017.7 hPa 00:27 del 09/05/2021
Rimini RN 12.4°C 60% 4.8°C 0 mm 0 mm/h 0 km/h 1015.4 hPa 00:29 del 09/05/2021
Bologna BO 13.7°C 81% 10.6°C 0 mm 0 mm/h 0 km/h 1020.3 hPa 00:27 del 09/05/2021
Fidenza PR 15.5°C 84% 12.8°C 0 mm 0 mm/h 1.6 km/h 1018.7 hPa 00:27 del 09/05/2021
San Felice sul Panaro MO 13°C 72% 8.1°C 0 mm 0 mm/h 1.9 km/h 1019.5 hPa 00:25 del 09/05/2021
Rimini RN 13.7°C 65% 7.2°C 0 mm 0 mm/h 0 km/h 1021.5 hPa 00:27 del 09/05/2021
Molinella BO 11.8°C 72% 6.8°C 0 mm 0 mm/h 0 km/h 1020.3 hPa 23:49 del 08/05/2021
Rimini RN 12.9°C 70% 7.5°C 0 mm 0 mm/h 0 km/h 1015.3 hPa 00:20 del 09/05/2021
Bagnacavallo RA 11.2°C 85% 8.9°C 0 mm 0 mm/h 0 km/h 1019.5 hPa 00:27 del 09/05/2021
Ferrara FE 13.6°C 73% 8.9°C 0 mm 0 mm/h 3.2 km/h 1019.4 hPa 00:28 del 09/05/2021
Codigoro FE 12.9°C 78% 8.9°C 0 mm 0 mm/h 0 km/h 1019.1 hPa 00:27 del 09/05/2021
Soragna PR 11.5°C 92% 10.2°C 0 mm 0 mm/h 1.6 km/h 1019.1 hPa 00:25 del 09/05/2021
Castelnovo ne' Monti RE 10.9°C 90% 9.4°C 0 mm 0 mm/h 0 km/h 1018.9 hPa 00:20 del 09/05/2021
Modena MO 13.8°C 75% 9.5°C 0 mm 0 mm/h 3.2 km/h 1020.3 hPa 00:29 del 09/05/2021
Portomaggiore FE 12.5°C 80% 8.9°C 0 mm 0 mm/h 0 km/h 1020.3 hPa 00:27 del 09/05/2021
Rivergaro PC 14.7°C 80% 11.1°C 0 mm 0 mm/h 6.4 km/h 1019.1 hPa 00:27 del 09/05/2021
Ferriere PC 8.4°C 92% 7.2°C 0 mm 0 mm/h 0 km/h 1021.2 hPa 00:27 del 09/05/2021
Piacenza PC 15.8°C 79% 12.2°C 0 mm 0 mm/h 1.6 km/h 1019.6 hPa 00:27 del 09/05/2021
Ponte dell'Olio PC 12.8°C 14% -14.4°C 0.2 mm 0 mm/h 3.2 km/h 1020.1 hPa 00:27 del 09/05/2021
Pontenure PC 16.1°C 72% 11°C 0 mm 0 mm/h 0 km/h 1019.9 hPa 00:20 del 09/05/2021
Gatteo FC 15.1°C 64% 8.3°C 0 mm 0 mm/h 9.7 km/h 1018.6 hPa 00:27 del 09/05/2021
Pavullo nel Frignano MO 9.4°C 92% 8.2°C 0 mm 0 mm/h 0 km/h 1019.6 hPa 00:10 del 09/05/2021
Parma PR 11.1°C 87% 9°C 0 mm 0 mm/h 0 km/h 1020.1 hPa 00:25 del 09/05/2021
Vignola MO 11.9°C 85% 0°C 0 mm 0 mm/h 0 km/h 0 hPa 00:00 del 09/05/2021
Carpi MO 12.4°C 78% 0°C 0 mm 0 mm/h 0 km/h 0 hPa 00:00 del 09/05/2021
Finale Emilia MO 13.6°C 60% 0°C 0 mm 0 mm/h 4.3 km/h 0 hPa 00:00 del 09/05/2021
Castelfranco Emilia MO 13.6°C 72% 0°C 0 mm 0 mm/h 0 km/h 0 hPa 00:00 del 09/05/2021
Sasso Marconi BO 13.7°C 75% 0°C 0 mm 0 mm/h 0 km/h 0 hPa 00:00 del 09/05/2021
Sant'Agata sul Santerno RA 9.7°C 90% 0°C 0 mm 0 mm/h 0 km/h 0 hPa 00:00 del 09/05/2021
Ravenna RA 9.2°C 0% 0°C 0 mm 0 mm/h 0 km/h 0 hPa 00:00 del 09/05/2021
Rimini RN 12.3°C 0% 0°C 0 mm 0 mm/h 0 km/h 0 hPa 00:00 del 09/05/2021
Crevalcore BO 12.9°C 68% 0°C 0 mm 0 mm/h 0 km/h 0 hPa 00:00 del 09/05/2021
Copparo FE 12.8°C 77% 0°C 0 mm 0 mm/h 0 km/h 0 hPa 00:00 del 09/05/2021
Correggio RE 12.3°C 79% 0°C 0 mm 0 mm/h 0 km/h 0 hPa 00:00 del 09/05/2021
Cesena FC 12.4°C 62% 0°C 0 mm 0 mm/h 0 km/h 0 hPa 00:00 del 09/05/2021
Conselice RA 11.5°C 76% 0°C 0 mm 0 mm/h 0 km/h 0 hPa 00:00 del 09/05/2021
Rolo RE 13.2°C 70% 0°C 0 mm 0 mm/h 0 km/h 0 hPa 00:00 del 09/05/2021
Cesena FC 11.6°C 0% 0°C 0 mm 0 mm/h 1.4 km/h 0 hPa 00:00 del 09/05/2021
Torrile PR 13.6°C 79% 0°C 0 mm 0 mm/h 0 km/h 0 hPa 00:00 del 09/05/2021
Piacenza PC 16.5°C 61% 0°C 0 mm 0 mm/h 4.3 km/h 0 hPa 00:00 del 09/05/2021
Reggio Emilia RE 15.4°C 63% 0°C 0 mm 0 mm/h 5.8 km/h 0 hPa 00:00 del 09/05/2021
Modena MO 14.7°C 63% 0°C 0 mm 0 mm/h 0 km/h 0 hPa 00:00 del 09/05/2021
Bologna BO 15°C 63% 0°C 0 mm 0 mm/h 5.4 km/h 0 hPa 00:00 del 09/05/2021
Ferrara FE 14.7°C 56% 0°C 0 mm 0 mm/h 6.5 km/h 0 hPa 00:00 del 09/05/2021
Ravenna RA 14.5°C 72% 0°C 0 mm 0 mm/h 0 km/h 0 hPa 00:00 del 09/05/2021
Forlì FC 12.8°C 75% 0°C 0 mm 0 mm/h 0 km/h 0 hPa 00:00 del 09/05/2021
Cesena FC 13°C 61% 0°C 0 mm 0 mm/h 0 km/h 0 hPa 00:00 del 09/05/2021
Rimini RN 14.8°C 49% 0°C 0 mm 0 mm/h 3.6 km/h 0 hPa 00:00 del 09/05/2021
Budrio BO 11.9°C 78% 0°C 0 mm 0 mm/h 0 km/h 0 hPa 00:00 del 09/05/2021
Medicina BO 12.5°C 72% 0°C 0 mm 0 mm/h 0 km/h 0 hPa 00:00 del 09/05/2021
Castel San Pietro Terme BO 11.2°C 90% 0°C 0 mm 0 mm/h 0 km/h 0 hPa 00:00 del 09/05/2021
Roccabianca PR 14.2°C 75% 0°C 0 mm 0 mm/h 0 km/h 0 hPa 00:00 del 09/05/2021
Castelnovo di Sotto RE 12.2°C 79% 0°C 0 mm 0 mm/h 0 km/h 0 hPa 00:00 del 09/05/2021
Carpineti RE 11.6°C 0% 0°C 0 mm 0 mm/h 0 km/h 0 hPa 00:00 del 09/05/2021
Montefiorino MO 10°C 91% 0°C 0 mm 0 mm/h 0 km/h 0 hPa 00:00 del 09/05/2021
Fidenza PR 14.7°C 73% 0°C 0 mm 0 mm/h 0 km/h 0 hPa 00:00 del 09/05/2021
San Possidonio MO 11.9°C 77% 0°C 0 mm 0 mm/h 0 km/h 0 hPa 00:00 del 09/05/2021
Civitella di Romagna FC 12.1°C 81% 0°C 0 mm 0 mm/h 0 km/h 0 hPa 00:00 del 09/05/2021
Rottofreno PC 12.5°C 84% 0°C 0 mm 0 mm/h 0 km/h 0 hPa 00:00 del 09/05/2021
San Felice sul Panaro MO 12°C 76% 0°C 0 mm 0 mm/h 0 km/h 0 hPa 00:00 del 09/05/2021
Sala Bolognese BO 12.8°C 71% 0°C 0 mm 0 mm/h 0 km/h 0 hPa 00:00 del 09/05/2021
Imola BO 11.3°C 0% 0°C 0 mm 0 mm/h 0 km/h 0 hPa 00:00 del 09/05/2021
Coriano RN 0°C 66% 0°C 0 mm 0 mm/h 0 km/h 0 hPa 00:00 del 09/05/2021
Molinella BO 13.1°C 68% 0°C 0 mm 0 mm/h 0 km/h 0 hPa 00:00 del 09/05/2021
Brisighella RA 11.4°C 88% 0°C 0 mm 0 mm/h 0 km/h 0 hPa 00:00 del 09/05/2021
Loiano BO 12.4°C 82% 0°C 0 mm 0 mm/h 0 km/h 0 hPa 00:00 del 09/05/2021
Monterenzio BO 10.5°C 90% 8.9°C 0 mm 0 mm/h 0 km/h 1020.8 hPa 00:15 del 09/05/2021
Cesena FC 10.8°C 80% 7.8°C 0 mm 0 mm/h 8 km/h 1014.7 hPa 00:27 del 09/05/2021
Morfasso PC 10.9°C 88% 8.9°C 0 mm 0 mm/h 0 km/h 1019.2 hPa 00:27 del 09/05/2021
Savignano sul Rubicone FC 10.9°C 78% 7.2°C 0 mm 0 mm/h 0 km/h 1018.3 hPa 00:28 del 09/05/2021
Migliarino FE 13.7°C 74% 9.1°C 0 mm 0 mm/h 0 km/h 1020.4 hPa 00:29 del 09/05/2021
Bologna BO 12.7°C 80% 9.4°C 0 mm 0 mm/h 1.6 km/h 1017.7 hPa 00:27 del 09/05/2021
Bondeno FE 12.1°C 0% 0°C 0 mm 0 mm/h 0 km/h 0 hPa 00:00 del 09/05/2021
Rivergaro PC 13.9°C 81% 10.6°C 0 mm 0 mm/h 11.3 km/h 1019 hPa 00:27 del 09/05/2021
Forlì FC 10.8°C 85% 8.4°C 0 mm 0 mm/h 3.2 km/h 1020 hPa 00:28 del 09/05/2021
Roncofreddo FC 12.9°C 73% 8.3°C 0 mm 0 mm/h 0 km/h 1017.5 hPa 00:27 del 09/05/2021
Argenta FE 11.9°C 85% 9.4°C 0 mm 0 mm/h 0 km/h 1020.1 hPa 00:27 del 09/05/2021
Copparo FE 11.9°C 100% 11.7°C 0 mm 0 mm/h 0 km/h 1020.2 hPa 00:27 del 09/05/2021
Poggio Renatico FE 13.4°C 75% 8.9°C 0 mm 0 mm/h 0 km/h 1019.7 hPa 00:27 del 09/05/2021
Ostellato FE 12.2°C 81% 8.9°C 0 mm 0 mm/h 0 km/h 1020.7 hPa 00:27 del 09/05/2021
Mesola FE 11.4°C 77% 7.8°C 0 mm 0 mm/h 0 km/h 1020.4 hPa 00:28 del 09/05/2021
Argenta FE 12.1°C 81% 8.9°C 0 mm 0 mm/h 0 km/h 1019.3 hPa 00:15 del 09/05/2021
Ferrara FE 13.4°C 75% 8.9°C 0 mm 0 mm/h 0 km/h 1020 hPa 00:27 del 09/05/2021
Jolanda di Savoia FE 12.9°C 83% 10°C 0 mm 0 mm/h 3.2 km/h 1021 hPa 00:27 del 09/05/2021
Ferrara FE 13°C 76% 8.9°C 0 mm 0 mm/h 0 km/h 1019 hPa 00:26 del 09/05/2021
Ostellato FE 13.9°C 77% 10°C 0 mm 0 mm/h 0 km/h 1016.2 hPa 00:27 del 09/05/2021
Vigarano Mainarda FE 13.1°C 68% 7.2°C 0 mm 0 mm/h 0 km/h 0 hPa 00:27 del 09/05/2021
Ferrara FE 12.9°C 80% 9.4°C 0 mm 0 mm/h 0 km/h 1019.6 hPa 00:23 del 09/05/2021
Argenta FE 12°C 79% 8.3°C 0 mm 0 mm/h 0 km/h 1018.5 hPa 00:27 del 09/05/2021
Portomaggiore FE 12.8°C 84% 10°C 0 mm 0 mm/h 1.6 km/h 1018.7 hPa 00:27 del 09/05/2021
Portomaggiore FE 12.8°C 78% 8.9°C 0 mm 0 mm/h 0 km/h 1020.2 hPa 00:27 del 09/05/2021
Comacchio FE 14.5°C 77% 10.6°C 0 mm 0 mm/h 1.6 km/h 1019.8 hPa 00:27 del 09/05/2021
Bondeno FE 12°C 76% 7.8°C 0 mm 0 mm/h 0 km/h 1019.7 hPa 00:27 del 09/05/2021
Sant'Agostino FE 14.2°C 72% 9.4°C 0 mm 0 mm/h 4.8 km/h 1020.7 hPa 00:27 del 09/05/2021
Massa Fiscaglia FE 12.3°C 84% 9.7°C 0 mm 0 mm/h 11.3 km/h 1009.6 hPa 00:00 del 09/05/2021
Tresigallo FE 13.9°C 77% 10°C 0 mm 0 mm/h 3.2 km/h 1019.5 hPa 00:27 del 09/05/2021
Ferrara FE 11.3°C 84% 8.9°C 0 mm 0 mm/h 0 km/h 1019 hPa 00:27 del 09/05/2021
Jolanda di Savoia FE 13.9°C 74% 9.4°C 0 mm 0 mm/h 3.2 km/h 1020.3 hPa 00:15 del 09/05/2021
Argenta FE 11.2°C 83% 8.4°C 0 mm 0 mm/h 4.8 km/h 1020.3 hPa 00:25 del 09/05/2021
Codigoro FE 13.1°C 80% 9.4°C 0 mm 0 mm/h 1.6 km/h 1019.4 hPa 00:27 del 09/05/2021
Lagosanto FE 14.1°C 74% 9.4°C 0 mm 0 mm/h 4.8 km/h 1019.7 hPa 00:27 del 09/05/2021
Ostellato FE 13.5°C 78% 9.7°C 0 mm 0 mm/h 0 km/h 1014.9 hPa 00:00 del 09/05/2021
Rimini RN 15.1°C 66% 8.9°C 0 mm 0 mm/h 8 km/h 1018.7 hPa 00:27 del 09/05/2021
Faenza RA 12.3°C 83% 9.5°C 0 mm 0 mm/h 0 km/h 1017.5 hPa 00:15 del 09/05/2021
Canossa RE 11.7°C 89% 9.9°C 0.4 mm 0 mm/h 0 km/h 1020.8 hPa 23:59 del 08/05/2021
Ferrara FE 14.3°C 72% 9.4°C 0 mm 0 mm/h 0 km/h 1019.9 hPa 00:27 del 09/05/2021
Riccione RN 14.9°C 60% 7.2°C 0 mm 0 mm/h 2.5 km/h 1024.7 hPa 00:28 del 09/05/2021
Cesena FC 10.7°C 82% 7.8°C 0 mm 0 mm/h 0 km/h 1020.5 hPa 00:27 del 09/05/2021
San Felice sul Panaro MO 12.9°C 70% 7.6°C 0 mm 0 mm/h 2.5 km/h 1023.1 hPa 00:29 del 09/05/2021
San Possidonio MO 11.6°C 83% 8.8°C 0 mm 0 mm/h 0 km/h 1020.6 hPa 00:30 del 09/05/2021
Imola BO 9.3°C 91% 7.9°C 0 mm 0 mm/h 1.6 km/h 1019.7 hPa 00:00 del 09/05/2021
Ravenna RA 0°C 0% 0°C 0 mm 0 mm/h 0 km/h 0 hPa 00:23 del 09/05/2021
Crespellano BO 13.8°C 80% 10.4°C 0 mm 0 mm/h 1.6 km/h 1018.8 hPa 00:00 del 09/05/2021
Monteveglio BO 11.4°C 89% 10°C 0 mm 0 mm/h 1.6 km/h 1003.9 hPa 00:27 del 09/05/2021
San Pietro in Casale BO 12.1°C 82% 8.9°C 0 mm 0 mm/h 0 km/h 1020.2 hPa 00:28 del 09/05/2021
Castel Bolognese RA 9.5°C 85% 7.2°C 0 mm 0 mm/h 0 km/h 1021.5 hPa 00:27 del 09/05/2021
Borgo Val di Taro PR 9.7°C 0% -1°C 0 mm 0 mm/h 0 km/h 1015.9 hPa 23:49 del 08/05/2021
Monte San Pietro BO 11.3°C 93% 10°C 0 mm 0 mm/h 0 km/h 1020.3 hPa 00:27 del 09/05/2021
Casola Valsenio RA 12.8°C 89% 11.1°C 0 mm 0 mm/h 1.6 km/h 1020.3 hPa 00:27 del 09/05/2021
Ferrara FE 12.7°C 80% 9.4°C 0 mm 0 mm/h 3.2 km/h 1021.9 hPa 00:00 del 09/05/2021
Cesena FC 12.7°C 74% 8.3°C 0 mm 0 mm/h 3.2 km/h 1021.9 hPa 00:27 del 09/05/2021
Rimini RN 15°C 49% 4.4°C 0 mm 0 mm/h 0 km/h 1018.7 hPa 00:27 del 09/05/2021
Modigliana FC 12.2°C 86% 10°C 0 mm 0 mm/h 1.6 km/h 1022.1 hPa 00:27 del 09/05/2021
Faenza RA 11.1°C 47% 0°C 0 mm 0 mm/h 0 km/h 990.2 hPa 00:27 del 09/05/2021
Codigoro FE 11.9°C 80% 8.6°C 0 mm 0 mm/h 4.8 km/h 1022.1 hPa 00:00 del 09/05/2021
Ferrara FE 13.7°C 76% 9.4°C 0 mm 0 mm/h 1.6 km/h 1020.7 hPa 00:24 del 09/05/2021
Valsamoggia BO 12.2°C 79% 8.9°C 0 mm 0 mm/h 0 km/h 1020.5 hPa 00:24 del 09/05/2021
Lizzano in Belvedere BO 10.3°C 93% 9.2°C 0 mm 0 mm/h 2.7 km/h 1022 hPa 23:49 del 08/05/2021
Correggio RE 13.9°C 78% 10°C 0 mm 0 mm/h 3.2 km/h 1020.4 hPa 00:20 del 09/05/2021
Minerbio BO 12.5°C 81% 9.4°C 0 mm 0 mm/h 1.6 km/h 1020.4 hPa 00:28 del 09/05/2021
Monterenzio BO 11.4°C 34% -3.9°C 0 mm 0 mm/h 0 km/h 1021.2 hPa 00:27 del 09/05/2021
Malalbergo BO 13.7°C 75% 9.4°C 0 mm 0 mm/h 3.2 km/h 1017.9 hPa 00:25 del 09/05/2021
Borgonovo Val Tidone PC 11.1°C 89% 9.3°C 0 mm 0 mm/h 0 km/h 1019.8 hPa 00:29 del 09/05/2021
Saludecio RN 7.2°C 93% 6.1°C 0 mm 0 mm/h 0 km/h 1020.2 hPa 00:29 del 09/05/2021
Ronda RN 19.7°C 52% 9.6°C 0 mm 0 mm/h 15 km/h 1017.6 hPa 23:49 del 08/05/2021
Chert/Xert RN 12.7°C 90% 11.1°C 0 mm 0 mm/h 3 km/h 1014.2 hPa 00:28 del 09/05/2021
Serémange-Erzange RN 10.5°C 90% 8.9°C 0 mm 0 mm/h 0 km/h 1011.3 hPa 00:27 del 09/05/2021
Lagarrigue RN 17°C 80% 13.3°C 0 mm 0 mm/h 17.7 km/h 1009.4 hPa 00:27 del 09/05/2021
Saint-Brevin RN 10.8°C 95% 10°C 0 mm 0 mm/h 0 km/h 1004.7 hPa 00:29 del 09/05/2021
Verneuil-sur-Seine RN 12.1°C 85% 9.4°C 0 mm 0 mm/h 0 km/h 1006.1 hPa 00:27 del 09/05/2021
Puy-Saint-Pierre RN 8.3°C 72% 3.6°C 0 mm 0 mm/h 0 km/h 1017.5 hPa 00:25 del 09/05/2021
Plouguerneau RN 14.3°C 90% 12.7°C 3.6 mm 0 mm/h 12.9 km/h 999.5 hPa 00:25 del 09/05/2021
Aniane RN 17.3°C 81% 14°C 0.2 mm 0 mm/h 9.7 km/h 1015.7 hPa 23:59 del 08/05/2021
Saint-Médard-d'Aunis RN 18.1°C 80% 14.6°C 0 mm 0 mm/h 11.7 km/h 1003.8 hPa 00:20 del 09/05/2021
Besse sur Issole RN 9.9°C 89% 8.3°C 0 mm 0 mm/h 0 km/h 1018.7 hPa 00:20 del 09/05/2021
Granges lès Beaumont RN 16.6°C 69% 10.8°C 0 mm 0 mm/h 16.1 km/h 1014.8 hPa 00:20 del 09/05/2021
Savigny-lès-Beaune RN 11.4°C 90% 10°C 0 mm 0 mm/h 1.6 km/h 1011.5 hPa 00:10 del 09/05/2021
Selonnet RN 10.8°C 84% 8.2°C 0 mm 0 mm/h 0.4 km/h 1021.3 hPa 00:15 del 09/05/2021
Saint-Martin-d'Hères RN 15.8°C 79% 12.2°C 0 mm 0 mm/h 0 km/h 1013.4 hPa 00:00 del 09/05/2021
Corte RN 11.2°C 0% 0°C 0 mm 0 mm/h 0 km/h 1018.7 hPa 00:20 del 09/05/2021
Ferrals-lès-Corbières RN 16.7°C 72% 11.6°C 0 mm 0 mm/h 12.9 km/h 1011.6 hPa 00:00 del 09/05/2021
Saint-Yrieix-le-Déjalat RN 16.8°C 61% 9.2°C 0 mm 0 mm/h 13 km/h 1004.9 hPa 00:00 del 09/05/2021
Orcières RN 8.6°C 80% 5.6°C 0 mm 0 mm/h 1.6 km/h 1016 hPa 00:20 del 09/05/2021
Cardo RN 14.4°C 60% 6.7°C 0 mm 0 mm/h 1.6 km/h 1020.3 hPa 00:20 del 09/05/2021
Jarny RN 11.6°C 92% 10.4°C 0 mm 0 mm/h 1.6 km/h 1011 hPa 00:00 del 09/05/2021
Véretz RN 0°C 78% 0°C 0 mm 0 mm/h 0 km/h 1004.7 hPa 00:00 del 09/05/2021
Rochegude RN 16.9°C 63% 9.4°C 0 mm 0 mm/h 9.7 km/h 1015.1 hPa 00:20 del 09/05/2021
Lamballe RN 0°C 81% 9.9°C 0 mm 0 mm/h 5.6 km/h 1001.3 hPa 00:00 del 09/05/2021
Fontenay-le-Comte RN 0°C 0% 0°C 0 mm 0 mm/h 0 km/h 1004 hPa 00:20 del 09/05/2021
Lamballe RN 13.2°C 84% 10.6°C 0 mm 0 mm/h 1.6 km/h 1002.2 hPa 00:20 del 09/05/2021
Sandillon RN 13.8°C 85% 11.3°C 0 mm 0 mm/h 1.6 km/h 1006.6 hPa 00:00 del 09/05/2021
Saint-Etienne-du-Bois RN 18.9°C 67% 12.6°C 0 mm 0 mm/h 17.7 km/h 1011.4 hPa 00:00 del 09/05/2021
Auribeau-sur-Siagne RN 0°C 0% 0°C 0 mm 0 mm/h 0 km/h 1020.2 hPa 00:00 del 09/05/2021
Saint-Symphorien RN 10.4°C 87% 8.4°C 0 mm 0 mm/h 17.7 km/h 1013 hPa 00:00 del 09/05/2021
Armentières RN 0°C 80% 0°C 0 mm 0 mm/h 0 km/h 1004.2 hPa 00:10 del 09/05/2021
Corny-sur-Moselle RN 9.6°C 91% 8.2°C 0 mm 0 mm/h 1.6 km/h 1010.2 hPa 00:20 del 09/05/2021
Vizille RN 18.6°C 65% 11.9°C 0 mm 0 mm/h 2 km/h 1015.3 hPa 00:20 del 09/05/2021
Toulon RN 15.9°C 64% 9.1°C 0 mm 0 mm/h 0 km/h 1019.1 hPa 00:15 del 09/05/2021
Carnoux-en-Provence RN 15.2°C 71% 10°C 0 mm 0 mm/h 9.7 km/h 1016.3 hPa 00:20 del 09/05/2021
Niort RN 18.7°C 63% 11.7°C 0 mm 0 mm/h 0 km/h 1005 hPa 00:20 del 09/05/2021
Canéjan RN 21.9°C 61% 14.1°C 0 mm 0 mm/h 3.2 km/h 1004.5 hPa 00:00 del 09/05/2021
Courcouronnes RN 14.8°C 72% 10°C 0 mm 0 mm/h 1.6 km/h 1005.8 hPa 00:20 del 09/05/2021
La Teste de Buch RN 21.9°C 62% 14.3°C 0 mm 0 mm/h 13.3 km/h 1003.4 hPa 00:20 del 09/05/2021
Soumoulou RN 24.3°C 34% 7.2°C 0 mm 0 mm/h 0.2 km/h 1006.5 hPa 00:15 del 09/05/2021
Echallon RN 14.6°C 0% 0°C 0 mm 0 mm/h 0 km/h 1012.9 hPa 00:00 del 09/05/2021
Saint-Jean-de-la-Haize RN 15.3°C 78% 11.7°C 0 mm 0 mm/h 6.4 km/h 1003.7 hPa 00:20 del 09/05/2021
Peypin RN 15.1°C 75% 10.7°C 0 mm 0 mm/h 1.6 km/h 1016.9 hPa 00:00 del 09/05/2021
Orange RN 15.9°C 71% 10.7°C 0 mm 0 mm/h 0 km/h 1017 hPa 00:00 del 09/05/2021
Villemoisson-sur-Orge RN 13.9°C 82% 10.9°C 0 mm 0 mm/h 0 km/h 1006.6 hPa 00:00 del 09/05/2021
Miribel-les-Echelles RN 13.8°C 78% 0°C 0 mm 0 mm/h 0 km/h 0 hPa 00:10 del 09/05/2021
Le Sappey RN 12.6°C 75% 8.3°C 0 mm 0 mm/h 4.8 km/h 1015.2 hPa 00:00 del 09/05/2021
Crempigny-Bonneguête RN 16.1°C 75% 11.7°C 0 mm 0 mm/h 6.4 km/h 1014.6 hPa 00:20 del 09/05/2021
Cernay RN 14.7°C 89% 12.9°C 0 mm 0 mm/h 0 km/h 1004.8 hPa 00:20 del 09/05/2021
Entrechaux RN 13.4°C 82% 10.6°C 0 mm 0 mm/h 0 km/h 1017.5 hPa 00:20 del 09/05/2021
Thyez RN 14.7°C 47% 3.3°C 0 mm 0 mm/h 0 km/h 1014.3 hPa 00:20 del 09/05/2021
Rablay-sur-Layon RN 15°C 62% 7.8°C 0 mm 0 mm/h 1.6 km/h 1003.7 hPa 00:20 del 09/05/2021
Chailles RN 15°C 80% 11.6°C 0 mm 0 mm/h 1.6 km/h 1005.8 hPa 00:20 del 09/05/2021
Salins RN 18.4°C 60% 10.6°C 0 mm 0 mm/h 12.9 km/h 1008.8 hPa 00:20 del 09/05/2021
Augy-sur-Aubois RN 16.8°C 80% 13.3°C 0 mm 0 mm/h 6.4 km/h 1007.2 hPa 00:20 del 09/05/2021
Buhl-Lorraine RN 7.2°C 90% 5.6°C 0 mm 0 mm/h 0 km/h 1011.8 hPa 00:20 del 09/05/2021
Trelly RN 13.4°C 82% 10.6°C 0 mm 0 mm/h 3.2 km/h 1002.7 hPa 00:20 del 09/05/2021
Marseille RN 17.8°C 59% 9.4°C 0 mm 0 mm/h 6.4 km/h 1017.9 hPa 00:20 del 09/05/2021
Laillé RN 10.2°C 89% 8.5°C 0 mm 0 mm/h 0 km/h 1004.1 hPa 00:00 del 09/05/2021
Saint-Philbert-de-Grand-Lieu RN 12.6°C 87% 10.6°C 0 mm 0 mm/h 0 km/h 1004.8 hPa 00:20 del 09/05/2021
Chenecey-Buillon RN 10.1°C 0% 0°C 0 mm 0 mm/h 0 km/h 1012 hPa 00:20 del 09/05/2021
Roullours RN 11.7°C 83% 8.9°C 0 mm 0 mm/h 0 km/h 1003.3 hPa 00:20 del 09/05/2021
Sain-Bel RN 18.5°C 59% 10°C 0 mm 0 mm/h 1.6 km/h 1011.2 hPa 00:20 del 09/05/2021
Kernoues RN 14.7°C 86% 12.4°C 4 mm 0 mm/h 29 km/h 1001 hPa 00:00 del 09/05/2021
Plounéventer RN 14.3°C 88% 12.4°C 2.6 mm 0 mm/h 25.9 km/h 1000.7 hPa 00:00 del 09/05/2021
Naintré RN 15.2°C 88% 13.3°C 0 mm 0 mm/h 0 km/h 1004.2 hPa 00:20 del 09/05/2021
Grambois RN 14.7°C 80% 11.3°C 0 mm 0 mm/h 6.4 km/h 1018.1 hPa 00:00 del 09/05/2021
Saint-Martinien RN 18.9°C 60% 11°C 0 mm 0 mm/h 8 km/h 1007 hPa 00:20 del 09/05/2021
Soucieu-en-Jarrest RN 17.9°C 66% 11.4°C 0 mm 0 mm/h 20.9 km/h 1012.3 hPa 00:20 del 09/05/2021
Chélieu RN 14.3°C 70% 8.9°C 0 mm 0 mm/h 1.6 km/h 1014 hPa 00:20 del 09/05/2021
Saint-Jean-de-Védas RN 16.4°C 79% 12.8°C 0 mm 0 mm/h 9.7 km/h 1015.6 hPa 00:20 del 09/05/2021
Bellefontaine RN 7.9°C 0% 0°C 0 mm 0 mm/h 0 km/h 1011.9 hPa 00:20 del 09/05/2021
Agde RN 16.8°C 90% 15.2°C 0 mm 0 mm/h 8.4 km/h 1015.1 hPa 00:20 del 09/05/2021
Belin-Béliet RN 21.3°C 67% 14.9°C 0 mm 0 mm/h 3.5 km/h 1004.5 hPa 00:15 del 09/05/2021
Gros-Réderching RN 9.6°C 83% 6.8°C 0 mm 0 mm/h 0 km/h 1012.7 hPa 00:00 del 09/05/2021
Le Mesnil-Esnard RN 15.2°C 71% 10°C 0 mm 0 mm/h 0 km/h 1004.9 hPa 00:20 del 09/05/2021
Niederbronn-les-Bains RN 8.1°C 91% 6.7°C 0 mm 0 mm/h 0 km/h 1012.4 hPa 00:20 del 09/05/2021
Aigrefeuille-d'Aunis RN 18.3°C 85% 15.7°C 0 mm 0 mm/h 4.5 km/h 1004 hPa 00:20 del 09/05/2021
Saint-Haon RN 11.9°C 88% 10°C 0 mm 0 mm/h 15.5 km/h 1014 hPa 00:00 del 09/05/2021
Rupt-sur-Moselle RN 9.6°C 0% 0°C 0 mm 0 mm/h 0 km/h 1012.2 hPa 00:20 del 09/05/2021
Meillers RN 19.8°C 64% 12.8°C 0 mm 0 mm/h 11.3 km/h 1007.2 hPa 00:20 del 09/05/2021
Fachin RN 17.1°C 67% 10.9°C 0 mm 0 mm/h 11.3 km/h 1011.6 hPa 00:15 del 09/05/2021
Laroque RN 17°C 79% 13.3°C 0 mm 0 mm/h 9.7 km/h 1016.2 hPa 00:00 del 09/05/2021
Bulson RN 12.7°C 83% 10°C 0 mm 0 mm/h 3.2 km/h 1008.9 hPa 00:20 del 09/05/2021
Eygliers RN 12.5°C 71% 7.2°C 0 mm 0 mm/h 4.8 km/h 1017.6 hPa 00:20 del 09/05/2021
Departement de la Vendee RN 17°C 87% 15°C 0 mm 0 mm/h 0 km/h 1003.8 hPa 00:20 del 09/05/2021
Le Luc RN 13.8°C 80% 10.6°C 0 mm 0 mm/h 0 km/h 1018.9 hPa 00:20 del 09/05/2021
Villebret RN 19°C 55% 9.4°C 0 mm 0 mm/h 11.3 km/h 1007.3 hPa 00:20 del 09/05/2021
Béziers RN 17.2°C 84% 14.4°C 0 mm 0 mm/h 8 km/h 1015.6 hPa 00:00 del 09/05/2021
Nogentel RN 13.8°C 81% 10.6°C 0 mm 0 mm/h 2.5 km/h 1008.1 hPa 00:00 del 09/05/2021
Viriat RN 18.7°C 67% 12.2°C 0 mm 0 mm/h 17.7 km/h 1011.5 hPa 00:20 del 09/05/2021
L'Isle-d'Abeau RN 17.9°C 69% 12.2°C 0 mm 0 mm/h 8 km/h 1012.9 hPa 00:20 del 09/05/2021
Valence RN 20.8°C 65% 14°C 0 mm 0 mm/h 5.9 km/h 1007.9 hPa 00:30 del 09/05/2021
Saint-Léger-les-Mélèzes RN 11.2°C 81% 8.3°C 0 mm 0 mm/h 3.2 km/h 1017.9 hPa 00:20 del 09/05/2021
Saint-Amans RN 11.3°C 86% 9°C 0 mm 0 mm/h 16.1 km/h 1012.5 hPa 00:20 del 09/05/2021
Meyrieux-Trouet RN 16.2°C 70% 10.6°C 0 mm 0 mm/h 4.8 km/h 1014.5 hPa 00:20 del 09/05/2021
Cheylade RN 16.1°C 64% 9.4°C 0 mm 0 mm/h 4.8 km/h 1009.8 hPa 00:20 del 09/05/2021
Saramon RN 16.6°C 83% 13.7°C 0 mm 0 mm/h 1.6 km/h 1008 hPa 00:00 del 09/05/2021
Aubagne RN 12.3°C 82% 9.4°C 0 mm 0 mm/h 0 km/h 0 hPa 00:20 del 09/05/2021
Genac RN 18.9°C 75% 14.4°C 0 mm 0 mm/h 3.2 km/h 1004 hPa 00:10 del 09/05/2021
Bourg-lès-Valence RN 17.2°C 70% 11.7°C 0 mm 0 mm/h 12.9 km/h 1015.4 hPa 00:20 del 09/05/2021
Ciran RN 13.4°C 91% 12.2°C 0 mm 0 mm/h 0 km/h 1004.9 hPa 00:20 del 09/05/2021
Arvert RN 19.7°C 81% 16.3°C 0 mm 0 mm/h 8 km/h 1003.5 hPa 00:20 del 09/05/2021
Ploeren RN 11.9°C 0% 0°C 0 mm 0 mm/h 0 km/h 1003.8 hPa 00:20 del 09/05/2021
Saint-Maximin-la-Sainte-Baume RN 12.4°C 85% 9.9°C 0 mm 0 mm/h 0 km/h 1018.1 hPa 00:00 del 09/05/2021
Sanary-sur-Mer RN 15.2°C 69% 9.4°C 0 mm 0 mm/h 0 km/h 1019.6 hPa 00:20 del 09/05/2021
Crest RN 14.6°C 68% 8.8°C 0 mm 0 mm/h 8 km/h 1016.1 hPa 00:00 del 09/05/2021
Aizenay RN 13.6°C 86% 11.3°C 0.4 mm 0 mm/h 3.2 km/h 1005.3 hPa 00:00 del 09/05/2021
Oletta RN 11.7°C 66% 5.6°C 0 mm 0 mm/h 0 km/h 1018.9 hPa 00:20 del 09/05/2021
Nans-les-Pins RN 12.2°C 84% 9.4°C 0 mm 0 mm/h 0 km/h 1019.9 hPa 00:20 del 09/05/2021
Selonnet RN 9.7°C 74% 5.4°C 0 mm 0 mm/h 8.9 km/h 0 hPa 00:15 del 09/05/2021
Seyne RN 9.6°C 88% 7.8°C 0 mm 0 mm/h 1.6 km/h 1021.1 hPa 00:20 del 09/05/2021
Fayence RN 12.2°C 84% 9.4°C 0 mm 0 mm/h 0 km/h 1019.5 hPa 00:10 del 09/05/2021
Flers RN 11.1°C 85% 8.9°C 0 mm 0 mm/h 0 km/h 1004.1 hPa 00:20 del 09/05/2021
Cerisiers RN 11.7°C 88% 10°C 0 mm 0 mm/h 1.6 km/h 1008 hPa 00:20 del 09/05/2021
Saint-Angel RN 16.3°C 71% 11.1°C 0 mm 0 mm/h 0 km/h 1009.3 hPa 00:20 del 09/05/2021
Bard RN 15.7°C 63% 8.6°C 0 mm 0 mm/h 37 km/h 1011.1 hPa 00:00 del 09/05/2021
Saint-Clément-de-Rivière RN 16.4°C 85% 13.9°C 0 mm 0 mm/h 0 km/h 1016.6 hPa 00:20 del 09/05/2021
Recoubeau-Jansac RN 12.2°C 84% 9.6°C 0 mm 0 mm/h 0 km/h 1017.9 hPa 00:20 del 09/05/2021
Maisonnisses RN 17.5°C 0% 0°C 0 mm 0 mm/h 0 km/h 1006.7 hPa 00:20 del 09/05/2021
Besançon RN 16.3°C 71% 11°C 0 mm 0 mm/h 0 km/h 1011.6 hPa 00:20 del 09/05/2021
Ferrières sur Sichon RN 19.3°C 52% 9.2°C 0 mm 0 mm/h 2 km/h 1009.2 hPa 00:00 del 09/05/2021
Saint-Germain-le-Guillaume RN 11.7°C 85% 9.2°C 0.2 mm 0 mm/h 0 km/h 1004.6 hPa 00:00 del 09/05/2021
Argenteuil RN 16.1°C 71% 10.8°C 0 mm 0 mm/h 0 km/h 1005.3 hPa 00:20 del 09/05/2021
Issou RN 15.2°C 75% 10.6°C 0 mm 0 mm/h 1.6 km/h 1006.4 hPa 00:20 del 09/05/2021
Departement du Morbihan RN 14.2°C 84% 11.7°C 0 mm 0 mm/h 8 km/h 1002.3 hPa 00:20 del 09/05/2021
Perpignan RN 16.1°C 89% 14.4°C 0 mm 0 mm/h 0 km/h 1012.6 hPa 00:20 del 09/05/2021
Villefort RN 7.3°C 100% 7.3°C 0 mm 0 mm/h 13.9 km/h 1015.4 hPa 00:20 del 09/05/2021
Mouilleron-le-Captif RN 13.6°C 87% 11.7°C 0 mm 0 mm/h 0 km/h 1005.2 hPa 00:20 del 09/05/2021
Brassy RN 10.3°C 87% 8.3°C 0 mm 0 mm/h 0 km/h 1009.4 hPa 00:20 del 09/05/2021
Departement des Alpes-de-Haute-Provence RN 15.9°C 70% 0°C 0 mm 0 mm/h 0 km/h 1017.3 hPa 00:40 del 09/05/2021
Gujan-Mestras RN 20.6°C 67% 14.2°C 0.4 mm 0 mm/h 1.6 km/h 1002.8 hPa 00:00 del 09/05/2021
Luz-Saint-Sauveur RN 22.1°C 28% 2.8°C 0 mm 0 mm/h 12.9 km/h 1008.1 hPa 00:20 del 09/05/2021
Goldbach-Altenbach RN 10.4°C 85% 8°C 0 mm 0 mm/h 0 km/h 1013.5 hPa 00:20 del 09/05/2021
Saint-Tricat RN 10.7°C 89% 8.9°C 2.8 mm 0 mm/h 0 km/h 1004.6 hPa 00:20 del 09/05/2021
Les Ormes RN 15.2°C 92% 13.9°C 0 mm 0 mm/h 0 km/h 1003.6 hPa 00:20 del 09/05/2021
Sorcy-Bauthémont RN 13.9°C 81% 10.6°C 0 mm 0 mm/h 8 km/h 1008.5 hPa 00:20 del 09/05/2021
Selonnet RN 7.1°C 0% 0°C 0 mm 0 mm/h 10.6 km/h 0 hPa 00:15 del 09/05/2021
Willer-sur-Thur RN 11.6°C 72% 6.7°C 0 mm 0 mm/h 6.4 km/h 1014.8 hPa 00:20 del 09/05/2021
Les Fourgs RN 14.3°C 61% 6.7°C 0 mm 0 mm/h 12.9 km/h 1014.4 hPa 00:20 del 09/05/2021
Lans-en-Vercors RN 7.3°C 0% 0°C 0 mm 0 mm/h 0 km/h 1015.8 hPa 00:20 del 09/05/2021
Vouillé RN 20.7°C 72% 15.4°C 0 mm 0 mm/h 6 km/h 1004 hPa 00:00 del 09/05/2021
Lautenbachzell RN 11.3°C 84% 8.9°C 0 mm 0 mm/h 0 km/h 1012.3 hPa 00:20 del 09/05/2021
La Marche RN 19.1°C 68% 12.8°C 0 mm 0 mm/h 16.1 km/h 1006.4 hPa 00:20 del 09/05/2021
La Beaume RN 12.7°C 80% 9.4°C 0 mm 0 mm/h 3.2 km/h 1017.2 hPa 00:20 del 09/05/2021
Xertigny RN 15°C 68% 8.9°C 0 mm 0 mm/h 0 km/h 1011.5 hPa 00:20 del 09/05/2021
Departement du Lot RN 17.1°C 72% 12.2°C 0 mm 0 mm/h 12.9 km/h 1009.2 hPa 00:20 del 09/05/2021
Frontenac RN 21.3°C 66% 14.4°C 0 mm 0 mm/h 11.3 km/h 1004 hPa 00:20 del 09/05/2021
Saint-Didier-en-Velay RN 13.7°C 76% 9.5°C 0 mm 0 mm/h 24.1 km/h 1012.9 hPa 00:00 del 09/05/2021
Fleurie RN 17.9°C 67% 11.7°C 0 mm 0 mm/h 1.6 km/h 1012.7 hPa 00:20 del 09/05/2021
Cannes RN 15.9°C 84% 13.2°C 0 mm 0 mm/h 1.6 km/h 1019.8 hPa 00:00 del 09/05/2021
Orcières RN 6.9°C 91% 5.6°C 0 mm 0 mm/h 0 km/h 0 hPa 00:20 del 09/05/2021
Peyrus RN 16.2°C 69% 10.6°C 0 mm 0 mm/h 8 km/h 1014.7 hPa 00:20 del 09/05/2021
Viviers RN 17°C 70% 11.5°C 0 mm 0 mm/h 8 km/h 1015.9 hPa 00:20 del 09/05/2021
Bras RN 12.3°C 85% 9.8°C 0 mm 0 mm/h 0 km/h 1017.7 hPa 00:10 del 09/05/2021
Innimond RN 13.3°C 81% 10°C 0 mm 0 mm/h 3.2 km/h 1015.5 hPa 00:20 del 09/05/2021
Le Vernet RN 8.9°C 89% 7.2°C 0 mm 0 mm/h 0 km/h 1020 hPa 00:20 del 09/05/2021
Departement des Vosges RN 13.3°C 73% 8.3°C 0 mm 0 mm/h 24.1 km/h 0 hPa 00:20 del 09/05/2021
Stutzheim-Offenheim RN 10.2°C 85% 7.8°C 0 mm 0 mm/h 0 km/h 1013.6 hPa 00:00 del 09/05/2021
La Bruffière RN 13.7°C 86% 11.7°C 0 mm 0 mm/h 3.2 km/h 1004.7 hPa 00:20 del 09/05/2021
Basse-sur-le-Rupt RN 15.3°C 64% 8.3°C 0 mm 0 mm/h 1.6 km/h 1011.9 hPa 00:20 del 09/05/2021
Val-d'Isère RN 5.2°C 56% -3.3°C 0 mm 0 mm/h 3.2 km/h 1019.7 hPa 00:20 del 09/05/2021
Artonne RN 17.4°C 67% 11.2°C 0 mm 0 mm/h 1.6 km/h 1009.3 hPa 00:20 del 09/05/2021
Meslan RN 13.7°C 87% 11.7°C 0 mm 0 mm/h 8 km/h 1003.5 hPa 00:20 del 09/05/2021
Landser RN 14.6°C 70% 9.1°C 0 mm 0 mm/h 1.6 km/h 1012.5 hPa 00:20 del 09/05/2021
Léran RN 13.8°C 90% 12.1°C 0 mm 0 mm/h 0.7 km/h 1010.9 hPa 00:20 del 09/05/2021
Ile-d'Yeu RN 13.5°C 91% 12.2°C 0 mm 0 mm/h 1.6 km/h 1004.9 hPa 00:20 del 09/05/2021
Chézy-sur-Marne RN 9.8°C 88% 7.9°C 0 mm 0 mm/h 0 km/h 1008 hPa 00:20 del 09/05/2021
Les Pennes-Mirabeau RN 16.7°C 67% 10.6°C 0 mm 0 mm/h 1.6 km/h 1017.1 hPa 00:20 del 09/05/2021
Hohrod RN 9.9°C 84% 7.4°C 0 mm 0 mm/h 2 km/h 1011.7 hPa 00:00 del 09/05/2021
Les Salces RN 8.6°C 96% 8.3°C 0 mm 0 mm/h 29 km/h 1011.9 hPa 00:20 del 09/05/2021
Lagrasse RN 0°C 86% 14.3°C 0 mm 0 mm/h 2 km/h 1012.9 hPa 00:00 del 09/05/2021
Marseille RN 17.9°C 53% 8.2°C 0 mm 0 mm/h 13.9 km/h 1016.9 hPa 00:00 del 09/05/2021
Arces RN 22.2°C 67% 15.8°C 0 mm 0 mm/h 6.5 km/h 1004.5 hPa 00:00 del 09/05/2021
L'Isle-sur-la-Sorgue RN 17.8°C 68% 11.7°C 0 mm 0 mm/h 4.8 km/h 1017.1 hPa 00:20 del 09/05/2021
Quillan RN 12.8°C 0% 0°C 0 mm 0 mm/h 0 km/h 1011.2 hPa 00:20 del 09/05/2021
Orvilliers RN 12.6°C 83% 10°C 0 mm 0 mm/h 0 km/h 1006.2 hPa 00:20 del 09/05/2021
Gap RN 13.9°C 74% 9.4°C 0 mm 0 mm/h 0 km/h 1017 hPa 00:20 del 09/05/2021
Bourg-Saint-Andéol RN 15.9°C 72% 10.9°C 0 mm 0 mm/h 18 km/h 1016.6 hPa 00:00 del 09/05/2021
Lhospitalet RN 17.2°C 75% 12.8°C 0 mm 0 mm/h 4.8 km/h 1008 hPa 00:20 del 09/05/2021
Grosbreuil RN 14.4°C 88% 12.2°C 0 mm 0 mm/h 1.6 km/h 1004.7 hPa 00:20 del 09/05/2021
Mont-Dore RN 10.6°C 79% 7.2°C 0 mm 0 mm/h 0 km/h 1010.6 hPa 00:20 del 09/05/2021
La Bourboule RN 18.4°C 51% 7.8°C 0 mm 0 mm/h 3.2 km/h 0 hPa 00:20 del 09/05/2021
Pont-Salomon RN 14.9°C 76% 10.7°C 0 mm 0 mm/h 11.3 km/h 1011.2 hPa 00:00 del 09/05/2021
Six-Fours-les-Plages RN 15.7°C 78% 11.8°C 0 mm 0 mm/h 4.8 km/h 1018.8 hPa 00:00 del 09/05/2021
Saint-Igneuc RN 12.2°C 82% 9.4°C 0 mm 0 mm/h 6.4 km/h 1004.1 hPa 00:20 del 09/05/2021
Ringendorf RN 12.3°C 71% 7.2°C 0 mm 0 mm/h 4.8 km/h 1011.2 hPa 00:20 del 09/05/2021
Brigueuil RN 19.6°C 67% 13.3°C 0 mm 0 mm/h 8 km/h 1004.7 hPa 00:20 del 09/05/2021
Gignac RN 17°C 82% 13.9°C 0 mm 0 mm/h 8 km/h 1015.2 hPa 00:27 del 09/05/2021
Chepniers RN 21.2°C 52% 11.1°C 0 mm 0 mm/h 9.7 km/h 1004 hPa 00:27 del 09/05/2021
Ségur-le-Château RN 19.1°C 65% 12.4°C 0 mm 0 mm/h 16 km/h 1007.3 hPa 00:24 del 09/05/2021
Lignerolles RN 14.6°C 87% 12.2°C 0 mm 0 mm/h 0 km/h 1007.1 hPa 00:27 del 09/05/2021
Fontanafredda PN 9.4°C 91% 8°C 0 mm 0 mm/h 0 km/h 1020.3 hPa 00:25 del 09/05/2021
Udine UD 11.6°C 75% 7.3°C 0 mm 0 mm/h 0 km/h 1020.5 hPa 00:28 del 09/05/2021
Sacile PN 11.4°C 71% 6.4°C 0 mm 0 mm/h 0 km/h 1021.1 hPa 00:19 del 09/05/2021
Staranzano GO 11.1°C 75% 6.8°C 0 mm 0 mm/h 0 km/h 1021.4 hPa 00:25 del 09/05/2021
Campoformido UD 12.3°C 72% 7.4°C 0 mm 0 mm/h 0 km/h 1021 hPa 23:47 del 08/05/2021
Carlino UD 10.6°C 77% 6.7°C 0 mm 0 mm/h 1.8 km/h 1022.2 hPa 00:28 del 09/05/2021
Zoppola PN 10°C 83% 8°C 0 mm 0 mm/h 0 km/h 1020.5 hPa 00:27 del 09/05/2021
Ronchi dei Legionari GO 10.3°C 79% 6.8°C 0 mm 0 mm/h 3.2 km/h 1021 hPa 00:20 del 09/05/2021
Roveredo in Piano PN 12°C 72% 7.1°C 0 mm 0 mm/h 0 km/h 1021.8 hPa 00:29 del 09/05/2021
Budoia PN 10.3°C 76% 6.3°C 0 mm 0 mm/h 8 km/h 1021 hPa 00:15 del 09/05/2021
Pordenone PN 12.2°C 67% 6.2°C 0 mm 0 mm/h 0 km/h 1021 hPa 00:25 del 09/05/2021
San Canzian d'Isonzo GO 0°C 0% 0°C 0 mm 0 mm/h 0 km/h 0 hPa 23:59 del 08/05/2021
Roveredo in Piano PN 12°C 65% 5.6°C 0 mm 0 mm/h 1 km/h 1027.2 hPa 00:29 del 09/05/2021
Trieste TS 12.2°C 67% 6.1°C 0 mm 0 mm/h 0 km/h 1021.5 hPa 00:28 del 09/05/2021
Ovaro UD 7.7°C 86% 5.5°C 0 mm 0 mm/h 0 km/h 1022.6 hPa 00:10 del 09/05/2021
Comeglians UD 7.4°C 88% 5.6°C 0 mm 0 mm/h 0 km/h 1023.9 hPa 00:25 del 09/05/2021
Resia UD 7.8°C 84% 5.3°C 0.3 mm 0 mm/h 1 km/h 1022.4 hPa 23:49 del 08/05/2021
Budoia PN 4.9°C 82% 2.1°C 0 mm 0 mm/h 3.3 km/h 1023.9 hPa 00:29 del 09/05/2021
Arta Terme UD 8.2°C 83% 5.6°C 0 mm 0 mm/h 0 km/h 1021.9 hPa 00:27 del 09/05/2021
Fagagna UD 11.9°C 76% 7.8°C 0 mm 0 mm/h 3.2 km/h 1019.1 hPa 00:27 del 09/05/2021
Bertiolo UD 12°C 75% 7.8°C 0 mm 0 mm/h 0 km/h 1019.1 hPa 00:27 del 09/05/2021
Martignacco UD 10.3°C 80% 7°C 0 mm 0 mm/h 0 km/h 1019.6 hPa 00:13 del 09/05/2021
Trieste TS 11.8°C 62% 4.7°C 0 mm 0 mm/h 1.8 km/h 1021.2 hPa 00:29 del 09/05/2021
Trieste TS 12.1°C 60% 4.5°C 0 mm 0 mm/h 0 km/h 1018.9 hPa 00:25 del 09/05/2021
Monfalcone GO 0°C 0% 0°C 0 mm 0 mm/h 0 km/h 0 hPa 00:27 del 09/05/2021
Cormons GO 9.9°C 85% 7.8°C 0 mm 0 mm/h 1.6 km/h 1021.5 hPa 00:28 del 09/05/2021
Sacile PN 9.2°C 81% 6.1°C 0 mm 0 mm/h 0 km/h 1018.6 hPa 00:25 del 09/05/2021
Tarvisio UD 5.3°C 88% 3.4°C 0 mm 0 mm/h 4.8 km/h 1022.4 hPa 00:27 del 09/05/2021
Trieste TS 13.4°C 62% 6.1°C 0 mm 0 mm/h 0 km/h 1021.9 hPa 00:28 del 09/05/2021
Pocenia UD 9.3°C 84% 6.7°C 0 mm 0 mm/h 0 km/h 1020.8 hPa 00:26 del 09/05/2021
Cervignano del Friuli UD 12.3°C 69% 6.8°C 0 mm 0 mm/h 0 km/h 1021.9 hPa 00:28 del 09/05/2021
Moruzzo UD 8.6°C 83% 6.1°C 0 mm 0 mm/h 4.8 km/h 1021.8 hPa 00:28 del 09/05/2021
Trieste TS 12.6°C 60% 5°C 0 mm 0 mm/h 0 km/h 1020.9 hPa 00:25 del 09/05/2021
Pordenone PN 11.8°C 70% 6.5°C 0 mm 0 mm/h 0 km/h 1019.2 hPa 00:27 del 09/05/2021
Gorizia GO 7.8°C 94% 6.9°C 0 mm 0 mm/h 0 km/h 1021.9 hPa 00:27 del 09/05/2021
Codroipo UD 10.8°C 72% 6°C 0 mm 0 mm/h 0 km/h 1020.3 hPa 00:29 del 09/05/2021
Wareham UD 13.8°C 82% 10.8°C 21.4 mm 0 mm/h 20.9 km/h 999.2 hPa 00:29 del 09/05/2021
Xerokampos UD 21.4°C 72% 16.1°C 0 mm 0 mm/h 16.2 km/h 1009.2 hPa 03:29
Agia UD 16.9°C 60% 9.1°C 0 mm 0 mm/h 6.4 km/h 1017.7 hPa 01:00 del 09/05/2021
Agia Paraskevi UD 19.7°C 58% 11.2°C 0 mm 0 mm/h 4.8 km/h 1013.3 hPa 01:10 del 09/05/2021
Agioi Theodoroi UD 18.3°C 72% 13.2°C 0 mm 0 mm/h 4.8 km/h 1014.8 hPa 01:00 del 09/05/2021
Aghios Nikolaos UD 22.4°C 65% 15.5°C 0 mm 0 mm/h 17.7 km/h 1012.5 hPa 01:00 del 09/05/2021
Agios Pavlos UD 8°C 86% 5.8°C 0 mm 0 mm/h 6.4 km/h 1016.4 hPa 01:00 del 09/05/2021
Agrinio UD 19.2°C 62% 11.8°C 0 mm 0 mm/h 0 km/h 1011.6 hPa 01:00 del 09/05/2021
Athens UD 21.1°C 59% 12.8°C 0 mm 0 mm/h 9.7 km/h 1015.3 hPa 01:10 del 09/05/2021
Aegina UD 19.6°C 71% 14.2°C 0 mm 0 mm/h 0 km/h 1010.5 hPa 01:00 del 09/05/2021
Aitoliko UD 18.6°C 81% 15.2°C 0 mm 0 mm/h 0 km/h 1013.2 hPa 01:00 del 09/05/2021
Alagonia UD 18.3°C 57% 9.7°C 0 mm 0 mm/h 0 km/h 1006.7 hPa 00:50 del 09/05/2021
Alexandroupoli UD 12.7°C 74% 8.1°C 0 mm 0 mm/h 8 km/h 1018.7 hPa 01:00 del 09/05/2021
Alikianos UD 16.1°C 85% 13.6°C 0 mm 0 mm/h 6.4 km/h 1011.8 hPa 01:10 del 09/05/2021
Amyntaio UD 12.1°C 64% 5.4°C 0 mm 0 mm/h 9.7 km/h 1018.8 hPa 01:20 del 09/05/2021
Amaliada UD 15.6°C 80% 12.1°C 0 mm 0 mm/h 3.2 km/h 1009.6 hPa 01:20 del 09/05/2021
Pefkali UD 20.1°C 68% 14°C 0 mm 0 mm/h 1.6 km/h 1014.8 hPa 01:00 del 09/05/2021
Amorgos UD 19.8°C 84% 17°C 0 mm 0 mm/h 8 km/h 1012.5 hPa 01:00 del 09/05/2021
Amyntaio UD 12.8°C 59% 5°C 0 mm 0 mm/h 11.3 km/h 1019.1 hPa 01:00 del 09/05/2021
Amfikleia UD 16.8°C 66% 10.4°C 0 mm 0 mm/h 3.2 km/h 1017.4 hPa 01:00 del 09/05/2021
Amfilochia UD 17.1°C 88% 15.1°C 0 mm 0 mm/h 3.2 km/h 1013.6 hPa 01:00 del 09/05/2021
Anafi UD 19.8°C 77% 15.6°C 0 mm 0 mm/h 8 km/h 1011 hPa 01:10 del 09/05/2021
Andritsaina UD 18.9°C 55% 9.6°C 0 mm 0 mm/h 0 km/h 1012.4 hPa 01:00 del 09/05/2021
Andros UD 19.2°C 77% 15°C 0 mm 0 mm/h 14.5 km/h 1013.6 hPa 01:10 del 09/05/2021
Antikira UD 20.6°C 62% 13.1°C 0 mm 0 mm/h 25.7 km/h 1013.3 hPa 01:00 del 09/05/2021
Ano Liosia UD 19.5°C 62% 12°C 0 mm 0 mm/h 1.6 km/h 1015.1 hPa 01:00 del 09/05/2021
Anogeia UD 16.1°C 67% 9.9°C 0 mm 0 mm/h 6.4 km/h 1009.4 hPa 01:00 del 09/05/2021
Naxos UD 18.7°C 84% 16°C 0 mm 0 mm/h 17.7 km/h 1013.5 hPa 01:00 del 09/05/2021
Arachova UD 14.2°C 69% 8.6°C 0 mm 0 mm/h 6.4 km/h 1013 hPa 01:00 del 09/05/2021
Argos UD 18.7°C 69% 12.9°C 0 mm 0 mm/h 0 km/h 1015.1 hPa 01:00 del 09/05/2021
Ardassa UD 11.7°C 68% 6°C 0 mm 0 mm/h 4.8 km/h 1019.4 hPa 01:00 del 09/05/2021
Aridaia UD 17.2°C 46% 5.4°C 0 mm 0 mm/h 24.1 km/h 1018.2 hPa 01:00 del 09/05/2021
Anoixi UD 17.1°C 72% 12°C 0 mm 0 mm/h 4.8 km/h 1015 hPa 01:10 del 09/05/2021
Arfara UD 19.4°C 63% 12.2°C 0 mm 0 mm/h 0 km/h 1013.7 hPa 01:00 del 09/05/2021
Asi Gonia UD 17.6°C 82% 14.4°C 0 mm 0 mm/h 0 km/h 1011.7 hPa 01:10 del 09/05/2021
Ammoudari UD 15.7°C 66% 9.3°C 0 mm 0 mm/h 1.6 km/h 1012.4 hPa 01:00 del 09/05/2021
Asprovalta UD 18.9°C 69% 13.1°C 0 mm 0 mm/h 24.1 km/h 1018.8 hPa 01:10 del 09/05/2021
Aspropirgos UD 21.6°C 55% 12.2°C 0 mm 0 mm/h 3.2 km/h 1014.5 hPa 01:00 del 09/05/2021
Vathy UD 19.2°C 71% 13.8°C 0 mm 0 mm/h 4.8 km/h 1016.6 hPa 01:10 del 09/05/2021
Vagionia UD 20.8°C 62% 13.3°C 0 mm 0 mm/h 20.9 km/h 1011 hPa 01:10 del 09/05/2021
Variko UD 7.2°C 87% 5.2°C 0 mm 0 mm/h 0 km/h 1018.5 hPa 01:10 del 09/05/2021
Limni UD 17.9°C 78% 14.1°C 0 mm 0 mm/h 33.8 km/h 1015.7 hPa 01:20 del 09/05/2021
Vatopedi UD 16.7°C 67% 10.6°C 0 mm 0 mm/h 8 km/h 1016.9 hPa 01:00 del 09/05/2021
Edessa UD 12.1°C 73% 7.4°C 0 mm 0 mm/h 0 km/h 1019.2 hPa 01:00 del 09/05/2021
Velventos UD 14.8°C 67% 8.7°C 0 mm 0 mm/h 1.6 km/h 1018.9 hPa 01:00 del 09/05/2021
Velventos UD 14.4°C 67% 8.3°C 0 mm 0 mm/h 0 km/h 1016.9 hPa 01:00 del 09/05/2021
Veroia UD 16.3°C 58% 8°C 0 mm 0 mm/h 0 km/h 1018 hPa 01:10 del 09/05/2021
Vilia UD 16.6°C 68% 10.6°C 0 mm 0 mm/h 4.8 km/h 1014.1 hPa 01:00 del 09/05/2021
Volos UD 19.1°C 68% 13.1°C 0 mm 0 mm/h 9.7 km/h 1017.1 hPa 01:10 del 09/05/2021
Arta UD 19.1°C 52% 9°C 0 mm 0 mm/h 0 km/h 1012.9 hPa 01:10 del 09/05/2021
Vrilissia UD 19.8°C 57% 11.1°C 0 mm 0 mm/h 9.7 km/h 1014.4 hPa 01:00 del 09/05/2021
Vrysses UD 15.8°C 88% 13.8°C 0 mm 0 mm/h 0 km/h 1011.7 hPa 01:00 del 09/05/2021
Vytina UD 10.2°C 86% 7.9°C 0 mm 0 mm/h 0 km/h 1012.4 hPa 01:00 del 09/05/2021
Gavalou UD 18.1°C 71% 12.8°C 0 mm 0 mm/h 0 km/h 1011.8 hPa 01:00 del 09/05/2021
Delphi UD 21.6°C 53% 11.6°C 0 mm 0 mm/h 4.8 km/h 1014.8 hPa 01:10 del 09/05/2021
Geraki UD 19.6°C 58% 11.1°C 0 mm 0 mm/h 0 km/h 1014.8 hPa 01:00 del 09/05/2021
Giannitsa UD 17.4°C 51% 7.2°C 0 mm 0 mm/h 0 km/h 1020.5 hPa 01:10 del 09/05/2021
Grevena UD 14.8°C 73% 10°C 0 mm 0 mm/h 0 km/h 1015.5 hPa 01:00 del 09/05/2021
Lidoriki UD 14.8°C 76% 10.6°C 0 mm 0 mm/h 0 km/h 1013.8 hPa 01:00 del 09/05/2021
Didyma UD 16.8°C 79% 13.1°C 0 mm 0 mm/h 0 km/h 1014.2 hPa 01:10 del 09/05/2021
Didymoteicho UD 11.6°C 90% 10°C 0 mm 0 mm/h 3.2 km/h 1020.6 hPa 01:10 del 09/05/2021
Dion UD 14.1°C 72% 9.1°C 0 mm 0 mm/h 0 km/h 1018.1 hPa 01:10 del 09/05/2021
Dionysos UD 15.6°C 72% 10.6°C 0 mm 0 mm/h 12.9 km/h 1016.8 hPa 01:00 del 09/05/2021
Domokos UD 16.5°C 63% 9.4°C 0 mm 0 mm/h 1.6 km/h 1015.6 hPa 01:00 del 09/05/2021
Doxato UD 16.3°C 72% 11.2°C 0 mm 0 mm/h 1.6 km/h 1017.8 hPa 01:00 del 09/05/2021
Drama UD 15.4°C 71% 10.2°C 0 mm 0 mm/h 6.4 km/h 1017.8 hPa 01:10 del 09/05/2021
Dodoni UD 13.8°C 73% 9°C 0 mm 0 mm/h 0 km/h 1014.1 hPa 01:10 del 09/05/2021
Ekali UD 18.2°C 67% 12°C 0 mm 0 mm/h 11.3 km/h 1015 hPa 01:10 del 09/05/2021
Zitsa UD 14.7°C 74% 10.1°C 0 mm 0 mm/h 1.6 km/h 1014.9 hPa 01:10 del 09/05/2021
Eleftheroupoli UD 17.3°C 64% 10.4°C 0 mm 0 mm/h 3.2 km/h 1019.3 hPa 01:00 del 09/05/2021
Elefsina UD 21.7°C 56% 12.6°C 0 mm 0 mm/h 8 km/h 1014.8 hPa 01:00 del 09/05/2021
Elos UD 17.2°C 71% 11.9°C 0 mm 0 mm/h 0 km/h 1011.5 hPa 01:00 del 09/05/2021
Attavyros UD 17.6°C 80% 14.1°C 0 mm 0 mm/h 4.8 km/h 1009.2 hPa 01:10 del 09/05/2021
Zagora UD 15.5°C 88% 13.5°C 0 mm 0 mm/h 1.6 km/h 1019 hPa 01:00 del 09/05/2021
Zakynthos UD 14.1°C 82% 11.1°C 0 mm 0 mm/h 1.6 km/h 1012.4 hPa 01:00 del 09/05/2021
Zarakes UD 19.3°C 74% 14.6°C 0 mm 0 mm/h 17.7 km/h 1015.8 hPa 01:00 del 09/05/2021
Zacharo UD 14.5°C 81% 11.3°C 0 mm 0 mm/h 0 km/h 1022.5 hPa 01:10 del 09/05/2021
Zitsa UD 14.9°C 65% 8.4°C 0 mm 0 mm/h 1.6 km/h 1014.4 hPa 01:10 del 09/05/2021
Igoumenitsa UD 20.1°C 54% 10.5°C 0 mm 0 mm/h 4.8 km/h 1013.7 hPa 01:10 del 09/05/2021
Iraklia UD 19.8°C 77% 15.6°C 0 mm 0 mm/h 4.8 km/h 1012.4 hPa 01:00 del 09/05/2021
Heraklion UD 20.5°C 70% 14.8°C 0 mm 0 mm/h 4.8 km/h 1014.3 hPa 01:00 del 09/05/2021
Heraklion UD 20.4°C 79% 16.7°C 0 mm 0 mm/h 17.7 km/h 1012.5 hPa 01:10 del 09/05/2021
Heraklion UD 20.4°C 78% 16.4°C 0 mm 0 mm/h 4.8 km/h 1012.9 hPa 01:00 del 09/05/2021
Heraklion UD 20.2°C 62% 12.7°C 0 mm 0 mm/h 4.8 km/h 1012.8 hPa 01:00 del 09/05/2021
Thasos UD 17.7°C 74% 13°C 0 mm 0 mm/h 11.3 km/h 1019.2 hPa 01:00 del 09/05/2021
Theodoriana UD 12.9°C 74% 8.4°C 0 mm 0 mm/h 0 km/h 1015.5 hPa 01:00 del 09/05/2021
Theologos UD 19.8°C 73% 14.9°C 0 mm 0 mm/h 1.6 km/h 1017.2 hPa 01:00 del 09/05/2021
Salonicco UD 18.5°C 59% 10.3°C 0 mm 0 mm/h 1.6 km/h 1017.4 hPa 01:00 del 09/05/2021
Thiva UD 17.2°C 72% 12.1°C 0 mm 0 mm/h 6.4 km/h 1015 hPa 01:00 del 09/05/2021
Ierapetra UD 22.9°C 62% 15.2°C 0 mm 0 mm/h 32.2 km/h 1009.2 hPa 01:00 del 09/05/2021
Ithaki UD 20°C 66% 13.5°C 0 mm 0 mm/h 3.2 km/h 1013.1 hPa 01:10 del 09/05/2021
Raches UD 15.3°C 71% 10.1°C 0 mm 0 mm/h 4.8 km/h 1012 hPa 01:00 del 09/05/2021
Imeros UD 14.6°C 66% 8.3°C 0 mm 0 mm/h 0 km/h 1019.5 hPa 01:10 del 09/05/2021
Ios UD 20.7°C 73% 15.7°C 0 mm 0 mm/h 12.9 km/h 1014.3 hPa 01:00 del 09/05/2021
Ippokrateios UD 11.7°C 93% 10.6°C 0 mm 0 mm/h 1.6 km/h 1015.5 hPa 01:00 del 09/05/2021
Posidhonia UD 20.2°C 72% 15°C 0 mm 0 mm/h 9.7 km/h 1012.4 hPa 01:00 del 09/05/2021
Ioannina UD 13.8°C 78% 10.1°C 0 mm 0 mm/h 1.6 km/h 1014.9 hPa 01:10 del 09/05/2021
Agios Nikolaos UD 20.7°C 70% 15.1°C 0 mm 0 mm/h 30.6 km/h 1011.1 hPa 01:10 del 09/05/2021
Kalavryta UD 13.2°C 75% 8.9°C 0 mm 0 mm/h 0 km/h 1013.5 hPa 01:00 del 09/05/2021
Kalamata UD 21.3°C 62% 13.7°C 0 mm 0 mm/h 4.8 km/h 1013.3 hPa 01:00 del 09/05/2021
Kalamata UD 20.8°C 64% 13.7°C 0 mm 0 mm/h 0 km/h 1011.7 hPa 01:10 del 09/05/2021
Kalampaka UD 19.6°C 51% 9.2°C 0 mm 0 mm/h 0 km/h 1014.8 hPa 01:00 del 09/05/2021
Kalampaki UD 16.6°C 67% 10.4°C 0 mm 0 mm/h 0 km/h 1016.8 hPa 01:10 del 09/05/2021
Kantza UD 19.7°C 63% 12.4°C 0 mm 0 mm/h 1.6 km/h 1018.1 hPa 01:10 del 09/05/2021
Kaparelli UD 17.2°C 72% 12.1°C 0 mm 0 mm/h 6.4 km/h 1016.2 hPa 01:10 del 09/05/2021
Kardamyla UD 19.4°C 72% 14.3°C 0 mm 0 mm/h 6.4 km/h 1013.2 hPa 01:10 del 09/05/2021
Kardamyli UD 19.9°C 60% 11.9°C 0 mm 0 mm/h 4.8 km/h 1010.4 hPa 01:00 del 09/05/2021
Karpenisi UD 10.9°C 82% 8°C 0 mm 0 mm/h 1.6 km/h 1014.7 hPa 01:00 del 09/05/2021
Fry UD 19.8°C 86% 17.4°C 0 mm 0 mm/h 9.7 km/h 1011.1 hPa 01:00 del 09/05/2021
Kassandreia UD 18.4°C 74% 13.7°C 0 mm 0 mm/h 6.4 km/h 1018 hPa 01:10 del 09/05/2021
Kastoria UD 14.4°C 62% 7.2°C 0 mm 0 mm/h 0 km/h 1015.9 hPa 01:10 del 09/05/2021
Kalavryta UD 14.8°C 69% 9.2°C 0 mm 0 mm/h 0 km/h 1013.8 hPa 01:10 del 09/05/2021
Kea UD 18.4°C 77% 14.3°C 0 mm 0 mm/h 17.7 km/h 1014.9 hPa 01:10 del 09/05/2021
Kerasia UD 12.4°C 68% 6.6°C 0 mm 0 mm/h 0 km/h 1018.8 hPa 01:00 del 09/05/2021
Molista UD 13.9°C 65% 7.4°C 0 mm 0 mm/h 4.8 km/h 1014.4 hPa 01:00 del 09/05/2021
Keratea UD 18.8°C 67% 12.6°C 0 mm 0 mm/h 4.8 km/h 1016 hPa 01:00 del 09/05/2021
Kerkini UD 15.7°C 47% 4.4°C 0 mm 0 mm/h 6.4 km/h 1018.7 hPa 01:00 del 09/05/2021
Kerkyra UD 19.4°C 60% 11.4°C 0 mm 0 mm/h 3.2 km/h 1011.2 hPa 01:10 del 09/05/2021
Kiato UD 20.9°C 57% 12.1°C 0 mm 0 mm/h 6.4 km/h 1012.9 hPa 01:00 del 09/05/2021
Kilkis UD 13.1°C 57% 4.7°C 0 mm 0 mm/h 4.8 km/h 1018.6 hPa 01:10 del 09/05/2021
Kleidi UD 17.1°C 68% 11.2°C 0 mm 0 mm/h 4.8 km/h 1016.8 hPa 01:00 del 09/05/2021
Kozani UD 12.5°C 63% 5.6°C 0 mm 0 mm/h 8 km/h 1019.1 hPa 01:00 del 09/05/2021
Kozani UD 11.9°C 65% 5.5°C 0 mm 0 mm/h 8 km/h 1018.1 hPa 01:10 del 09/05/2021
Kimisi UD 16.1°C 42% 3.2°C 0 mm 0 mm/h 22.5 km/h 1019.7 hPa 01:10 del 09/05/2021
Kolympari UD 15.7°C 76% 11.5°C 0 mm 0 mm/h 0 km/h 1014.3 hPa 01:00 del 09/05/2021
Komnina UD 9.6°C 71% 4.6°C 0 mm 0 mm/h 0 km/h 1020.5 hPa 01:10 del 09/05/2021
Koniakos UD 16.7°C 59% 8.7°C 0 mm 0 mm/h 12.9 km/h 1014.7 hPa 01:00 del 09/05/2021
Kato Kopanaki UD 14.8°C 73% 10°C 0 mm 0 mm/h 1.6 km/h 1010.3 hPa 00:50 del 09/05/2021
Korydallos UD 21.3°C 59% 12.9°C 0 mm 0 mm/h 6.4 km/h 1013 hPa 01:00 del 09/05/2021
Koronos UD 18°C 65% 11.3°C 0 mm 0 mm/h 14.5 km/h 1012.7 hPa 01:00 del 09/05/2021
Naxos UD 20.2°C 77% 16.1°C 0 mm 0 mm/h 16.1 km/h 1012.5 hPa 01:00 del 09/05/2021
Kranidi UD 18.3°C 86% 15.9°C 0 mm 0 mm/h 3.2 km/h 1015.9 hPa 01:00 del 09/05/2021
Kryoneri UD 14.3°C 67% 8.2°C 0 mm 0 mm/h 1.6 km/h 1013.1 hPa 01:00 del 09/05/2021
Kymi UD 16.1°C 80% 12.7°C 0 mm 0 mm/h 19.3 km/h 1014.5 hPa 01:10 del 09/05/2021
Agios Dimitrios UD 17.9°C 60% 10.1°C 0 mm 0 mm/h 3.2 km/h 1016 hPa 01:20 del 09/05/2021
Kos UD 18.8°C 88% 16.8°C 0 mm 0 mm/h 11.3 km/h 1013.7 hPa 01:00 del 09/05/2021
Lagkadas UD 12.2°C 73% 7.5°C 0 mm 0 mm/h 0 km/h 1019 hPa 01:00 del 09/05/2021
Lagadia UD 17.6°C 56% 8.7°C 0 mm 0 mm/h 0 km/h 1012 hPa 01:00 del 09/05/2021
Serres UD 4.9°C 73% 0.5°C 0 mm 0 mm/h 1.6 km/h 1018.8 hPa 01:00 del 09/05/2021
Lamia UD 17.8°C 83% 14.9°C 0 mm 0 mm/h 0 km/h 1016.7 hPa 01:00 del 09/05/2021
Lapas UD 15.1°C 83% 12.2°C 0 mm 0 mm/h 0 km/h 1009.2 hPa 01:00 del 09/05/2021
Larissa UD 20.5°C 59% 12.2°C 0 mm 0 mm/h 0 km/h 1016.5 hPa 01:10 del 09/05/2021
Lavrio UD 20.3°C 68% 14.2°C 0 mm 0 mm/h 16.1 km/h 1012.7 hPa 01:10 del 09/05/2021
Levidhion UD 14.6°C 67% 8.5°C 0 mm 0 mm/h 0 km/h 1013.3 hPa 01:00 del 09/05/2021
Lentas UD 23.6°C 50% 12.5°C 0 mm 0 mm/h 35.4 km/h 1007.8 hPa 01:00 del 09/05/2021
Lepiana UD 16.7°C 65% 10.1°C 0 mm 0 mm/h 3.2 km/h 1012.1 hPa 01:10 del 09/05/2021
Lesvos UD 16.5°C 73% 11.6°C 0 mm 0 mm/h 19.3 km/h 1014.9 hPa 01:00 del 09/05/2021
Thermi UD 18.7°C 72% 13.5°C 0 mm 0 mm/h 25.7 km/h 1016.6 hPa 01:10 del 09/05/2021
Lefkada UD 18.5°C 80% 15°C 0 mm 0 mm/h 1.6 km/h 1013.3 hPa 01:20 del 09/05/2021
Lefkochori UD 14.9°C 79% 11.3°C 0 mm 0 mm/h 0 km/h 1015.4 hPa 01:00 del 09/05/2021
Limnos UD 16°C 60% 8.2°C 0 mm 0 mm/h 24.1 km/h 1016.5 hPa 01:00 del 09/05/2021
Livadeia UD 14.8°C 76% 10.6°C 0 mm 0 mm/h 3.2 km/h 1016.8 hPa 01:10 del 09/05/2021
Lindos UD 20.4°C 79% 16.7°C 0 mm 0 mm/h 1.6 km/h 1010.4 hPa 01:00 del 09/05/2021
Loutraki UD 20.3°C 67% 13.9°C 0 mm 0 mm/h 0 km/h 1013.1 hPa 01:00 del 09/05/2021
Magouliana UD 15.2°C 62% 7.9°C 0 mm 0 mm/h 0 km/h 1012.7 hPa 01:00 del 09/05/2021
Makrakomi UD 14.1°C 82% 11.1°C 0 mm 0 mm/h 1.6 km/h 1014.8 hPa 01:10 del 09/05/2021
Polydendri UD 17.2°C 72% 12.1°C 0 mm 0 mm/h 9.7 km/h 1016.4 hPa 01:00 del 09/05/2021
Markopoulo UD 17.8°C 81% 14.5°C 0 mm 0 mm/h 6.4 km/h 1017.7 hPa 01:00 del 09/05/2021
Marousi UD 19.6°C 63% 12.3°C 0 mm 0 mm/h 12.9 km/h 1014.2 hPa 01:00 del 09/05/2021
Kozani UD 12.3°C 62% 5.2°C 0 mm 0 mm/h 1.6 km/h 1019.1 hPa 01:20 del 09/05/2021
Megalopoli UD 18.7°C 57% 10°C 0 mm 0 mm/h 3.2 km/h 1012.4 hPa 01:10 del 09/05/2021
Thassos UD 16.4°C 72% 11.4°C 0 mm 0 mm/h 4.8 km/h 1016.3 hPa 01:10 del 09/05/2021
Mesovouno UD 10.2°C 71% 5.2°C 0 mm 0 mm/h 8 km/h 1021.1 hPa 01:10 del 09/05/2021
Metaxades UD 11.2°C 88% 9.3°C 0 mm 0 mm/h 4.8 km/h 1019.8 hPa 01:00 del 09/05/2021
Metaxochori UD 17.7°C 76% 13.4°C 0 mm 0 mm/h 6.4 km/h 1010.8 hPa 01:00 del 09/05/2021
Metsovo UD 11.4°C 74% 7°C 0 mm 0 mm/h 3.2 km/h 1015.4 hPa 01:00 del 09/05/2021
Mikrokampos UD 16.7°C 69% 11°C 0 mm 0 mm/h 1.6 km/h 1018.4 hPa 01:00 del 09/05/2021
Moires UD 22.3°C 58% 13.6°C 0 mm 0 mm/h 6.4 km/h 1010.5 hPa 00:10 del 09/05/2021
Molaoi UD 21.8°C 54% 12.1°C 0 mm 0 mm/h 4.8 km/h 1013.2 hPa 01:10 del 09/05/2021
Vafios UD 15.8°C 77% 11.8°C 0 mm 0 mm/h 0 km/h 1015.8 hPa 01:10 del 09/05/2021
Avoros UD 19.3°C 58% 10.9°C 0 mm 0 mm/h 9.7 km/h 1013.9 hPa 01:10 del 09/05/2021
Mykonos UD 19.2°C 82% 16°C 0 mm 0 mm/h 29 km/h 1012 hPa 01:00 del 09/05/2021
Naxos UD 19.2°C 81% 15.9°C 0 mm 0 mm/h 9.7 km/h 1013.2 hPa 01:00 del 09/05/2021
Naousa UD 16.1°C 60% 8.3°C 0 mm 0 mm/h 1.6 km/h 1018.2 hPa 01:00 del 09/05/2021
Nea Makri UD 20.2°C 65% 13.4°C 0 mm 0 mm/h 6.4 km/h 1015.1 hPa 01:00 del 09/05/2021
Nea Michaniona UD 17.8°C 53% 8.1°C 0 mm 0 mm/h 8 km/h 1019.5 hPa 01:00 del 09/05/2021
Nea Peramos UD 18°C 63% 10.8°C 0 mm 0 mm/h 16.1 km/h 1018.4 hPa 01:00 del 09/05/2021
Nea Smyrni UD 21.8°C 57% 12.9°C 0 mm 0 mm/h 6.4 km/h 1015.1 hPa 01:10 del 09/05/2021
Nemea UD 15.1°C 71% 9.8°C 0 mm 0 mm/h 1.6 km/h 1013.5 hPa 01:00 del 09/05/2021
Neos Kosmos UD 21.7°C 60% 13.6°C 0 mm 0 mm/h 9.7 km/h 1015.5 hPa 01:10 del 09/05/2021
Nikaia UD 22.1°C 56% 12.9°C 0 mm 0 mm/h 12.9 km/h 1012.6 hPa 01:00 del 09/05/2021
Kos UD 19.6°C 83% 16.6°C 0 mm 0 mm/h 1.6 km/h 1012.4 hPa 01:00 del 09/05/2021
Xanthi UD 16.6°C 55% 7.5°C 0 mm 0 mm/h 8 km/h 1019.3 hPa 01:00 del 09/05/2021
Orestiada UD 12.2°C 66% 6°C 0 mm 0 mm/h 0 km/h 1020.4 hPa 01:00 del 09/05/2021
Palaio Skyllitsi UD 14.9°C 63% 7.9°C 0 mm 0 mm/h 4.8 km/h 1020.5 hPa 01:00 del 09/05/2021
Chania UD 23.8°C 47% 11.8°C 0 mm 0 mm/h 9.7 km/h 1009.4 hPa 01:00 del 09/05/2021
Pallini UD 19.1°C 60% 11.1°C 0 mm 0 mm/h 20.9 km/h 1011.1 hPa 01:10 del 09/05/2021
Pallini UD 19.3°C 61% 11.6°C 0 mm 0 mm/h 12.9 km/h 1013.9 hPa 01:10 del 09/05/2021
Patra UD 12.4°C 70% 7.1°C 0 mm 0 mm/h 17.7 km/h 1013.6 hPa 01:00 del 09/05/2021
Karystos UD 18.1°C 76% 13.8°C 0 mm 0 mm/h 59.5 km/h 1014.3 hPa 01:10 del 09/05/2021
Paxoi UD 19.1°C 65% 12.4°C 0 mm 0 mm/h 3.2 km/h 1014.8 hPa 01:00 del 09/05/2021
Papagou UD 18.2°C 62% 10.8°C 0 mm 0 mm/h 0 km/h 1014.5 hPa 00:40 del 09/05/2021
Papigo UD 11.1°C 82% 8.1°C 0 mm 0 mm/h 0 km/h 1015.9 hPa 01:00 del 09/05/2021
Paranesti UD 10.5°C 93% 9.4°C 0 mm 0 mm/h 0 km/h 1019.7 hPa 01:00 del 09/05/2021
Parga UD 17.2°C 71% 11.9°C 0 mm 0 mm/h 3.2 km/h 1014.7 hPa 01:10 del 09/05/2021
Parnassos UD 9.7°C 72% 4.9°C 0 mm 0 mm/h 20.9 km/h 1014.8 hPa 01:00 del 09/05/2021
Acharnes UD 12.1°C 76% 8°C 0 mm 0 mm/h 40.2 km/h 1014.4 hPa 01:10 del 09/05/2021
Paros UD 19.1°C 79% 15.3°C 0 mm 0 mm/h 11.3 km/h 1014.3 hPa 01:00 del 09/05/2021
Patissia UD 21.3°C 61% 13.5°C 0 mm 0 mm/h 11.3 km/h 1015.7 hPa 01:10 del 09/05/2021
Patmos UD 20.2°C 77% 16.1°C 0 mm 0 mm/h 1.6 km/h 1011.6 hPa 01:10 del 09/05/2021
Patra UD 16.8°C 77% 12.8°C 0 mm 0 mm/h 0 km/h 1012.1 hPa 01:15 del 09/05/2021
Patra UD 19.3°C 65% 12.6°C 0 mm 0 mm/h 3.2 km/h 1012.9 hPa 01:10 del 09/05/2021
Patra UD 19.9°C 74% 15.2°C 0 mm 0 mm/h 4.8 km/h 1013 hPa 01:10 del 09/05/2021
Peza UD 14.6°C 60% 6.9°C 0 mm 0 mm/h 1.6 km/h 1011.7 hPa 01:10 del 09/05/2021
Pireas UD 22.2°C 59% 13.8°C 0 mm 0 mm/h 1.6 km/h 1013.3 hPa 01:00 del 09/05/2021
Penteli UD 17.2°C 63% 10.1°C 0 mm 0 mm/h 22.5 km/h 1013.9 hPa 01:00 del 09/05/2021
Perama UD 21.6°C 60% 13.5°C 0 mm 0 mm/h 3.2 km/h 1014.5 hPa 01:00 del 09/05/2021
Peristeri UD 21.2°C 58% 12.6°C 0 mm 0 mm/h 6.4 km/h 1015 hPa 01:10 del 09/05/2021
Petroupoli UD 19.9°C 63% 12.7°C 0 mm 0 mm/h 6.4 km/h 1013.3 hPa 01:00 del 09/05/2021
Pinia UD 13.8°C 81% 10.6°C 0 mm 0 mm/h 0 km/h 1012.4 hPa 01:00 del 09/05/2021
Polygyros UD 13.9°C 73% 9.1°C 0 mm 0 mm/h 16.1 km/h 1015.8 hPa 01:00 del 09/05/2021
Polydroso UD 14.9°C 80% 11.5°C 0 mm 0 mm/h 0 km/h 1016.7 hPa 01:00 del 09/05/2021
Limenas Markopoulou UD 19.9°C 73% 14.9°C 0 mm 0 mm/h 14.5 km/h 1015 hPa 01:10 del 09/05/2021
Pramanta UD 17.3°C 58% 9°C 0 mm 0 mm/h 1.6 km/h 1014.6 hPa 01:00 del 09/05/2021
Preveza UD 16.9°C 93% 15.7°C 0 mm 0 mm/h 0 km/h 1014 hPa 01:00 del 09/05/2021
Ptolemaida UD 11.7°C 67% 5.8°C 0 mm 0 mm/h 6.4 km/h 1016.1 hPa 01:10 del 09/05/2021
Ptolemaida UD 12.9°C 58% 4.8°C 0 mm 0 mm/h 11.3 km/h 1017.3 hPa 01:10 del 09/05/2021
Pylos UD 17.9°C 71% 12.6°C 0 mm 0 mm/h 1.6 km/h 1011.2 hPa 01:00 del 09/05/2021
Pyrathi UD 17.2°C 82% 14.1°C 0 mm 0 mm/h 0 km/h 1009.9 hPa 01:10 del 09/05/2021
Pirgos UD 19.2°C 62% 11.7°C 0 mm 0 mm/h 1.6 km/h 1012.1 hPa 01:00 del 09/05/2021
Rafina UD 20.3°C 73% 15.3°C 0 mm 0 mm/h 11.3 km/h 1014.5 hPa 01:10 del 09/05/2021
Rethymno UD 18.7°C 77% 14.6°C 0 mm 0 mm/h 9.7 km/h 1010.7 hPa 01:00 del 09/05/2021
Rethymno UD 18.4°C 81% 15.1°C 0 mm 0 mm/h 4.8 km/h 1014.4 hPa 01:10 del 09/05/2021
Rizomata UD 14.2°C 60% 6.6°C 0 mm 0 mm/h 17.7 km/h 1018.1 hPa 01:00 del 09/05/2021
Rio UD 20.2°C 73% 15.2°C 0 mm 0 mm/h 17.7 km/h 1014 hPa 01:00 del 09/05/2021
Rodos UD 19.9°C 77% 15.8°C 0 mm 0 mm/h 3.2 km/h 1011.9 hPa 01:00 del 09/05/2021
Salamis UD 20.2°C 70% 14.5°C 0 mm 0 mm/h 0 km/h 1014.1 hPa 01:00 del 09/05/2021
Samaria UD 17.4°C 41% 4°C 0 mm 0 mm/h 3.2 km/h 1012.4 hPa 01:00 del 09/05/2021
Samos UD 19.8°C 70% 14.2°C 0 mm 0 mm/h 1.6 km/h 1014.5 hPa 01:10 del 09/05/2021
Fira UD 17.9°C 88% 15.9°C 0 mm 0 mm/h 9.7 km/h 1011 hPa 01:00 del 09/05/2021
Veria UD 8.4°C 71% 3.4°C 0 mm 0 mm/h 4.8 km/h 1017.3 hPa 01:10 del 09/05/2021
Serres UD 17.2°C 69% 11.5°C 0 mm 0 mm/h 4.8 km/h 1018.8 hPa 01:00 del 09/05/2021
Setta UD 12.8°C 82% 9.8°C 0 mm 0 mm/h 4.8 km/h 1014.1 hPa 00:40 del 09/05/2021
Sitia UD 20.9°C 75% 16.3°C 0 mm 0 mm/h 9.7 km/h 1011.3 hPa 01:00 del 09/05/2021
Dafni UD 15.2°C 68% 9.4°C 0 mm 0 mm/h 20.9 km/h 1014.6 hPa 01:00 del 09/05/2021
Acharnes UD 19.7°C 64% 12.7°C 0 mm 0 mm/h 14.5 km/h 1014 hPa 01:00 del 09/05/2021
Skiathos UD 18.8°C 77% 14.7°C 0 mm 0 mm/h 6.4 km/h 1019.1 hPa 01:10 del 09/05/2021
Skopelos UD 18.8°C 74% 14.1°C 0 mm 0 mm/h 4.8 km/h 1020.9 hPa 01:10 del 09/05/2021
Skyros UD 17.7°C 78% 13.8°C 0 mm 0 mm/h 37 km/h 1016.2 hPa 01:00 del 09/05/2021
Spetses UD 20.2°C 75% 15.6°C 0 mm 0 mm/h 1.6 km/h 1014.2 hPa 01:00 del 09/05/2021
Rethymno UD 18°C 73% 13.1°C 0 mm 0 mm/h 9.7 km/h 1012 hPa 01:00 del 09/05/2021
Stavrakia UD 20°C 67% 13.7°C 0 mm 0 mm/h 12.9 km/h 1011.9 hPa 01:10 del 09/05/2021
Stemnitsa UD 18.1°C 56% 9.1°C 0 mm 0 mm/h 3.2 km/h 1013 hPa 01:00 del 09/05/2021
Steni UD 16.9°C 71% 11.6°C 0 mm 0 mm/h 8 km/h 1019.7 hPa 01:00 del 09/05/2021
Stratoni UD 18.4°C 76% 14.1°C 0 mm 0 mm/h 17.7 km/h 1019.4 hPa 01:10 del 09/05/2021
Styra UD 20°C 72% 14.8°C 0 mm 0 mm/h 24.1 km/h 1014.3 hPa 01:00 del 09/05/2021
Schinoussa UD 19.4°C 76% 15.1°C 0 mm 0 mm/h 4.8 km/h 1012.1 hPa 01:00 del 09/05/2021
Tanagra UD 18.2°C 57% 9.5°C 0 mm 0 mm/h 4.8 km/h 1016.5 hPa 01:00 del 09/05/2021
Acharnes UD 17.3°C 72% 12.2°C 0 mm 0 mm/h 4.8 km/h 1016.1 hPa 01:00 del 09/05/2021
Oropedio UD 12.8°C 85% 10.4°C 0 mm 0 mm/h 0 km/h 1009.5 hPa 01:00 del 09/05/2021
Tinos UD 19.2°C 79% 15.4°C 0 mm 0 mm/h 19.3 km/h 1013.3 hPa 01:10 del 09/05/2021
Trikala UD 19.3°C 54% 9.7°C 0 mm 0 mm/h 0 km/h 1016.9 hPa 01:00 del 09/05/2021
Trikala UD 14°C 65% 7.5°C 0 mm 0 mm/h 3.2 km/h 1012.6 hPa 01:00 del 09/05/2021
Tripoli UD 13.9°C 70% 8.6°C 0 mm 0 mm/h 0 km/h 1013.6 hPa 01:10 del 09/05/2021
Zagori UD 16.4°C 59% 8.4°C 0 mm 0 mm/h 8 km/h 1010.1 hPa 01:00 del 09/05/2021
Tyria UD 11.6°C 84% 9°C 0 mm 0 mm/h 0 km/h 1015.1 hPa 01:10 del 09/05/2021
Hydra UD 21.5°C 63% 14.2°C 0 mm 0 mm/h 1.6 km/h 1015.3 hPa 01:00 del 09/05/2021
Ymittos UD 21.4°C 56% 12.2°C 0 mm 0 mm/h 8 km/h 1013.2 hPa 01:10 del 09/05/2021
Falasarna UD 20.8°C 73% 15.8°C 0 mm 0 mm/h 14.5 km/h 1010.5 hPa 01:10 del 09/05/2021
Palaio Faliro UD 22.2°C 55% 12.7°C 0 mm 0 mm/h 3.2 km/h 1014.6 hPa 01:10 del 09/05/2021
Filiatra UD 16.8°C 85% 14.2°C 0 mm 0 mm/h 1.6 km/h 1011.4 hPa 01:20 del 09/05/2021
Finokalia UD 18.6°C 80% 15.1°C 0 mm 0 mm/h 29 km/h 1010.3 hPa 01:00 del 09/05/2021
Florina UD 9.6°C 63% 2.9°C 0 mm 0 mm/h 0 km/h 1021.9 hPa 01:00 del 09/05/2021
Fournoi UD 21.4°C 70% 15.7°C 0 mm 0 mm/h 4.8 km/h 1011.4 hPa 01:00 del 09/05/2021
Fourfouras UD 18.8°C 63% 11.6°C 0 mm 0 mm/h 22.5 km/h 1008.6 hPa 01:10 del 09/05/2021
Amari UD 15.9°C 86% 13.6°C 0 mm 0 mm/h 3.2 km/h 1012.2 hPa 01:10 del 09/05/2021
Fotolivos UD 17.3°C 64% 10.5°C 0 mm 0 mm/h 16.1 km/h 1018.8 hPa 01:10 del 09/05/2021
Chaidari UD 20°C 63% 12.7°C 0 mm 0 mm/h 4.8 km/h 1016.1 hPa 01:00 del 09/05/2021
Chalkida UD 19.4°C 68% 13.4°C 0 mm 0 mm/h 17.7 km/h 1014.1 hPa 01:00 del 09/05/2021
Chania UD 17.4°C 86% 15°C 0 mm 0 mm/h 1.6 km/h 1013.3 hPa 01:00 del 09/05/2021
Chania UD 17.1°C 84% 14.4°C 0 mm 0 mm/h 1.6 km/h 1013.3 hPa 01:10 del 09/05/2021
Kallithea UD 21.6°C 58% 13°C 0 mm 0 mm/h 4.8 km/h 1016.6 hPa 01:10 del 09/05/2021
Chios UD 21.2°C 61% 13.3°C 0 mm 0 mm/h 8 km/h 1013.5 hPa 01:10 del 09/05/2021
Oleni UD 15.1°C 79% 11.5°C 0 mm 0 mm/h 0 km/h 1012 hPa 01:00 del 09/05/2021
Olenia UD 0°C 0% 0°C 0 mm 0 mm/h 0 km/h 1015.6 hPa 01:00 del 09/05/2021
Ano Kastritsi UD 22.6°C 45% 10.1°C 0 mm 0 mm/h 6.4 km/h 1012.8 hPa 01:10 del 09/05/2021
Pertouli UD 11.6°C 70% 6.3°C 0 mm 0 mm/h 0 km/h 1015.1 hPa 01:00 del 09/05/2021
Samaria UD 23.9°C 36% 8°C 0 mm 0 mm/h 0 km/h 1010.9 hPa 01:00 del 09/05/2021
Agioi Pantes UD 13.9°C 91% 12.5°C 0 mm 0 mm/h 0 km/h 1011.7 hPa 01:10 del 09/05/2021
Vari UD 20.2°C 62% 12.7°C 0 mm 0 mm/h 14.5 km/h 1014.8 hPa 01:10 del 09/05/2021
Volos UD 19.9°C 66% 13.4°C 0 mm 0 mm/h 0 km/h 1016.6 hPa 01:00 del 09/05/2021
Kandanos UD 16.8°C 70% 11.3°C 0 mm 0 mm/h 3.2 km/h 1010.8 hPa 01:10 del 09/05/2021
Karditsa UD 18.4°C 61% 10.7°C 0 mm 0 mm/h 6.4 km/h 1016.8 hPa 01:00 del 09/05/2021
Karystos UD 21.7°C 61% 13.8°C 0 mm 0 mm/h 12.9 km/h 1014.2 hPa 01:00 del 09/05/2021
Kattavia UD 18.7°C 87% 16.5°C 0 mm 0 mm/h 4.8 km/h 1009.8 hPa 01:10 del 09/05/2021
Kompoti UD 16.8°C 77% 12.8°C 0 mm 0 mm/h 0 km/h 1013.4 hPa 01:20 del 09/05/2021
Konitsa UD 14°C 76% 9.8°C 0 mm 0 mm/h 1.6 km/h 1016.5 hPa 01:10 del 09/05/2021
Kyparissia UD 16.2°C 85% 13.7°C 0 mm 0 mm/h 0 km/h 1012.8 hPa 01:10 del 09/05/2021
Larissa UD 18.7°C 67% 12.5°C 0 mm 0 mm/h 3.2 km/h 1015.9 hPa 01:10 del 09/05/2021
Petra UD 17.7°C 72% 12.6°C 0 mm 0 mm/h 3.2 km/h 1014.4 hPa 01:10 del 09/05/2021
Mikri Vigla UD 19.2°C 79% 15.4°C 0 mm 0 mm/h 19.3 km/h 1015.1 hPa 01:00 del 09/05/2021
Kardia UD 11.4°C 62% 4.4°C 0 mm 0 mm/h 12.9 km/h 1016.4 hPa 01:00 del 09/05/2021
Agios Dimitrios UD 12.3°C 61% 5°C 0 mm 0 mm/h 6.4 km/h 1018.2 hPa 01:10 del 09/05/2021
Platanias UD 16.8°C 88% 14.8°C 0 mm 0 mm/h 4.8 km/h 1012.4 hPa 01:10 del 09/05/2021
Sempronas UD 15.7°C 78% 11.9°C 0 mm 0 mm/h 4.8 km/h 1010.2 hPa 00:50 del 09/05/2021
Argyroupoli UD 16.4°C 74% 11.7°C 0 mm 0 mm/h 0 km/h 1017.7 hPa 01:00 del 09/05/2021
Tsepelovo UD 13.8°C 67% 7.8°C 0 mm 0 mm/h 0 km/h 1012.7 hPa 01:10 del 09/05/2021
Taktikoupoli UD 14.5°C 84% 11.8°C 0 mm 0 mm/h 0 km/h 1015.9 hPa 01:10 del 09/05/2021
Milos UD 18.9°C 82% 15.8°C 0 mm 0 mm/h 6.4 km/h 1014.6 hPa 01:00 del 09/05/2021
Plakias UD 22.8°C 58% 14.1°C 0 mm 0 mm/h 35.4 km/h 1009.9 hPa 01:00 del 09/05/2021
Alonissos UD 18.3°C 75% 13.8°C 0 mm 0 mm/h 19.3 km/h 1018.3 hPa 01:10 del 09/05/2021
Ampelokipoi UD 21.1°C 63% 13.8°C 0 mm 0 mm/h 3.2 km/h 1014.4 hPa 01:00 del 09/05/2021
Amfissa UD 22.3°C 37% 6.9°C 0 mm 0 mm/h 16.1 km/h 1018.1 hPa 01:00 del 09/05/2021
Anavyssos UD 21.1°C 60% 13°C 0 mm 0 mm/h 8 km/h 1013 hPa 01:00 del 09/05/2021
Arta UD 17.5°C 88% 15.5°C 0 mm 0 mm/h 3.2 km/h 1014.3 hPa 00:20 del 09/05/2021
Vamvakou UD 16.5°C 56% 7.7°C 0 mm 0 mm/h 8 km/h 1018.8 hPa 01:00 del 09/05/2021
Vlasti UD 10.2°C 74% 5.7°C 0 mm 0 mm/h 9.7 km/h 1017.7 hPa 01:10 del 09/05/2021
Vlychada UD 21.4°C 55% 12°C 0 mm 0 mm/h 4.8 km/h 1016.4 hPa 01:10 del 09/05/2021
Gerakas UD 20.1°C 56% 11°C 0 mm 0 mm/h 8 km/h 1015 hPa 01:00 del 09/05/2021
Glossa UD 16.7°C 84% 13.9°C 0 mm 0 mm/h 9.7 km/h 1018.1 hPa 01:00 del 09/05/2021
Gonnoi UD 20°C 43% 7°C 0 mm 0 mm/h 17.7 km/h 1019.1 hPa 01:00 del 09/05/2021
Dasochori UD 14.9°C 60% 7.2°C 0 mm 0 mm/h 4.8 km/h 1018 hPa 01:00 del 09/05/2021
Eptalofos UD 9.6°C 75% 5.3°C 0 mm 0 mm/h 3.2 km/h 1018.9 hPa 01:10 del 09/05/2021
Eptapyrgio UD 17.2°C 37% 2.4°C 0 mm 0 mm/h 12.9 km/h 1018.5 hPa 01:00 del 09/05/2021
Efkarpia UD 11°C 75% 6.7°C 0 mm 0 mm/h 0 km/h 1019.8 hPa 01:10 del 09/05/2021
Zygos UD 16.5°C 61% 8.9°C 0 mm 0 mm/h 25.7 km/h 1019.9 hPa 01:00 del 09/05/2021
Iliolousto UD 15.6°C 48% 4.6°C 0 mm 0 mm/h 8 km/h 1022.6 hPa 01:10 del 09/05/2021
Ilioupoli UD 21.6°C 52% 11.3°C 0 mm 0 mm/h 12.9 km/h 1016.5 hPa 01:10 del 09/05/2021
Istiaia UD 17.1°C 87% 14.9°C 0 mm 0 mm/h 6.4 km/h 1019.3 hPa 01:00 del 09/05/2021
Isoma UD 11.6°C 53% 2.3°C 0 mm 0 mm/h 6.4 km/h 1019.9 hPa 01:00 del 09/05/2021
Prinia UD 15.7°C 82% 12.6°C 0 mm 0 mm/h 24.1 km/h 1013.8 hPa 01:00 del 09/05/2021
Kakopetros UD 16.7°C 68% 10.7°C 0 mm 0 mm/h 0 km/h 1014 hPa 01:10 del 09/05/2021
Kampoi UD 15.4°C 71% 10.2°C 0 mm 0 mm/h 3.2 km/h 1013.6 hPa 01:10 del 09/05/2021
Katarraktis UD 15.2°C 68% 9.4°C 0 mm 0 mm/h 0 km/h 1012.6 hPa 01:00 del 09/05/2021
Kokkino UD 17.3°C 75% 12.8°C 0 mm 0 mm/h 8 km/h 1017.1 hPa 00:30 del 09/05/2021
Korinos UD 15.8°C 56% 7°C 0 mm 0 mm/h 1.6 km/h 1017.5 hPa 01:10 del 09/05/2021
Kythira UD 18.2°C 74% 13.5°C 0 mm 0 mm/h 14.5 km/h 1015 hPa 01:10 del 09/05/2021
Delphi UD 9.3°C 84% 6.8°C 0 mm 0 mm/h 1.6 km/h 1014.9 hPa 01:00 del 09/05/2021
Metamorfosi UD 20.4°C 62% 12.9°C 0 mm 0 mm/h 20.9 km/h 1016.5 hPa 00:30 del 09/05/2021
Mouzaki UD 16.5°C 67% 10.3°C 0 mm 0 mm/h 3.2 km/h 1018.3 hPa 01:00 del 09/05/2021
Nea Santa UD 14.1°C 58% 6°C 0 mm 0 mm/h 0 km/h 1019.8 hPa 01:10 del 09/05/2021
Neapoli UD 19.3°C 74% 14.5°C 0 mm 0 mm/h 16.1 km/h 1012.2 hPa 01:10 del 09/05/2021
Marmaras UD 18.5°C 70% 12.9°C 0 mm 0 mm/h 4.8 km/h 1018.2 hPa 01:10 del 09/05/2021
Xirolimni UD 12.1°C 66% 5.9°C 0 mm 0 mm/h 1.6 km/h 1018.5 hPa 01:00 del 09/05/2021
Mandra UD 18.1°C 61% 10.5°C 0 mm 0 mm/h 3.2 km/h 1015.7 hPa 01:00 del 09/05/2021
Palaiochori UD 17.1°C 63% 10°C 0 mm 0 mm/h 0 km/h 1014.3 hPa 01:10 del 09/05/2021
Paralia UD 18.4°C 75% 13.9°C 0 mm 0 mm/h 0 km/h 1012.5 hPa 01:10 del 09/05/2021
Paramythia UD 15.2°C 67% 9.1°C 0 mm 0 mm/h 8 km/h 1013.1 hPa 01:10 del 09/05/2021
Platanoulia UD 19.1°C 52% 9°C 0 mm 0 mm/h 4.8 km/h 1018.3 hPa 01:10 del 09/05/2021
Potamoi UD 15.3°C 76% 11.1°C 0 mm 0 mm/h 3.2 km/h 1009.4 hPa 01:00 del 09/05/2021
Samothraki UD 17.3°C 60% 9.5°C 0 mm 0 mm/h 12.9 km/h 1016.1 hPa 01:10 del 09/05/2021
Sindos UD 17.4°C 49% 6.6°C 0 mm 0 mm/h 9.7 km/h 1019.6 hPa 01:00 del 09/05/2021
Stalos UD 18.8°C 67% 12.6°C 0 mm 0 mm/h 1.6 km/h 1014.6 hPa 01:00 del 09/05/2021
Stefani UD 14°C 80% 10.6°C 0 mm 0 mm/h 11.3 km/h 1016.5 hPa 01:10 del 09/05/2021
Stypsi UD 15°C 78% 11.2°C 0 mm 0 mm/h 1.6 km/h 1014.3 hPa 01:00 del 09/05/2021
Sfakia UD 17.2°C 58% 8.8°C 0 mm 0 mm/h 1.6 km/h 1010.2 hPa 01:00 del 09/05/2021
Terpyllos UD 8.2°C 86% 6°C 0 mm 0 mm/h 0 km/h 1019.8 hPa 01:10 del 09/05/2021
Chalandritsa UD 19.8°C 60% 11.8°C 0 mm 0 mm/h 6.4 km/h 1011.5 hPa 01:10 del 09/05/2021
Chalastra UD 17.7°C 46% 5.9°C 0 mm 0 mm/h 16.1 km/h 1019.3 hPa 01:00 del 09/05/2021
Psachna UD 19.6°C 69% 13.8°C 0 mm 0 mm/h 3.2 km/h 1014.6 hPa 01:00 del 09/05/2021
Oreoi UD 18.3°C 82% 15.2°C 0 mm 0 mm/h 8 km/h 1018.3 hPa 01:10 del 09/05/2021
Agia Paraskevi UD 20°C 48% 8.7°C 0 mm 0 mm/h 3.2 km/h 1014.3 hPa 01:00 del 09/05/2021
Paliouria UD 16.6°C 57% 8.1°C 0 mm 0 mm/h 6.4 km/h 1019.8 hPa 01:10 del 09/05/2021
Metsovo UD 8.3°C 85% 6°C 0 mm 0 mm/h 14.5 km/h 1015.3 hPa 01:00 del 09/05/2021
Agios Stefanos UD 16.7°C 75% 12.3°C 0 mm 0 mm/h 3.2 km/h 1016.9 hPa 00:50 del 09/05/2021
Agia Varvara UD 20.3°C 66% 13.8°C 0 mm 0 mm/h 9.7 km/h 1013.4 hPa 01:10 del 09/05/2021
Aigialeia UD 16.6°C 62% 9.2°C 0 mm 0 mm/h 4.8 km/h 1014.9 hPa 00:50 del 09/05/2021
Niata UD 14.7°C 79% 11.1°C 0 mm 0 mm/h 3.2 km/h 1014.1 hPa 01:10 del 09/05/2021
Amfikleia UD 17.4°C 61% 9.8°C 0 mm 0 mm/h 3.2 km/h 1016.4 hPa 00:50 del 09/05/2021
Patra UD 23.3°C 50% 12.3°C 0 mm 0 mm/h 24.1 km/h 1013.5 hPa 01:10 del 09/05/2021
Asteri UD 14.8°C 88% 12.8°C 0 mm 0 mm/h 1.6 km/h 1014.5 hPa 01:00 del 09/05/2021
Acharnes UD 17.7°C 70% 12.1°C 0 mm 0 mm/h 11.3 km/h 1016 hPa 01:10 del 09/05/2021
Grevena UD 8.8°C 81% 5.7°C 0 mm 0 mm/h 0 km/h 1015.9 hPa 00:30 del 09/05/2021
Pikrolimni UD 16.1°C 47% 4.8°C 0 mm 0 mm/h 8 km/h 1019.3 hPa 01:10 del 09/05/2021
Salonicco UD 19.3°C 44% 6.7°C 0 mm 0 mm/h 3.2 km/h 1019.6 hPa 01:00 del 09/05/2021
Zympragos UD 19.1°C 63% 11.8°C 0 mm 0 mm/h 0 km/h 1012.9 hPa 01:10 del 09/05/2021
Molos UD 19.1°C 65% 12.3°C 0 mm 0 mm/h 14.5 km/h 1018.6 hPa 01:00 del 09/05/2021
Evdilos UD 18.2°C 71% 12.8°C 0 mm 0 mm/h 6.4 km/h 1011.6 hPa 01:00 del 09/05/2021
Deskati UD 14.9°C 62% 7.7°C 0 mm 0 mm/h 4.8 km/h 1015.8 hPa 01:10 del 09/05/2021
Megisti UD 20.7°C 77% 16.5°C 0 mm 0 mm/h 12.9 km/h 1010.1 hPa 01:00 del 09/05/2021
Kilkis UD 14.4°C 50% 4.1°C 0 mm 0 mm/h 11.3 km/h 1019.2 hPa 01:10 del 09/05/2021
Tinos UD 19.9°C 65% 13.1°C 0 mm 0 mm/h 46.7 km/h 1011.7 hPa 01:10 del 09/05/2021
Florina UD 8.3°C 80% 5°C 0 mm 0 mm/h 3.2 km/h 1021.6 hPa 01:00 del 09/05/2021
Evrotas UD 15.4°C 74% 10.8°C 0 mm 0 mm/h 1.6 km/h 1014 hPa 01:10 del 09/05/2021
Chalkida UD 19.3°C 71% 13.9°C 0 mm 0 mm/h 6.4 km/h 1018.8 hPa 01:10 del 09/05/2021
Megalopoli UD 16.7°C 67% 10.5°C 0 mm 0 mm/h 0 km/h 1015 hPa 01:10 del 09/05/2021
Mainalo UD 13.2°C 66% 7°C 0 mm 0 mm/h 32.2 km/h 1012.2 hPa 01:10 del 09/05/2021
Neos Kafkasos UD 8.1°C 82% 5.2°C 0 mm 0 mm/h 6.4 km/h 1019 hPa 01:00 del 09/05/2021
Kato Nevrokopi UD 9.6°C 76% 5.6°C 0 mm 0 mm/h 3.2 km/h 1017.3 hPa 01:00 del 09/05/2021
Thermi UD 18.2°C 38% 3.7°C 0 mm 0 mm/h 1.6 km/h 1018.7 hPa 01:10 del 09/05/2021
Agia Paraskevi UD 20.1°C 55% 10.9°C 0 mm 0 mm/h 10.7 km/h 1016.2 hPa 01:15 del 09/05/2021
Serres UD 16.8°C 36% 1.6°C 0 mm 0 mm/h 12.9 km/h 1019.5 hPa 01:10 del 09/05/2021
Skiathos UD 18.2°C 80% 14.7°C 0 mm 0 mm/h 27.4 km/h 1017.6 hPa 01:10 del 09/05/2021
Chania UD 19.6°C 59% 11.3°C 0 mm 0 mm/h 1.6 km/h 1011.7 hPa 01:00 del 09/05/2021
Chios UD 20.1°C 48% 8.8°C 0 mm 0 mm/h 1.6 km/h 1013.6 hPa 01:10 del 09/05/2021
Pireas UD 22.1°C 57% 13.1°C 0 mm 0 mm/h 8 km/h 1016.1 hPa 01:10 del 09/05/2021
Platykampos UD 19.5°C 65% 12.7°C 0 mm 0 mm/h 14.5 km/h 1017.4 hPa 01:20 del 09/05/2021
Kamares UD 21.3°C 55% 11.9°C 0 mm 0 mm/h 11.3 km/h 1014.8 hPa 01:00 del 09/05/2021
Komuna e Gjilanit UD 7.2°C 64% 0.8°C 0 mm 0 mm/h 0 km/h 1022.4 hPa 23:49 del 08/05/2021
Latina LT 15.4°C 86% 13.1°C 0 mm 0 mm/h 0 km/h 1017 hPa 00:27 del 09/05/2021
Ceccano FR 16.2°C 87% 14°C 0 mm 0 mm/h 0 km/h 1018.3 hPa 00:29 del 09/05/2021
Marta VT 14.8°C 81% 11.6°C 0 mm 0 mm/h 3.2 km/h 1020 hPa 00:29 del 09/05/2021
Ferentino FR 15.7°C 81% 12.5°C 0 mm 0 mm/h 1.6 km/h 1018.3 hPa 00:25 del 09/05/2021
Valentano VT 16.3°C 77% 12.2°C 0 mm 0 mm/h 3.1 km/h 1017.3 hPa 00:27 del 09/05/2021
Alatri FR 16.6°C 79% 12.9°C 0 mm 0 mm/h 3.7 km/h 1023.6 hPa 00:25 del 09/05/2021
Sora FR 18.6°C 78% 14.7°C 0 mm 0 mm/h 0 km/h 1019.6 hPa 23:48 del 08/05/2021
Isola del Liri FR 16.7°C 86% 14.3°C 0 mm 0 mm/h 0.5 km/h 1018.7 hPa 00:29 del 09/05/2021
Latina LT 14.8°C 90% 13.2°C 0 mm 0 mm/h 0 km/h 1017.7 hPa 00:29 del 09/05/2021
Frosinone FR 18.2°C 76% 13.9°C 0 mm 0 mm/h 0 km/h 1019.8 hPa 00:25 del 09/05/2021
Anagni FR 17.1°C 79% 13.3°C 0 mm 0 mm/h 0 km/h 1017.5 hPa 00:27 del 09/05/2021
Roma RM 17.2°C 100% 17.2°C 0 mm 0 mm/h 0 km/h 1007.5 hPa 00:20 del 09/05/2021
San Lorenzo Nuovo VT 14.7°C 78% 10.9°C 0 mm 0 mm/h 0 km/h 1020.9 hPa 00:30 del 09/05/2021
Acquapendente VT 12.3°C 85% 9.8°C 0 mm 0 mm/h 0 km/h 1019.3 hPa 00:29 del 09/05/2021
Roma RM 16.1°C 81% 12.8°C 0 mm 0 mm/h 0 km/h 1018.6 hPa 00:25 del 09/05/2021
Alatri FR 16.3°C 81% 13°C 0 mm 0 mm/h 0 km/h 1019 hPa 00:25 del 09/05/2021
Ronciglione VT 15.1°C 70% 9.7°C 0 mm 0 mm/h 2.8 km/h 1021 hPa 00:25 del 09/05/2021
Rocca Priora RM 15.6°C 76% 11.4°C 0 mm 0 mm/h 0 km/h 1020.9 hPa 00:15 del 09/05/2021
Isola del Liri FR 16.8°C 90% 15.2°C 0 mm 0 mm/h 0 km/h 1030.5 hPa 23:49 del 08/05/2021
Roma RM 16.6°C 83% 13.9°C 0 mm 0 mm/h 0 km/h 1016.3 hPa 00:00 del 09/05/2021
Genazzano RM 15.6°C 81% 12.3°C 0 mm 0 mm/h 2.2 km/h 1021.2 hPa 00:27 del 09/05/2021
Pomezia RM 17.7°C 74% 13°C 0 mm 0 mm/h 4.8 km/h 1017.5 hPa 00:27 del 09/05/2021
Alatri FR 15.8°C 88% 13.8°C 0 mm 0 mm/h 0.7 km/h 1019.8 hPa 00:27 del 09/05/2021
Acquapendente VT 14.6°C 70% 9.2°C 0 mm 0 mm/h 0 km/h 1017.3 hPa 00:29 del 09/05/2021
Guidonia Montecelio RM 17.3°C 76% 13°C 0 mm 0 mm/h 0 km/h 1018.3 hPa 00:25 del 09/05/2021
Cervaro FR 18.6°C 71% 13.3°C 0 mm 0 mm/h 4.8 km/h 1019.1 hPa 00:27 del 09/05/2021
Contigliano RI 14.1°C 79% 10.5°C 0 mm 0 mm/h 0 km/h 1018.4 hPa 00:25 del 09/05/2021
Ariccia RM 15.1°C 83% 12.2°C 0 mm 0 mm/h 4.8 km/h 1018.9 hPa 00:27 del 09/05/2021
Ventotene LT 18°C 90% 16.7°C 0.2 mm 0 mm/h 3.2 km/h 1019.7 hPa 00:27 del 09/05/2021
Morlupo RM 14.1°C 86% 11.8°C 0 mm 0 mm/h 0 km/h 1020.4 hPa 00:29 del 09/05/2021
Olevano Romano RM 14.2°C 85% 11.7°C 0 mm 0 mm/h 0 km/h 1025 hPa 00:20 del 09/05/2021
Tivoli RM 16.1°C 81% 12.8°C 0 mm 0 mm/h 9.7 km/h 1018.1 hPa 00:25 del 09/05/2021
Anguillara Sabazia RM 13.2°C 94% 12.2°C 0 mm 0 mm/h 0 km/h 1019.2 hPa 00:35 del 09/05/2021
Pico FR 16.1°C 86% 13.8°C 0 mm 0 mm/h 0 km/h 1018.2 hPa 00:29 del 09/05/2021
Fondi LT 18.9°C 75% 14.4°C 0 mm 0 mm/h 4.8 km/h 1018.6 hPa 00:25 del 09/05/2021
Roma RM 10.6°C 75% 6.1°C 0 mm 0 mm/h 3.2 km/h 1025.2 hPa 00:27 del 09/05/2021
Lariano RM 16.4°C 72% 11.4°C 0 mm 0 mm/h 3.5 km/h 1020.7 hPa 00:30 del 09/05/2021
Amatrice RI 7.9°C 74% 3.3°C 0 mm 0 mm/h 3.2 km/h 1020.9 hPa 00:27 del 09/05/2021
Roma RM 14.2°C 93% 13.2°C 0 mm 0 mm/h 2.4 km/h 1017.6 hPa 23:49 del 08/05/2021
Sezze LT 16.8°C 79% 13.2°C 0 mm 0 mm/h 1.6 km/h 1017 hPa 00:29 del 09/05/2021
Viterbo VT 16.7°C 71% 11.4°C 0 mm 0 mm/h 4.8 km/h 1019.2 hPa 00:29 del 09/05/2021
Roma RM 16.1°C 73% 11.3°C 0 mm 0 mm/h 4 km/h 0 hPa 00:29 del 09/05/2021
Pontecorvo FR 17.7°C 80% 14.2°C 0 mm 0 mm/h 1 km/h 1019.1 hPa 00:29 del 09/05/2021
Roma RM 17.7°C 74% 13°C 0 mm 0 mm/h 0 km/h 1018 hPa 00:27 del 09/05/2021
Roma RM 17.3°C 76% 12.8°C 0 mm 0 mm/h 0 km/h 1019.4 hPa 00:27 del 09/05/2021
Supino FR 15.5°C 88% 13.5°C 0 mm 0 mm/h 0 km/h 1017.3 hPa 00:25 del 09/05/2021
Frosinone FR 18.6°C 75% 14°C 0 mm 0 mm/h 0.2 km/h 1017.9 hPa 00:30 del 09/05/2021
Roma RM 15.8°C 86% 13.5°C 0 mm 0 mm/h 0 km/h 1019.7 hPa 00:24 del 09/05/2021
Formia LT 19.1°C 70% 13.5°C 0 mm 0 mm/h 2.6 km/h 0 hPa 23:49 del 08/05/2021
Cave RM 16°C 40% 2.4°C 0 mm 0 mm/h 0.5 km/h 1021.8 hPa 00:25 del 09/05/2021
Roma RM 13.9°C 89% 12.1°C 0 mm 0 mm/h 0 km/h 1009.9 hPa 00:29 del 09/05/2021
Palestrina RM 15.1°C 80% 11.6°C 0 mm 0 mm/h 0 km/h 1017.8 hPa 00:29 del 09/05/2021
Roma RM 17°C 84% 14.2°C 0 mm 0 mm/h 1 km/h 1019 hPa 23:49 del 08/05/2021
Guarcino FR 15.6°C 80% 12.2°C 0 mm 0 mm/h 0 km/h 1013.9 hPa 00:25 del 09/05/2021
Pomezia RM 17.2°C 74% 12.5°C 0 mm 0 mm/h 1.6 km/h 1020.1 hPa 00:29 del 09/05/2021
Scandriglia RI 13.4°C 88% 11.5°C 0 mm 0 mm/h 0 km/h 1019.7 hPa 00:29 del 09/05/2021
Roma RM 16.4°C 79% 12.8°C 0 mm 0 mm/h 0 km/h 1019.5 hPa 00:26 del 09/05/2021
Ronciglione VT 14.2°C 83% 11.3°C 0 mm 0 mm/h 1.6 km/h 1019.4 hPa 00:29 del 09/05/2021
Roccasecca FR 17.3°C 36% 2.4°C 0 mm 0 mm/h 0 km/h 1017.4 hPa 00:29 del 09/05/2021
Priverno LT 15.9°C 77% 11.7°C 0 mm 0 mm/h 0 km/h 1019.4 hPa 00:28 del 09/05/2021
Sezze LT 15.5°C 84% 12.8°C 0 mm 0 mm/h 0 km/h 1016.2 hPa 00:29 del 09/05/2021
Terracina LT 15.9°C 89% 13.9°C 0 mm 0 mm/h 0 km/h 1019 hPa 00:27 del 09/05/2021
Latina LT 16.1°C 84% 13.4°C 0 mm 0 mm/h 0 km/h 1016.5 hPa 23:59 del 08/05/2021
Guarcino FR 9.8°C 91% 8.4°C 0 mm 0 mm/h 0 km/h 857 hPa 23:59 del 08/05/2021
Labico RM 13.3°C 88% 11.4°C 0 mm 0 mm/h 0 km/h 1020.5 hPa 00:25 del 09/05/2021
Monterotondo RM 16.1°C 79% 12.5°C 0 mm 0 mm/h 1.6 km/h 1018 hPa 00:29 del 09/05/2021
Nepi VT 10.3°C 92% 9.1°C 0 mm 0 mm/h 0 km/h 1020.7 hPa 23:49 del 08/05/2021
Cisterna di Latina LT 16.2°C 86% 13.8°C 0 mm 0 mm/h 0.5 km/h 1008.8 hPa 23:49 del 08/05/2021
Civitavecchia RM 17.3°C 74% 12.7°C 0 mm 0 mm/h 1.6 km/h 1017.4 hPa 00:20 del 09/05/2021
Civitavecchia RM 16.7°C 78% 12.8°C 0 mm 0 mm/h 4.8 km/h 1018.5 hPa 00:25 del 09/05/2021
Collepardo FR 14.8°C 87% 12.7°C 0 mm 0 mm/h 0 km/h 1022.1 hPa 00:27 del 09/05/2021
Marino RM 17.5°C 64% 10.6°C 0 mm 0 mm/h 2.1 km/h 1018.8 hPa 00:29 del 09/05/2021
Roma RM 17.7°C 75% 13.2°C 0 mm 0 mm/h 0 km/h 1018.3 hPa 00:29 del 09/05/2021
Arnara FR 14.7°C 96% 14.1°C 0 mm 0 mm/h 0 km/h 1021 hPa 00:29 del 09/05/2021
Segni RM 13.4°C 95% 12.7°C 0 mm 0 mm/h 0 km/h 1020 hPa 00:29 del 09/05/2021
Anagni FR 14.4°C 88% 12.4°C 0 mm 0 mm/h 0.1 km/h 1017.6 hPa 00:30 del 09/05/2021
Guidonia Montecelio RM 16.8°C 75% 12.4°C 0 mm 0 mm/h 0 km/h 1018.7 hPa 00:29 del 09/05/2021
Nepi VT 10.1°C 92% 8.8°C 0 mm 0 mm/h 1.6 km/h 1020.6 hPa 00:27 del 09/05/2021
Roma RM 14.9°C 88% 12.8°C 0 mm 0 mm/h 0 km/h 1020 hPa 00:27 del 09/05/2021
Ceprano FR 17.1°C 83% 14.2°C 0 mm 0 mm/h 0 km/h 1019.8 hPa 00:29 del 09/05/2021
Mentana RM 16.1°C 78% 12.3°C 0 mm 0 mm/h 0 km/h 1018.5 hPa 00:25 del 09/05/2021
Priverno LT 16.1°C 81% 12.8°C 0 mm 0 mm/h 1.6 km/h 1026.7 hPa 00:27 del 09/05/2021
Morlupo RM 16.6°C 74% 12°C 0 mm 0 mm/h 0 km/h 1019.7 hPa 00:29 del 09/05/2021
Genova GE 13.8°C 87% 11.7°C 0 mm 0 mm/h 0 km/h 1019.8 hPa 00:22 del 09/05/2021
Loano SV 16.2°C 77% 12.2°C 0 mm 0 mm/h 1.6 km/h 1018.5 hPa 00:15 del 09/05/2021
Bogliasco GE 15.4°C 76% 11.2°C 0 mm 0 mm/h 0 km/h 1018.3 hPa 00:29 del 09/05/2021
Genova GE 14.9°C 82% 11.8°C 0 mm 0 mm/h 8 km/h 1019.3 hPa 00:30 del 09/05/2021
Moneglia GE 15.1°C 79% 11.5°C 0 mm 0 mm/h 3.2 km/h 1018.6 hPa 00:20 del 09/05/2021
Genova GE 14.3°C 77% 10.4°C 0 mm 0 mm/h 0 km/h 1022.7 hPa 00:29 del 09/05/2021
Sori GE 15.1°C 76% 10.9°C 0 mm 0 mm/h 0 km/h 1019.4 hPa 00:25 del 09/05/2021
La Spezia SP 15.4°C 74% 10.8°C 0 mm 0 mm/h 0 km/h 1019.6 hPa 00:29 del 09/05/2021
Genova GE 16.6°C 76% 12.3°C 0 mm 0 mm/h 0 km/h 1022 hPa 00:29 del 09/05/2021
La Spezia SP 16.7°C 71% 11.4°C 0 mm 0 mm/h 4.8 km/h 1020.1 hPa 00:27 del 09/05/2021
Santo Stefano di Magra SP 13.8°C 85% 11.7°C 0 mm 0 mm/h 6.4 km/h 1018.5 hPa 00:27 del 09/05/2021
Genova GE 13.1°C 88% 11.1°C 0 mm 0 mm/h 0 km/h 1021.7 hPa 00:29 del 09/05/2021
Genova GE 14.2°C 83% 11.3°C 0 mm 0 mm/h 0 km/h 1020 hPa 00:29 del 09/05/2021
Moneglia GE 12.6°C 91% 11.2°C 0 mm 0 mm/h 3.2 km/h 1020.4 hPa 00:22 del 09/05/2021
San Bartolomeo al Mare IM 13.3°C 75% 9°C 0 mm 0 mm/h 3.2 km/h 1019.5 hPa 00:15 del 09/05/2021
Genova GE 14.5°C 85% 12.2°C 0 mm 0 mm/h 0 km/h 1021.1 hPa 00:28 del 09/05/2021
Genova GE 15.3°C 78% 11.5°C 0 mm 0 mm/h 2.9 km/h 1019.3 hPa 00:30 del 09/05/2021
Mignanego GE 11.3°C 92% 10°C 0 mm 0 mm/h 3.2 km/h 1019.2 hPa 00:29 del 09/05/2021
Ventimiglia IM 11.9°C 91% 10.5°C 0 mm 0 mm/h 0 km/h 1021.2 hPa 00:20 del 09/05/2021
Genova GE 14.9°C 80% 11.5°C 0 mm 0 mm/h 6.4 km/h 1019.3 hPa 00:22 del 09/05/2021
Bargagli GE 12.5°C 84% 9.9°C 0 mm 0 mm/h 0 km/h 1020.4 hPa 00:25 del 09/05/2021
San Colombano Certenoli GE 14°C 77% 10°C 0 mm 0 mm/h 4.8 km/h 1020.3 hPa 00:27 del 09/05/2021
Laigueglia SV 14.2°C 88% 12.2°C 0 mm 0 mm/h 0 km/h 1018.6 hPa 00:27 del 09/05/2021
Mignanego GE 13.7°C 74% 9.4°C 0 mm 0 mm/h 0 km/h 1019.5 hPa 00:27 del 09/05/2021
Finale Ligure SV 15.7°C 76% 11.5°C 0 mm 0 mm/h 3.2 km/h 1017.1 hPa 23:59 del 08/05/2021
Genova GE 13.6°C 86% 11.3°C 0 mm 0 mm/h 4.8 km/h 1020.1 hPa 00:29 del 09/05/2021
Genova GE 14.9°C 76% 10.7°C 0 mm 0 mm/h 1.6 km/h 0 hPa 00:31 del 09/05/2021
Genova GE 15.3°C 76% 11.1°C 0 mm 0 mm/h 2.6 km/h 1023.8 hPa 00:29 del 09/05/2021
Busalla GE 9.7°C 92% 8.4°C 0 mm 0 mm/h 0 km/h 1017.8 hPa 00:29 del 09/05/2021
Moneglia GE 13.6°C 86% 11.2°C 0 mm 0 mm/h 3.1 km/h 1021 hPa 23:49 del 08/05/2021
La Spezia SP 15.6°C 75% 11.2°C 0 mm 0 mm/h 0 km/h 1019.6 hPa 00:20 del 09/05/2021
Loano SV 13.5°C 84% 10.8°C 0 mm 0 mm/h 6.4 km/h 1018.6 hPa 01:28 del 09/05/2021
Pontedassio IM 13.6°C 84% 11°C 0 mm 0 mm/h 1.6 km/h 1019.1 hPa 23:59 del 08/05/2021
Barzio LC 9.1°C 77% 5.2°C 0 mm 0 mm/h 1.6 km/h 1021.1 hPa 00:20 del 09/05/2021
Castelli Calepio BG 13.1°C 78% 9.4°C 0 mm 0 mm/h 0 km/h 1019.2 hPa 00:32 del 09/05/2021
Mantova MN 14.7°C 77% 10.7°C 0 mm 0 mm/h 0 km/h 1020.9 hPa 00:29 del 09/05/2021
Seregno MB 14.7°C 50% 4.3°C 0 mm 0 mm/h 0 km/h 1017.1 hPa 00:20 del 09/05/2021
Codogno LO 15.9°C 76% 11.7°C 0 mm 0 mm/h 0 km/h 1019.7 hPa 00:20 del 09/05/2021
Sondrio SO 10.5°C 81% 7.4°C 0 mm 0 mm/h 0 km/h 1019.7 hPa 00:26 del 09/05/2021
Paladina BG 12.8°C 73% 8.1°C 0 mm 0 mm/h 8 km/h 1020.3 hPa 00:26 del 09/05/2021
Rogeno LC 12.3°C 75% 8°C 0 mm 0 mm/h 0 km/h 1020.6 hPa 00:15 del 09/05/2021
Seriate BG 13.8°C 70% 8.5°C 0 mm 0 mm/h 0 km/h 1018.5 hPa 00:20 del 09/05/2021
Casto BS 12°C 68% 6.3°C 0 mm 0 mm/h 0 km/h 1018.1 hPa 23:59 del 08/05/2021
Lomazzo CO 11.5°C 80% 8.2°C 0 mm 0 mm/h 1.6 km/h 1019.5 hPa 00:20 del 09/05/2021
Leffe BG 0°C 0% 0°C 0 mm 0 mm/h 0 km/h 1019.6 hPa 00:15 del 09/05/2021
Giussano MB 13.3°C 72% 8.4°C 0 mm 0 mm/h 0 km/h 1019.9 hPa 23:59 del 08/05/2021
Montagna in Valtellina SO 13°C 69% 7.5°C 0 mm 0 mm/h 0 km/h 1020.4 hPa 00:20 del 09/05/2021
Lodi LO 15°C 78% 11.2°C 0 mm 0 mm/h 0 km/h 1018.2 hPa 00:27 del 09/05/2021
Monza MB 15.9°C 72% 10.8°C 0 mm 0 mm/h 0 km/h 1017.8 hPa 23:59 del 08/05/2021
Tradate VA 11.5°C 73% 6.8°C 0 mm 0 mm/h 0 km/h 1016.3 hPa 00:29 del 09/05/2021
Sangiano VA 11.4°C 84% 8.9°C 0 mm 0 mm/h 1.6 km/h 1021 hPa 00:15 del 09/05/2021
Lodi LO 16.4°C 72% 11.1°C 0 mm 0 mm/h 0 km/h 1018.7 hPa 00:28 del 09/05/2021
Orsenigo CO 11.7°C 76% 7.6°C 0 mm 0 mm/h 0 km/h 1018.4 hPa 00:23 del 09/05/2021
Rodigo MN 14.4°C 76% 10.2°C 0 mm 0 mm/h 5.4 km/h 1020.1 hPa 00:27 del 09/05/2021
Almenno San Salvatore BG 12.2°C 73% 7.8°C 0 mm 0 mm/h 9.7 km/h 1020.6 hPa 00:27 del 09/05/2021
Lesmo MB 9.3°C 88% 7.4°C 0 mm 0 mm/h 0 km/h 1020.4 hPa 00:25 del 09/05/2021
Alzate Brianza CO 11.6°C 82% 8.6°C 0 mm 0 mm/h 0 km/h 1017 hPa 00:29 del 09/05/2021
San Giovanni Bianco BG 9.9°C 3% -33.9°C 0 mm 0 mm/h 0 km/h 1022.2 hPa 00:28 del 09/05/2021
Abbadia Lariana LC 14°C 64% 7.3°C 0 mm 0 mm/h 0 km/h 1019.7 hPa 00:20 del 09/05/2021
Milano MI 14.8°C 77% 10.6°C 0 mm 0 mm/h 0 km/h 1021.8 hPa 00:27 del 09/05/2021
Carpiano MI 15.4°C 74% 10.6°C 0 mm 0 mm/h 0 km/h 1020.8 hPa 00:32 del 09/05/2021
Casto BS 6.8°C 88% 5°C 0 mm 0 mm/h 4.8 km/h 1021.5 hPa 23:55 del 08/05/2021
Monza MB 13.2°C 74% 8.7°C 0 mm 0 mm/h 0 km/h 1016.1 hPa 23:55 del 08/05/2021
Lissone MB 14.9°C 68% 8.9°C 0 mm 0 mm/h 0 km/h 1020.7 hPa 00:28 del 09/05/2021
Cuasso al Monte VA 9.7°C 84% 7.1°C 0 mm 0 mm/h 0 km/h 1017.6 hPa 00:29 del 09/05/2021
Malnate VA 10.4°C 84% 7.9°C 0 mm 0 mm/h 1.6 km/h 1019.8 hPa 00:25 del 09/05/2021
Monte Marenzo LC 12.7°C 73% 7.8°C 0 mm 0 mm/h 0 km/h 1019.4 hPa 00:27 del 09/05/2021
Berbenno BG 11.4°C 71% 6.1°C 0 mm 0 mm/h 6.4 km/h 1020.5 hPa 00:27 del 09/05/2021
Esine BS 12.3°C 74% 7.8°C 0 mm 0 mm/h 1.4 km/h 1020.1 hPa 00:28 del 09/05/2021
Albosaggia SO 10.9°C 68% 5.2°C 0 mm 0 mm/h 0 km/h 1022.4 hPa 00:25 del 09/05/2021
Casalpusterlengo LO 15.6°C 73% 10.8°C 0 mm 0 mm/h 0 km/h 1019.8 hPa 00:20 del 09/05/2021
Colere BG 5.9°C 82% 3.1°C 0 mm 0 mm/h 0 km/h 1019.8 hPa 00:25 del 09/05/2021
Castano Primo MI 12.1°C 84% 9.5°C 0 mm 0 mm/h 0 km/h 1020.6 hPa 00:20 del 09/05/2021
Calvenzano BG 12.8°C 83% 10°C 0 mm 0 mm/h 1.6 km/h 0 hPa 00:15 del 09/05/2021
Paderno Dugnano MI 15.3°C 72% 10.6°C 0 mm 0 mm/h 0 km/h 1018.3 hPa 00:27 del 09/05/2021
Castellanza VA 14.1°C 66% 7.9°C 0 mm 0 mm/h 0 km/h 1019.8 hPa 00:26 del 09/05/2021
Lentate sul Seveso MB 12.6°C 67% 6.6°C 0 mm 0 mm/h 0 km/h 1019 hPa 00:22 del 09/05/2021
Milano MI 19.4°C 17% -6°C 0 mm 0 mm/h 2.9 km/h 1024 hPa 00:30 del 09/05/2021
Montichiari BS 12.8°C 10% -18.2°C 0 mm 0 mm/h 0 km/h 1019.1 hPa 00:20 del 09/05/2021
Meda MB 11.6°C 62% 4.6°C 0 mm 0 mm/h 0 km/h 1017.7 hPa 00:29 del 09/05/2021
Bovisio Masciago MB 14.6°C 70% 9.1°C 0 mm 0 mm/h 0 km/h 1022.6 hPa 00:15 del 09/05/2021
Pallazzolo sull'Oglio BS 14.5°C 68% 8.9°C 0 mm 0 mm/h 8 km/h 999 hPa 00:27 del 09/05/2021
Niardo BS 12.8°C 85% 10.3°C 0 mm 0 mm/h 0 km/h 1016.9 hPa 23:50 del 08/05/2021
Zinasco PV 15.3°C 80% 11.9°C 0 mm 0 mm/h 0 km/h 1018.5 hPa 00:25 del 09/05/2021
Desenzano del Garda BS 0°C 0% 0°C 0 mm 0 mm/h 0 km/h 0 hPa 00:27 del 09/05/2021
Gonzaga MN 13.9°C 77% 10°C 0 mm 0 mm/h 1.6 km/h 1020.8 hPa 00:29 del 09/05/2021
Gaggiano MI 16°C 70% 10.5°C 0 mm 0 mm/h 1.6 km/h 1019.6 hPa 00:29 del 09/05/2021
Vigano San Martino BG 10.5°C 80% 7.2°C 0 mm 0 mm/h 0 km/h 1015 hPa 00:29 del 09/05/2021
Triuggio MB 9.3°C 90% 7.8°C 0 mm 0 mm/h 0 km/h 1021.2 hPa 00:26 del 09/05/2021
Retorbido PV 14°C 71% 8.8°C 0 mm 0 mm/h 3.7 km/h 1020.3 hPa 00:28 del 09/05/2021
Gazzaniga BG 11°C 79% 7.8°C 0 mm 0 mm/h 0 km/h 1022.3 hPa 00:27 del 09/05/2021
Costa Volpino BG 11.8°C 56% 3.3°C 0 mm 0 mm/h 1.4 km/h 1020.3 hPa 00:21 del 09/05/2021
Rodano MI 12.9°C 84% 10.3°C 0 mm 0 mm/h 0 km/h 1018.5 hPa 00:15 del 09/05/2021
Arcore MB 12.2°C 59% 4.4°C 0 mm 0 mm/h 0 km/h 1019.7 hPa 00:15 del 09/05/2021
Dorno PV 15.3°C 72% 10.3°C 0 mm 0 mm/h 0 km/h 1019.6 hPa 00:27 del 09/05/2021
Gambolò PV 15.9°C 74% 11.1°C 0 mm 0 mm/h 0 km/h 1020.9 hPa 00:28 del 09/05/2021
Carnate MB 10.7°C 84% 8.1°C 0 mm 0 mm/h 0 km/h 1019.6 hPa 02:29
Mariano Comense CO 10.4°C 82% 7.5°C 0 mm 0 mm/h 3.2 km/h 1020.6 hPa 00:29 del 09/05/2021
Trescore Balneario BG 13.5°C 64% 6.8°C 0 mm 0 mm/h 1.1 km/h 1021.6 hPa 00:29 del 09/05/2021
Goito MN 13.9°C 76% 10°C 0 mm 0 mm/h 0 km/h 1021 hPa 00:26 del 09/05/2021
Rescaldina MI 12.4°C 86% 10.1°C 0 mm 0 mm/h 1 km/h 1018 hPa 00:30 del 09/05/2021
Broni PV 12.5°C 88% 10.6°C 0 mm 0 mm/h 5 km/h 1019.8 hPa 00:29 del 09/05/2021
Castronno VA 10.2°C 85% 7.8°C 0 mm 0 mm/h 0 km/h 1022.5 hPa 00:20 del 09/05/2021
Castronno VA 13.3°C 62% 6.2°C 0 mm 0 mm/h 8.4 km/h 1022.5 hPa 00:29 del 09/05/2021
Robbio PV 15.5°C 66% 9.2°C 0 mm 0 mm/h 0 km/h 1019.1 hPa 00:29 del 09/05/2021
Sesto Calende VA 10.6°C 84% 7.8°C 0 mm 0 mm/h 1.6 km/h 993.7 hPa 00:27 del 09/05/2021
Saronno VA 12.6°C 82% 9.4°C 0 mm 0 mm/h 0 km/h 1016.4 hPa 00:26 del 09/05/2021
Desenzano del Garda BS 14.5°C 67% 8.5°C 0 mm 0 mm/h 0.4 km/h 1019.6 hPa 00:29 del 09/05/2021
Bernate Ticino MI 13.6°C 82% 10.6°C 0 mm 0 mm/h 0 km/h 1020.4 hPa 00:29 del 09/05/2021
Albavilla CO 10.9°C 77% 7.2°C 0 mm 0 mm/h 0 km/h 0 hPa 00:27 del 09/05/2021
Campodolcino SO 2.9°C 84% 0.5°C 0 mm 0 mm/h 0 km/h 1023 hPa 00:27 del 09/05/2021
Vigevano PV 16.4°C 73% 11.5°C 0 mm 0 mm/h 0 km/h 1020.2 hPa 00:20 del 09/05/2021
Morbegno SO 12.9°C 69% 7.3°C 0 mm 0 mm/h 1.6 km/h 1022.4 hPa 00:29 del 09/05/2021
Pavia PV 15.9°C 74% 11.3°C 0 mm 0 mm/h 3.2 km/h 1019.3 hPa 00:24 del 09/05/2021
Montanaso Lombardo LO 14.8°C 77% 11.1°C 0 mm 0 mm/h 0 km/h 1019.2 hPa 00:28 del 09/05/2021
Cuasso al Monte VA 10.3°C 82% 7.3°C 0 mm 0 mm/h 0 km/h 1021.8 hPa 00:27 del 09/05/2021
Vertova BG 10.5°C 75% 6.3°C 0 mm 0 mm/h 1.4 km/h 1021.5 hPa 00:24 del 09/05/2021
Varese VA 11.6°C 75% 7.2°C 0 mm 0 mm/h 0 km/h 1020.3 hPa 00:27 del 09/05/2021
Gualdo Tadino PG 11.3°C 81% 8.3°C 0 mm 0 mm/h 0 km/h 1018.8 hPa 00:27 del 09/05/2021
Marsciano PG 15.8°C 71% 10.6°C 0 mm 0 mm/h 6 km/h 1015.7 hPa 00:30 del 09/05/2021
Orvieto TR 14°C 82% 11°C 0 mm 0 mm/h 0 km/h 1018.4 hPa 00:10 del 09/05/2021
Orvieto TR 13.4°C 82% 10.4°C 0 mm 0 mm/h 0 km/h 1017.5 hPa 00:15 del 09/05/2021
Piegaro PG 11.4°C 88% 9.5°C 0 mm 0 mm/h 3.2 km/h 1020.9 hPa 00:29 del 09/05/2021
Castiglione del Lago PG 14.3°C 85% 11.7°C 0 mm 0 mm/h 0 km/h 1019.2 hPa 00:28 del 09/05/2021
Fabro TR 12°C 86% 10°C 0 mm 0 mm/h 0 km/h 1019.1 hPa 00:29 del 09/05/2021
Deruta PG 14.6°C 75% 10.2°C 0 mm 0 mm/h 0 km/h 1000.2 hPa 00:29 del 09/05/2021
Perugia PG 10.7°C 89% 9°C 0 mm 0 mm/h 0 km/h 1019.7 hPa 00:26 del 09/05/2021
Fabro TR 16.3°C 74% 11.7°C 0 mm 0 mm/h 6.8 km/h 1019.9 hPa 00:26 del 09/05/2021
Căplani TR 6.7°C 75% 2.8°C 0 mm 0 mm/h 4.8 km/h 1020.8 hPa 01:27 del 09/05/2021
Campobasso CB 10.9°C 80% 7.8°C 0 mm 0 mm/h 0 km/h 1020.9 hPa 00:28 del 09/05/2021
Baranello CB 10.9°C 76% 6.7°C 0 mm 0 mm/h 0 km/h 1023 hPa 00:27 del 09/05/2021
Capracotta IS 9.9°C 69% 4.4°C 0 mm 0 mm/h 11.3 km/h 1019.8 hPa 00:27 del 09/05/2021
Campobasso CB 9.8°C 88% 7.8°C 0 mm 0 mm/h 0 km/h 1015.4 hPa 00:27 del 09/05/2021
Campodipietra CB 11.1°C 87% 9°C 0 mm 0 mm/h 1.8 km/h 1027.3 hPa 00:29 del 09/05/2021
Castropignano CB 8.4°C 92% 7.2°C 0 mm 0 mm/h 0 km/h 1025.1 hPa 00:29 del 09/05/2021
Campobasso CB 10.9°C 83% 8.3°C 0 mm 0 mm/h 0 km/h 1022.6 hPa 00:27 del 09/05/2021
Petacciato CB 11.4°C 89% 9.6°C 0 mm 0 mm/h 4.8 km/h 1025.8 hPa 00:00 del 09/05/2021
Vinchiaturo CB 8.1°C 92% 6.9°C 0 mm 0 mm/h 0 km/h 1022.7 hPa 00:29 del 09/05/2021
Ururi CB 13.9°C 77% 9.9°C 0 mm 0 mm/h 0 km/h 1021.9 hPa 00:29 del 09/05/2021
Trivento CB 10.7°C 89% 9°C 0 mm 0 mm/h 6.1 km/h 1019.1 hPa 00:26 del 09/05/2021
Frosolone IS 9.9°C 90% 8.3°C 0 mm 0 mm/h 0 km/h 1021.1 hPa 00:26 del 09/05/2021
Agnone IS 11.3°C 88% 9.4°C 0 mm 0 mm/h 0 km/h 1021.8 hPa 00:29 del 09/05/2021
Castel San Vincenzo IS 12.9°C 84% 10.3°C 0 mm 0 mm/h 6.8 km/h 1020.1 hPa 00:29 del 09/05/2021
Ripalimosani CB 10.7°C 84% 8.1°C 0 mm 0 mm/h 0 km/h 1022 hPa 00:29 del 09/05/2021
Cercemaggiore CB 11.4°C 62% 4.4°C 0 mm 0 mm/h 6.1 km/h 1017.7 hPa 00:28 del 09/05/2021
Agnone IS 10.5°C 99% 10.4°C 0 mm 0 mm/h 0 km/h 1021.1 hPa 00:27 del 09/05/2021
Campobasso CB 12.2°C 65% 5.8°C 0 mm 0 mm/h 6.1 km/h 1022 hPa 00:29 del 09/05/2021
Gambatesa CB 11.7°C 84% 9.1°C 0 mm 0 mm/h 0 km/h 1024.3 hPa 00:29 del 09/05/2021
Vinchiaturo CB 9.3°C 89% 7.6°C 0 mm 0 mm/h 0 km/h 1021.8 hPa 00:29 del 09/05/2021
Campodipietra CB 11.4°C 85% 9°C 0 mm 0 mm/h 3.6 km/h 1025 hPa 00:30 del 09/05/2021
San Pietro Avellana IS 6.8°C 97% 6.4°C 0 mm 0 mm/h 0 km/h 1024.1 hPa 00:29 del 09/05/2021
Baranello CB 10.4°C 88% 8.5°C 0 mm 0 mm/h 0 km/h 1020.6 hPa 00:29 del 09/05/2021
Riccia CB 11.7°C 82% 8.7°C 0 mm 0 mm/h 0 km/h 1021.7 hPa 00:30 del 09/05/2021
Filottrano AN 13.4°C 61% 6°C 0 mm 0 mm/h 0 km/h 1019.6 hPa 23:49 del 08/05/2021
Macerata MC 14.3°C 59% 6.4°C 0 mm 0 mm/h 6 km/h 1020.4 hPa 00:00 del 09/05/2021
Montecalvo in Foglia PU 10.9°C 83% 8.1°C 0 mm 0 mm/h 1.8 km/h 1016.3 hPa 23:54 del 08/05/2021
Cingoli MC 12.6°C 77% 8.6°C 0 mm 0 mm/h 0 km/h 1026 hPa 00:30 del 09/05/2021
Gabicce Mare PU 12.3°C 65% 5.9°C 0 mm 0 mm/h 8 km/h 1020.7 hPa 00:24 del 09/05/2021
Jesi AN 10.6°C 76% 6.5°C 0 mm 0 mm/h 1.8 km/h 1018.6 hPa 00:29 del 09/05/2021
Jesi AN 11.1°C 72% 6.2°C 0 mm 0 mm/h 0 km/h 1020 hPa 00:29 del 09/05/2021
Ancona AN 10.6°C 66% 4.5°C 0 mm 0 mm/h 0 km/h 1019.9 hPa 00:30 del 09/05/2021
Jesi AN 12.4°C 67% 6.5°C 0 mm 0 mm/h 1.6 km/h 1019.8 hPa 00:29 del 09/05/2021
Ancona AN 11°C 66% 4.9°C 0 mm 0 mm/h 2.5 km/h 1021 hPa 00:29 del 09/05/2021
Porto Sant'Elpidio FM 14.8°C 55% 5.9°C 0 mm 0 mm/h 1.6 km/h 1021.7 hPa 00:27 del 09/05/2021
Senigallia AN 11.7°C 74% 7.2°C 0 mm 0 mm/h 3.2 km/h 1020.8 hPa 00:24 del 09/05/2021
Montemarciano AN 12.1°C 69% 6.6°C 0 mm 0 mm/h 0 km/h 1020.4 hPa 00:27 del 09/05/2021
Montefelcino PU 8.9°C 82% 6°C 0 mm 0 mm/h 6.7 km/h 1020.2 hPa 00:29 del 09/05/2021
Grottammare AP 12.1°C 72% 7.2°C 0 mm 0 mm/h 0 km/h 1022.6 hPa 00:25 del 09/05/2021
Porto San Giorgio FM 12.6°C 62% 5.5°C 0 mm 0 mm/h 1 km/h 1020.4 hPa 00:30 del 09/05/2021
Pesaro PU 11.3°C 71% 6.3°C 0 mm 0 mm/h 0 km/h 1020.5 hPa 00:27 del 09/05/2021
Mergo AN 10.8°C 78% 7.1°C 0 mm 0 mm/h 0 km/h 1021 hPa 00:30 del 09/05/2021
Senigallia AN 11.7°C 72% 6.8°C 0 mm 0 mm/h 1.8 km/h 1020.7 hPa 00:29 del 09/05/2021
Falconara Marittima AN 14.4°C 44% 2.3°C 0 mm 0 mm/h 0 km/h 1020.9 hPa 00:27 del 09/05/2021
San Costanzo PU 13.4°C 53% 4°C 0 mm 0 mm/h 4.3 km/h 1020.2 hPa 00:29 del 09/05/2021
Silvolde PU 14.9°C 78% 11.1°C 1.6 mm 0 mm/h 11.3 km/h 1007.5 hPa 00:00 del 09/05/2021
Arnhem PU 16.4°C 76% 12.2°C 1.8 mm 0 mm/h 0 km/h 1007.3 hPa 00:00 del 09/05/2021
Terlizzi BA 15.1°C 66% 8.8°C 0 mm 0 mm/h 9.7 km/h 1018.9 hPa 00:30 del 09/05/2021
Locorotondo BA 13.3°C 69% 7.8°C 0 mm 0 mm/h 0 km/h 1017.7 hPa 00:27 del 09/05/2021
Foggia FG 14.4°C 60% 6.7°C 0 mm 0 mm/h 4.1 km/h 1021.7 hPa 00:29 del 09/05/2021
Supersano LE 15.2°C 72% 10°C 0 mm 0 mm/h 3.2 km/h 1006.4 hPa 00:27 del 09/05/2021
Putignano BA 11.1°C 85% 8.6°C 0 mm 0 mm/h 0 km/h 0 hPa 00:10 del 09/05/2021
Cisternino BR 14.6°C 60% 6.7°C 0 mm 0 mm/h 9.7 km/h 1018.4 hPa 00:27 del 09/05/2021
Cisternino BR 13.8°C 67% 7.8°C 0 mm 0 mm/h 3.2 km/h 1018.3 hPa 00:27 del 09/05/2021
Lecce LE 16.2°C 73% 11.1°C 0 mm 0 mm/h 4.8 km/h 1016.5 hPa 00:27 del 09/05/2021
Soleto LE 16.2°C 74% 11.7°C 0 mm 0 mm/h 12.4 km/h 1017.9 hPa 23:55 del 08/05/2021
Squinzano LE 15.5°C 77% 11.5°C 0 mm 0 mm/h 19.3 km/h 1016.5 hPa 00:26 del 09/05/2021
Alberobello BA 13.1°C 70% 7.8°C 0 mm 0 mm/h 16.1 km/h 1018.9 hPa 00:27 del 09/05/2021
Mola di Bari BA 15.6°C 70% 10.1°C 0 mm 0 mm/h 0 km/h 1019.9 hPa 00:25 del 09/05/2021
Lecce LE 15.9°C 75% 11.4°C 0 mm 0 mm/h 9.7 km/h 1015.6 hPa 23:50 del 08/05/2021
Tuglie LE 14.9°C 68% 9°C 0 mm 0 mm/h 0.2 km/h 1017.8 hPa 00:25 del 09/05/2021
Taranto TA 18.7°C 57% 10°C 0 mm 0 mm/h 0 km/h 1016.2 hPa 00:21 del 09/05/2021
Vieste FG 16.6°C 50% 6.1°C 0 mm 0 mm/h 8.3 km/h 1019.9 hPa 00:27 del 09/05/2021
Noci BA 13.1°C 70% 7.8°C 0 mm 0 mm/h 11.3 km/h 1019.1 hPa 00:22 del 09/05/2021
San Giovanni Rotondo FG 14.5°C 52% 4.8°C 0 mm 0 mm/h 0 km/h 1019.5 hPa 00:29 del 09/05/2021
Cassano delle Murge BA 12.9°C 68% 7.2°C 0 mm 0 mm/h 0 km/h 1018.5 hPa 00:25 del 09/05/2021
Valenzano BA 14.7°C 69% 9°C 0 mm 0 mm/h 3.2 km/h 1020.6 hPa 00:25 del 09/05/2021
Lecce LE 16.2°C 75% 11.8°C 0 mm 0 mm/h 9.1 km/h 1017.5 hPa 00:27 del 09/05/2021
Locorotondo BA 13°C 76% 8.9°C 0 mm 0 mm/h 3.2 km/h 919.1 hPa 00:20 del 09/05/2021
Ceglie Messapica BR 14.1°C 66% 7.8°C 0 mm 0 mm/h 6.4 km/h 1017 hPa 00:27 del 09/05/2021
Fasano BR 16.7°C 56% 7.8°C 0 mm 0 mm/h 14.5 km/h 1018.3 hPa 00:27 del 09/05/2021
Martina Franca TA 14.1°C 62% 6.7°C 0 mm 0 mm/h 9.7 km/h 1019.2 hPa 00:27 del 09/05/2021
Cavallino LE 16.8°C 74% 12.2°C 0 mm 0 mm/h 19.3 km/h 1017.1 hPa 00:27 del 09/05/2021
Castellana Grotte BA 12.8°C 64% 6.2°C 0 mm 0 mm/h 0 km/h 1023 hPa 00:29 del 09/05/2021
Bitritto BA 12.7°C 75% 8.3°C 0 mm 0 mm/h 3.2 km/h 1020.4 hPa 00:21 del 09/05/2021
Vico del Gargano FG 12°C 64% 5.3°C 0 mm 0 mm/h 4.8 km/h 1017.1 hPa 00:23 del 09/05/2021
Santeramo in Colle BA 12.8°C 71% 7.7°C 0 mm 0 mm/h 9 km/h 1016.9 hPa 23:54 del 08/05/2021
Brindisi BR 15.6°C 78% 11.8°C 0 mm 0 mm/h 8.7 km/h 1020 hPa 00:30 del 09/05/2021
San Ferdinando di Puglia BT 14.9°C 64% 8.1°C 0 mm 0 mm/h 5.2 km/h 1021.9 hPa 00:25 del 09/05/2021
Mola di Bari BA 14.7°C 70% 9.3°C 0 mm 0 mm/h 4.6 km/h 1018.3 hPa 00:25 del 09/05/2021
Cagnano Varano FG 7.3°C 94% 6.4°C 0 mm 0 mm/h 0 km/h 1019.7 hPa 00:27 del 09/05/2021
Taranto TA 17.7°C 63% 10.6°C 0 mm 0 mm/h 9.3 km/h 1015 hPa 00:29 del 09/05/2021
Spongano LE 15.7°C 72% 10.6°C 0 mm 0 mm/h 9.7 km/h 1014.9 hPa 23:54 del 08/05/2021
Acquaviva delle Fonti BA 13.8°C 71% 8.7°C 0 mm 0 mm/h 3.2 km/h 1019.2 hPa 00:23 del 09/05/2021
Palo del Colle BA 12.1°C 73% 7.4°C 0 mm 0 mm/h 0 km/h 1021.1 hPa 00:29 del 09/05/2021
Monte Sant'Angelo FG 9.5°C 59% 1.8°C 0 mm 0 mm/h 0 km/h 1019.9 hPa 00:23 del 09/05/2021
Taranto TA 17.9°C 62% 10.6°C 0 mm 0 mm/h 6.9 km/h 1015 hPa 00:25 del 09/05/2021
Cerignola FG 0°C 0% 0°C 0 mm 0 mm/h 0 km/h 1020.3 hPa 00:27 del 09/05/2021
Brindisi BR 14.9°C 80% 11.5°C 0 mm 0 mm/h 4.6 km/h 1019 hPa 00:26 del 09/05/2021
Crispiano TA 16.4°C 55% 7.2°C 0 mm 0 mm/h 12.9 km/h 1016.3 hPa 00:28 del 09/05/2021
Martina Franca TA 11.7°C 77% 7.8°C 0 mm 0 mm/h 9.7 km/h 1019.1 hPa 00:27 del 09/05/2021
Galatone LE 15.7°C 68% 9.8°C 0 mm 0 mm/h 8 km/h 1017.9 hPa 00:25 del 09/05/2021
Collepasso LE 14.4°C 52% 4.7°C 0 mm 0 mm/h 10.7 km/h 1020.9 hPa 00:27 del 09/05/2021
Galatina LE 16.1°C 74% 11.4°C 0 mm 0 mm/h 16.7 km/h 1020 hPa 23:54 del 08/05/2021
Taurisano LE 15.1°C 69% 9.4°C 0 mm 0 mm/h 1.6 km/h 1019.3 hPa 23:53 del 08/05/2021
Brindisi BR 0°C 0% 0°C 0 mm 0 mm/h 10.4 km/h 1020 hPa 00:27 del 09/05/2021
Bari BA 16.7°C 66% 10.3°C 0 mm 0 mm/h 0 km/h 1020.3 hPa 00:27 del 09/05/2021
Veglie LE 16.3°C 64% 9.4°C 0 mm 0 mm/h 17.7 km/h 1017.4 hPa 00:27 del 09/05/2021
Gallipoli LE 16.4°C 61% 8.9°C 0 mm 0 mm/h 14.5 km/h 1019.1 hPa 00:27 del 09/05/2021
Ostuni BR 11.9°C 73% 7.2°C 0 mm 0 mm/h 0 km/h 1017.5 hPa 00:27 del 09/05/2021
Castelluccio Valmaggiore FG 11.1°C 78% 7.2°C 0 mm 0 mm/h 0 km/h 1016.9 hPa 00:27 del 09/05/2021
Nardò LE 14.5°C 68% 8.7°C 0 mm 0 mm/h 0 km/h 1017.6 hPa 00:25 del 09/05/2021
Nardò LE 14.8°C 72% 9.8°C 0 mm 0 mm/h 9.7 km/h 1018.7 hPa 00:26 del 09/05/2021
Bitonto BA 13.7°C 69% 8.1°C 0 mm 0 mm/h 1.6 km/h 1020 hPa 00:27 del 09/05/2021
Fasano BR 13.1°C 71% 7.8°C 0 mm 0 mm/h 9.7 km/h 1015.6 hPa 00:27 del 09/05/2021
Corato BA 12.1°C 72% 7.2°C 0 mm 0 mm/h 3.1 km/h 1017.3 hPa 00:30 del 09/05/2021
Barletta BT 14.2°C 70% 8.9°C 0 mm 0 mm/h 9.7 km/h 1020.4 hPa 00:27 del 09/05/2021
Martina Franca TA 13.3°C 50% 2.8°C 0 mm 0 mm/h 16.1 km/h 1021 hPa 00:27 del 09/05/2021
Alliste LE 14.6°C 63% 7.7°C 0 mm 0 mm/h 0 km/h 1011 hPa 00:25 del 09/05/2021
Francavilla Fontana BR 16.1°C 54% 6.7°C 0 mm 0 mm/h 12.9 km/h 1018.3 hPa 00:26 del 09/05/2021
Francavilla Fontana BR 16.4°C 56% 7.6°C 0 mm 0 mm/h 6.4 km/h 1018.5 hPa 00:28 del 09/05/2021
Monopoli BA 16.6°C 61% 9°C 0 mm 0 mm/h 6.8 km/h 1022.6 hPa 00:26 del 09/05/2021
Bisceglie BT 15.2°C 69% 9.4°C 0 mm 0 mm/h 6.4 km/h 1020.3 hPa 00:27 del 09/05/2021
Gallipoli LE 15.7°C 67% 9.4°C 0 mm 0 mm/h 9.7 km/h 1021.2 hPa 00:27 del 09/05/2021
Sannicola LE 15.6°C 66% 9.3°C 0 mm 0 mm/h 10.6 km/h 1018.6 hPa 23:54 del 08/05/2021
Manfredonia FG 11.6°C 88% 9.6°C 0 mm 0 mm/h 4.8 km/h 1021 hPa 00:20 del 09/05/2021
Brindisi BR 13.9°C 78% 10.1°C 0 mm 0 mm/h 10.2 km/h 1012.2 hPa 00:25 del 09/05/2021
Ortelle LE 15.5°C 74% 10.9°C 0 mm 0 mm/h 11.5 km/h 1018 hPa 00:29 del 09/05/2021
Casamassima BA 13.9°C 68% 8°C 0 mm 0 mm/h 6.8 km/h 1020 hPa 00:30 del 09/05/2021
Giovinazzo BA 14.7°C 74% 10.1°C 0 mm 0 mm/h 0.7 km/h 1020.1 hPa 00:20 del 09/05/2021
Fasano BR 15.9°C 56% 7.1°C 0 mm 0 mm/h 5.4 km/h 1022.2 hPa 00:25 del 09/05/2021
Ortelle LE 15.4°C 75% 11°C 0 mm 0 mm/h 11.5 km/h 1009.9 hPa 00:29 del 09/05/2021
Trinitapoli BT 14.7°C 70% 9.2°C 0 mm 0 mm/h 13.2 km/h 1020 hPa 00:30 del 09/05/2021
Valenzano BA 12.4°C 77% 8.5°C 0 mm 0 mm/h 0 km/h 1020.9 hPa 00:27 del 09/05/2021
Crispiano TA 17.3°C 41% 3.9°C 0 mm 0 mm/h 4.3 km/h 998 hPa 00:29 del 09/05/2021
Cisternino BR 14°C 59% 6°C 0 mm 0 mm/h 9.7 km/h 1019 hPa 00:30 del 09/05/2021
Maruggio TA 17.5°C 55% 8.4°C 0 mm 0 mm/h 8.2 km/h 1006.8 hPa 00:30 del 09/05/2021
Altamura BA 10.1°C 83% 7.3°C 0 mm 0 mm/h 3.5 km/h 1021 hPa 00:30 del 09/05/2021
Squinzano LE 15.7°C 77% 11.7°C 0 mm 0 mm/h 10 km/h 1018 hPa 00:30 del 09/05/2021
Mottola TA 13.5°C 64% 6.7°C 0 mm 0 mm/h 22.5 km/h 1020.7 hPa 00:27 del 09/05/2021
Roseto Valfortore FG 10.7°C 82% 7.8°C 0 mm 0 mm/h 0 km/h 1023.6 hPa 00:30 del 09/05/2021
Cerignola FG 14.8°C 64% 7.9°C 0 mm 0 mm/h 6.4 km/h 1020.9 hPa 00:27 del 09/05/2021
Matino LE 15.6°C 68% 9.7°C 0 mm 0 mm/h 6.8 km/h 1015.9 hPa 00:30 del 09/05/2021
Rutigliano BA 14.3°C 69% 8.7°C 0 mm 0 mm/h 0.4 km/h 1020 hPa 00:25 del 09/05/2021
Altamura BA 12.3°C 67% 6.1°C 0 mm 0 mm/h 4.8 km/h 1020 hPa 00:27 del 09/05/2021
Spinazzola BT 12.1°C 83% 9.4°C 0 mm 0 mm/h 8 km/h 971.3 hPa 00:28 del 09/05/2021
Villanova Canavese TO 10.4°C 93% 9.3°C 0 mm 0 mm/h 0 km/h 1017.6 hPa 23:59 del 08/05/2021
Scopa VC 7.2°C 88% 5.3°C 0 mm 0 mm/h 0 km/h 1021.5 hPa 00:27 del 09/05/2021
Castagneto Po TO 13.9°C 61% 6.5°C 0 mm 0 mm/h 0 km/h 1018.2 hPa 00:20 del 09/05/2021
Vicolungo NO 13.9°C 76% 9.7°C 0 mm 0 mm/h 0 km/h 1019.5 hPa 00:25 del 09/05/2021
Pila VC 9.1°C 82% 6.2°C 0 mm 0 mm/h 0 km/h 1019.5 hPa 00:20 del 09/05/2021
Pecetto Torinese TO 14.4°C 68% 8.6°C 0 mm 0 mm/h 0 km/h 1019.3 hPa 00:20 del 09/05/2021
San Paolo Solbrito AT 14.2°C 3% -30.6°C 0 mm 0 mm/h 0 km/h 0 hPa 00:20 del 09/05/2021
Corio TO 11.8°C 72% 6.9°C 0 mm 0 mm/h 4.8 km/h 1019.8 hPa 00:20 del 09/05/2021
Salassa TO 13.7°C 70% 8.3°C 0 mm 0 mm/h 0 km/h 1018.7 hPa 00:29 del 09/05/2021
Trecate NO 16.5°C 74% 11.7°C 0 mm 0 mm/h 0 km/h 1018.8 hPa 00:15 del 09/05/2021
Nole TO 13.6°C 72% 8.6°C 0 mm 0 mm/h 3.2 km/h 1018.9 hPa 00:29 del 09/05/2021
Pecetto di Valenza AL 17.1°C 29% -1.1°C 0 mm 0 mm/h 6.5 km/h 1017.5 hPa 00:35 del 09/05/2021
Casale Monferrato AL 13.8°C 78% 10°C 0 mm 0 mm/h 0 km/h 1019.9 hPa 00:20 del 09/05/2021
Pietra Marazzi AL 14.2°C 82% 11.2°C 0 mm 0 mm/h 0 km/h 1019.1 hPa 00:20 del 09/05/2021
Novara NO 14.6°C 75% 10.2°C 0 mm 0 mm/h 0 km/h 1019.2 hPa 00:20 del 09/05/2021
Revello CN 14.9°C 72% 9.9°C 0 mm 0 mm/h 0 km/h 1015.3 hPa 00:26 del 09/05/2021
Mongrando BI 9.9°C 68% 4.3°C 0 mm 0 mm/h 0 km/h 0 hPa 00:20 del 09/05/2021
Pont-Canavese TO 12.1°C 74% 7.6°C 0 mm 0 mm/h 0 km/h 1019.6 hPa 23:50 del 08/05/2021
Netro BI 11.6°C 72% 6.7°C 0 mm 0 mm/h 0 km/h 1023.7 hPa 00:30 del 09/05/2021
Torino TO 16.7°C 63% 9.6°C 0 mm 0 mm/h 0 km/h 1020.1 hPa 00:26 del 09/05/2021
Piovà Massaia AT 14.2°C 71% 9°C 0 mm 0 mm/h 0 km/h 1019.1 hPa 00:27 del 09/05/2021
Soriso NO 12°C 78% 8.3°C 0 mm 0 mm/h 0 km/h 1020.1 hPa 00:20 del 09/05/2021
Parella TO 12.8°C 76% 8.7°C 0 mm 0 mm/h 0 km/h 1020.5 hPa 00:30 del 09/05/2021
Vigliano Biellese BI 11.3°C 76% 7.2°C 0 mm 0 mm/h 0 km/h 1019.2 hPa 00:27 del 09/05/2021
San Giacomo Vercellese VC 13.9°C 79% 10.6°C 0 mm 0 mm/h 1.6 km/h 1019.5 hPa 00:28 del 09/05/2021
Rivalta di Torino TO 15.7°C 70% 10°C 0 mm 0 mm/h 0 km/h 1019.8 hPa 00:27 del 09/05/2021
Candelo BI 13.1°C 69% 7.2°C 0 mm 0 mm/h 4.8 km/h 1020.3 hPa 00:27 del 09/05/2021
Borgomanero NO 12.3°C 82% 9.3°C 0 mm 0 mm/h 3.2 km/h 1019.6 hPa 00:20 del 09/05/2021
Arona NO 12.8°C 78% 8.9°C 0 mm 0 mm/h 0 km/h 1020 hPa 00:27 del 09/05/2021
Macugnaga VB 4.1°C 80% 1.1°C 0 mm 0 mm/h 8 km/h 1015.3 hPa 00:27 del 09/05/2021
Treiso CN 14.5°C 69% 8.9°C 0 mm 0 mm/h 0 km/h 1018.9 hPa 00:17 del 09/05/2021
Domodossola VB 13.4°C 66% 7.2°C 0 mm 0 mm/h 0 km/h 1017.2 hPa 00:28 del 09/05/2021
Garessio CN 12.1°C 87% 10°C 0 mm 0 mm/h 1.6 km/h 1021.5 hPa 00:28 del 09/05/2021
Pray BI 9.2°C 89% 7.5°C 0 mm 0 mm/h 0 km/h 1020.1 hPa 00:28 del 09/05/2021
Pozzolo Formigaro AL 11.9°C 90% 10.3°C 0 mm 0 mm/h 0 km/h 1020.6 hPa 00:25 del 09/05/2021
Predosa AL 13.1°C 78% 9.3°C 0 mm 0 mm/h 6.4 km/h 1019.8 hPa 00:27 del 09/05/2021
Galliate NO 16.8°C 62% 9.4°C 0 mm 0 mm/h 0 km/h 1024.7 hPa 23:54 del 08/05/2021
Villar Perosa TO 12.8°C 79% 9.4°C 0 mm 0 mm/h 0 km/h 1019.9 hPa 00:28 del 09/05/2021
Villar Perosa TO 12.8°C 77% 8.8°C 0 mm 0 mm/h 1.6 km/h 1021.8 hPa 00:15 del 09/05/2021
Rivalta di Torino TO 15.6°C 67% 9.5°C 0 mm 0 mm/h 2 km/h 1021.7 hPa 00:29 del 09/05/2021
Cerrione BI 11.4°C 66% 5.3°C 0 mm 0 mm/h 4.8 km/h 1019.9 hPa 23:50 del 08/05/2021
San Francesco al Campo TO 10.8°C 81% 7.6°C 0 mm 0 mm/h 0 km/h 1019.9 hPa 00:29 del 09/05/2021
Vignale Monferrato AL 16.1°C 67% 10°C 0 mm 0 mm/h 0 km/h 1010.5 hPa 00:30 del 09/05/2021
Cameri NO 13.6°C 75% 9.4°C 0 mm 0 mm/h 0 km/h 1018.9 hPa 00:27 del 09/05/2021
Stazzano AL 9.1°C 0% 0°C 0 mm 0 mm/h 0 km/h 1022.4 hPa 00:30 del 09/05/2021
Villamiroglio AL 14.4°C 66% 8.2°C 0 mm 0 mm/h 0 km/h 1021.4 hPa 00:27 del 09/05/2021
Cortandone AT 9.3°C 91% 7.9°C 0 mm 0 mm/h 0 km/h 1019.8 hPa 00:25 del 09/05/2021
Dormelletto NO 11.3°C 87% 9.2°C 0 mm 0 mm/h 0 km/h 1021.6 hPa 00:25 del 09/05/2021
Chiesanuova SM 11.7°C 85% 9.4°C 0 mm 0 mm/h 0 km/h 1019.9 hPa 00:27 del 09/05/2021
Belpasso CT 17°C 70% 11.5°C 0 mm 0 mm/h 5 km/h 1017.6 hPa 23:54 del 08/05/2021
Sant'Agata Li Battiati CT 17.1°C 59% 9°C 0 mm 0 mm/h 4.8 km/h 1013.4 hPa 23:59 del 08/05/2021
Partanna TP 14.8°C 69% 9.2°C 0 mm 0 mm/h 9.7 km/h 1016.5 hPa 00:25 del 09/05/2021
Carini PA 15°C 0% 0°C 0 mm 0 mm/h 5 km/h 1020 hPa 00:25 del 09/05/2021
Vittoria RG 18.7°C 54% 9.2°C 0 mm 0 mm/h 0 km/h 1018.3 hPa 00:20 del 09/05/2021
Palermo PA 17.6°C 72% 12.4°C 0 mm 0 mm/h 2.1 km/h 1020 hPa 23:52 del 08/05/2021
Barcellona Pozzo di Gotto ME 15.3°C 83% 12.4°C 0 mm 0 mm/h 0 km/h 1018.6 hPa 00:05 del 09/05/2021
Brolo ME 14.7°C 79% 11.1°C 0 mm 0 mm/h 6 km/h 1019.5 hPa 00:25 del 09/05/2021
Vittoria RG 15.2°C 78% 11.4°C 0 mm 0 mm/h 0 km/h 1018 hPa 00:25 del 09/05/2021
Palermo PA 17.3°C 83% 14.4°C 0 mm 0 mm/h 0 km/h 1019.9 hPa 00:20 del 09/05/2021
Capaci PA 17.8°C 82% 14.7°C 0 mm 0 mm/h 0 km/h 1020.7 hPa 23:50 del 08/05/2021
Palermo PA 13.6°C 82% 10.6°C 0 mm 0 mm/h 5 km/h 1019.4 hPa 00:20 del 09/05/2021
San Giovanni la Punta CT 14.7°C 74% 10.1°C 0 mm 0 mm/h 0 km/h 1019.1 hPa 00:25 del 09/05/2021
Nicolosi CT 12.4°C 64% 5.8°C 0 mm 0 mm/h 0 km/h 1018.3 hPa 00:25 del 09/05/2021
Marineo PA 13.7°C 75% 9.3°C 0 mm 0 mm/h 0 km/h 1018.3 hPa 00:27 del 09/05/2021
Sortino SR 14.6°C 83% 11.7°C 0 mm 0 mm/h 4.8 km/h 1020.9 hPa 00:29 del 09/05/2021
Palermo PA 16.9°C 81% 13.6°C 0 mm 0 mm/h 11.3 km/h 1016.5 hPa 00:28 del 09/05/2021
Mirabella Imbaccari CT 16.4°C 68% 10.5°C 0 mm 0 mm/h 1.9 km/h 1020 hPa 00:27 del 09/05/2021
Termini Imerese PA 16.2°C 71% 11°C 0 mm 0 mm/h 3.6 km/h 1019.4 hPa 00:30 del 09/05/2021
Pedara CT 13.3°C 64% 6.6°C 0 mm 0 mm/h 0 km/h 1016 hPa 00:16 del 09/05/2021
Catania CT 16.4°C 84% 13.7°C 0 mm 0 mm/h 0 km/h 1019.7 hPa 00:25 del 09/05/2021
Palermo PA 15.1°C 86% 12.8°C 0 mm 0 mm/h 0 km/h 1017.9 hPa 23:55 del 08/05/2021
Caltabellotta AG 16.4°C 49% 5.7°C 0 mm 0 mm/h 0 km/h 1017.4 hPa 00:20 del 09/05/2021
Bagheria PA 17.8°C 70% 12.3°C 0 mm 0 mm/h 4 km/h 1019.7 hPa 00:29 del 09/05/2021
Cammarata AG 13.3°C 50% 3.1°C 0 mm 0 mm/h 6.4 km/h 1019.8 hPa 00:29 del 09/05/2021
Barcellona Pozzo di Gotto ME 15.8°C 81% 12.6°C 0 mm 0 mm/h 1.6 km/h 1019.3 hPa 00:27 del 09/05/2021
Scicli RG 17°C 47% 5.6°C 0 mm 0 mm/h 0 km/h 1021 hPa 00:24 del 09/05/2021
Nicolosi CT 13.9°C 53% 4.5°C 0 mm 0 mm/h 1.1 km/h 1020.2 hPa 00:27 del 09/05/2021
Piraino ME 13.2°C 90% 11.6°C 0 mm 0 mm/h 2 km/h 1020.1 hPa 00:25 del 09/05/2021
Caltanissetta CL 16.4°C 59% 8.4°C 0 mm 0 mm/h 0 km/h 1016.1 hPa 00:25 del 09/05/2021
Pace del Mela ME 15.2°C 82% 12.2°C 0 mm 0 mm/h 3.6 km/h 1019.4 hPa 00:30 del 09/05/2021
San Cataldo CL 14.8°C 65% 8.3°C 0 mm 0 mm/h 0 km/h 1018.1 hPa 00:30 del 09/05/2021
Pedara CT 13.2°C 64% 6.5°C 0 mm 0 mm/h 0 km/h 1016 hPa 00:17 del 09/05/2021
Falcone ME 16.1°C 83% 13.2°C 0 mm 0 mm/h 0 km/h 1017.7 hPa 00:20 del 09/05/2021
Messina ME 16.2°C 86% 13.9°C 0 mm 0 mm/h 4.8 km/h 1021 hPa 23:54 del 08/05/2021
Grammichele CT 16.1°C 61% 8.6°C 0 mm 0 mm/h 0 km/h 1017.1 hPa 00:25 del 09/05/2021
Palermo PA 15.3°C 87% 13.1°C 0 mm 0 mm/h 0 km/h 1021 hPa 00:29 del 09/05/2021
Tripi ME 14.6°C 83% 11.7°C 0 mm 0 mm/h 3.2 km/h 1019.7 hPa 00:29 del 09/05/2021
Cinisi PA 17.5°C 83% 14.6°C 0 mm 0 mm/h 3.2 km/h 1019.6 hPa 23:54 del 08/05/2021
Terme Vigliatore ME 16.3°C 81% 13°C 0 mm 0 mm/h 3.2 km/h 1019.4 hPa 23:59 del 08/05/2021
Patti ME 14.7°C 85% 12.2°C 0 mm 0 mm/h 0 km/h 1018.2 hPa 00:27 del 09/05/2021
San Pier Niceto ME 13.2°C 91% 11.8°C 0 mm 0 mm/h 3.6 km/h 1015.2 hPa 00:29 del 09/05/2021
Acquedolci ME 16.3°C 73% 11.5°C 0 mm 0 mm/h 0 km/h 1017.9 hPa 00:20 del 09/05/2021
Oristano OR 14.6°C 84% 11.9°C 0 mm 0 mm/h 1.5 km/h 1018.1 hPa 00:30 del 09/05/2021
Iglesias CI 16.8°C 70% 11.3°C 0 mm 0 mm/h 1.4 km/h 1020.4 hPa 00:30 del 09/05/2021
Capoterra CA 13.8°C 73% 8.9°C 0 mm 0 mm/h 0 km/h 1019.3 hPa 00:27 del 09/05/2021
Bitti NU 11.9°C 71% 6.8°C 0 mm 0 mm/h 0 km/h 1013.9 hPa 00:29 del 09/05/2021
Cagliari CA 18.8°C 73% 13.9°C 0 mm 0 mm/h 0 km/h 1019.4 hPa 00:27 del 09/05/2021
Barumini VS 14°C 82% 11.1°C 0 mm 0 mm/h 0 km/h 1018.9 hPa 00:27 del 09/05/2021
Maracalagonis CA 15.9°C 71% 10.6°C 0 mm 0 mm/h 0 km/h 1018.9 hPa 00:27 del 09/05/2021
Cagliari CA 18.4°C 62% 11.1°C 0 mm 0 mm/h 0 km/h 1017.8 hPa 00:27 del 09/05/2021
Decimoputzu CA 10.7°C 85% 8.2°C 23.9 mm 0 mm/h 0 km/h 987.3 hPa 00:30 del 09/05/2021
Quartu Sant'Elena CA 18.7°C 71% 13.3°C 0 mm 0 mm/h 2.2 km/h 1018.6 hPa 00:25 del 09/05/2021
Valledoria SS 14.8°C 0% 11.2°C 0 mm 0 mm/h 0 km/h 1021.3 hPa 02:20
Carbonia CI 16.3°C 76% 12.1°C 0 mm 0 mm/h 0 km/h 1018 hPa 00:29 del 09/05/2021
Segariu VS 13.6°C 88% 11.6°C 0 mm 0 mm/h 0 km/h 1005.8 hPa 23:54 del 08/05/2021
Domus De Maria CA 18.7°C 58% 10.2°C 0 mm 0 mm/h 6.3 km/h 1018.1 hPa 00:25 del 09/05/2021
Aritzo NU 12.1°C 0% 6.1°C 0 mm 0 mm/h 4.8 km/h 1021.5 hPa 00:28 del 09/05/2021
Assemini CA 18°C 65% 11.1°C 0 mm 0 mm/h 4.8 km/h 1018.7 hPa 00:27 del 09/05/2021
Bolotana NU 15.8°C 43% 3.1°C 0 mm 0 mm/h 13.5 km/h 1021.3 hPa 00:27 del 09/05/2021
Ollon NU 15.3°C 53% 5.8°C 0 mm 0 mm/h 0 km/h 1012.9 hPa 00:00 del 09/05/2021
Leysin NU 11.9°C 46% 0.6°C 0 mm 0 mm/h 0 km/h 1013.4 hPa 00:00 del 09/05/2021
Orsières NU 9.7°C 47% -1.1°C 0 mm 0 mm/h 6.4 km/h 1018.7 hPa 00:00 del 09/05/2021
Villarzel NU 13.8°C 58% 5.7°C 0 mm 0 mm/h 0 km/h 1013.8 hPa 00:00 del 09/05/2021
Preonzo NU 10.6°C 77% 6.7°C 0 mm 0 mm/h 0 km/h 1020.1 hPa 00:26 del 09/05/2021
Giovo TN 9.7°C 75% 5.5°C 0 mm 0 mm/h 0 km/h 1021.7 hPa 00:27 del 09/05/2021
Trento TN 11.3°C 80% 8°C 0 mm 0 mm/h 0 km/h 1023 hPa 00:27 del 09/05/2021
Vattaro TN 9.8°C 72% 5°C 0 mm 0 mm/h 4.2 km/h 1021.1 hPa 00:29 del 09/05/2021
Trento TN 11.6°C 72% 6.7°C 0 mm 0 mm/h 0.7 km/h 1020.2 hPa 00:27 del 09/05/2021
Lavis TN 13.4°C 62% 6.1°C 0 mm 0 mm/h 4.8 km/h 1020.2 hPa 00:25 del 09/05/2021
Padergnone TN 11.1°C 79% 7.6°C 0 mm 0 mm/h 0 km/h 1020.6 hPa 00:25 del 09/05/2021
Ortisei BZ 1.9°C 73% -2.4°C 0 mm 0 mm/h 5.2 km/h 1029.5 hPa 23:54 del 08/05/2021
Trento TN 8.8°C 84% 6.2°C 0 mm 0 mm/h 0 km/h 1021 hPa 23:50 del 08/05/2021
Bolzano BZ 5.7°C 0% 1.7°C 0 mm 0 mm/h 0 km/h 1021.4 hPa 00:29 del 09/05/2021
Daiano TN 7.5°C 74% 3.2°C 0 mm 0 mm/h 0 km/h 1021.2 hPa 00:25 del 09/05/2021
Riva del Garda TN 14.4°C 63% 7.4°C 0 mm 0 mm/h 0 km/h 1019.6 hPa 23:50 del 08/05/2021
Ala TN 12.8°C 71% 7.7°C 0 mm 0 mm/h 4.6 km/h 1019.5 hPa 00:26 del 09/05/2021
Levico Terme TN 10.2°C 77% 6.3°C 0 mm 0 mm/h 0 km/h 1020.9 hPa 00:30 del 09/05/2021
Rovereto TN 12.8°C 69% 7.3°C 0 mm 0 mm/h 0 km/h 1016.9 hPa 00:29 del 09/05/2021
Avio TN 14.6°C 70% 9.2°C 0 mm 0 mm/h 0 km/h 1020.3 hPa 00:30 del 09/05/2021
Arco TN 12.2°C 76% 8.1°C 0 mm 0 mm/h 0 km/h 1020.6 hPa 00:29 del 09/05/2021
Trambileno TN 8.2°C 81% 5°C 0 mm 0 mm/h 1.6 km/h 1018.7 hPa 00:27 del 09/05/2021
Marebbe BZ 5.7°C 76% 1.7°C 0 mm 0 mm/h 0 km/h 1021.4 hPa 00:29 del 09/05/2021
Folgaria TN 6.4°C 84% 3.9°C 0 mm 0 mm/h 0 km/h 0 hPa 00:29 del 09/05/2021
Baselga di Pinè TN 6.8°C 78% 3.3°C 0 mm 0 mm/h 4.9 km/h 1021.2 hPa 00:29 del 09/05/2021
Andalo TN 7.1°C 81% 4.1°C 0 mm 0 mm/h 0 km/h 1019.9 hPa 00:29 del 09/05/2021
Terzolas TN 9.1°C 56% 0.7°C 0 mm 0 mm/h 0 km/h 937.7 hPa 00:27 del 09/05/2021
Besenello TN 12.6°C 65% 6.2°C 0 mm 0 mm/h 3.3 km/h 1020.2 hPa 00:27 del 09/05/2021
Trento TN 11.4°C 74% 6.9°C 0 mm 0 mm/h 0 km/h 1020.4 hPa 00:30 del 09/05/2021
Ala TN 12.3°C 0% 0°C 0 mm 0 mm/h 0 km/h 0 hPa 00:15 del 09/05/2021
Ala TN 9.9°C 0% 0°C 0 mm 0 mm/h 1.4 km/h 0 hPa 00:15 del 09/05/2021
Aldeno TN 12.4°C 0% 0°C 0 mm 0 mm/h 2.2 km/h 0 hPa 00:15 del 09/05/2021
Arco TN 12.5°C 0% 0°C 0.2 mm 0 mm/h 0 km/h 0 hPa 00:15 del 09/05/2021
Arco TN 11.8°C 0% 0°C 0 mm 0 mm/h 0 km/h 0 hPa 00:15 del 09/05/2021
Bezzecca TN 7.2°C 0% 0°C 0 mm 0 mm/h 0 km/h 0 hPa 00:15 del 09/05/2021
Bieno TN 9.2°C 0% 0°C 0 mm 0 mm/h 0 km/h 0 hPa 00:15 del 09/05/2021
Brentonico TN 11°C 0% 0°C 0 mm 0 mm/h 0 km/h 0 hPa 00:15 del 09/05/2021
Bresimo TN 2.3°C 0% 0°C 0 mm 0 mm/h 0 km/h 0 hPa 00:00 del 09/05/2021
Campitello di Fassa TN 1.8°C 0% 0°C 0 mm 0 mm/h 0 km/h 0 hPa 00:00 del 09/05/2021
Canal San Bovo TN 7.5°C 0% 0°C 0 mm 0 mm/h 0 km/h 0 hPa 00:15 del 09/05/2021
Canazei TN 3.7°C 0% 0°C 0 mm 0 mm/h 0 km/h 0 hPa 00:15 del 09/05/2021
Canal San Bovo TN 7.8°C 0% 0°C 0 mm 0 mm/h 4 km/h 0 hPa 00:15 del 09/05/2021
Capriana TN 7.1°C 0% 0°C 0 mm 0 mm/h 0 km/h 0 hPa 00:15 del 09/05/2021
Peio TN 0.8°C 0% 0°C 0 mm 0 mm/h 2.5 km/h 0 hPa 00:15 del 09/05/2021
Castelfondo TN 2.9°C 0% 0°C 0 mm 0 mm/h 0 km/h 0 hPa 00:00 del 09/05/2021
Castello Tesino TN 6.5°C 0% 0°C 0 mm 0 mm/h 1.8 km/h 0 hPa 00:15 del 09/05/2021
Cavalese TN 6.6°C 0% 0°C 0 mm 0 mm/h 3.6 km/h 0 hPa 00:15 del 09/05/2021
Cembra TN 10.4°C 0% 0°C 0 mm 0 mm/h 7.9 km/h 0 hPa 00:15 del 09/05/2021
Centa San Nicolò TN 10.2°C 0% 0°C 0 mm 0 mm/h 0 km/h 0 hPa 00:15 del 09/05/2021
Tesero TN 2.4°C 0% 0°C 0 mm 0 mm/h 0 km/h 0 hPa 00:15 del 09/05/2021
Fai della Paganella TN 2.2°C 0% 0°C 0 mm 0 mm/h 0 km/h 0 hPa 00:15 del 09/05/2021
Cles TN 9°C 0% 0°C 0 mm 0 mm/h 0 km/h 0 hPa 00:15 del 09/05/2021
Daone TN 2.6°C 0% 0°C 0 mm 0 mm/h 5.4 km/h 0 hPa 00:15 del 09/05/2021
Daone TN 5°C 0% 0°C 0 mm 0 mm/h 0 km/h 0 hPa 00:15 del 09/05/2021
Dro TN 10.7°C 0% 0°C 0 mm 0 mm/h 3.6 km/h 0 hPa 00:00 del 09/05/2021
Folgaria TN 7.4°C 0% 0°C 0 mm 0 mm/h 0 km/h 0 hPa 00:15 del 09/05/2021
Fondo TN 8.2°C 0% 0°C 0 mm 0 mm/h 0 km/h 0 hPa 00:15 del 09/05/2021
Giustino TN 8°C 0% 0°C 0 mm 0 mm/h 0 km/h 0 hPa 00:15 del 09/05/2021
Grigno TN 9°C 0% 0°C 0 mm 0 mm/h 0.7 km/h 0 hPa 00:15 del 09/05/2021
Grigno TN 2.2°C 0% 0°C 0 mm 0 mm/h 0 km/h 0 hPa 00:15 del 09/05/2021
Canal San Bovo TN 1.2°C 0% 0°C 0 mm 0 mm/h 0 km/h 0 hPa 00:00 del 09/05/2021
Lona-Lases TN 11.5°C 0% 0°C 0 mm 0 mm/h 0 km/h 0 hPa 00:15 del 09/05/2021
Lavarone TN 5°C 0% 0°C 0 mm 0 mm/h 0 km/h 0 hPa 00:15 del 09/05/2021
Levico Terme TN 11.1°C 0% 0°C 0 mm 0 mm/h 2.9 km/h 0 hPa 00:15 del 09/05/2021
Malè TN 7.7°C 0% 0°C 0 mm 0 mm/h 0.7 km/h 0 hPa 00:15 del 09/05/2021
Mezzana TN 6.4°C 0% 0°C 0 mm 0 mm/h 5 km/h 0 hPa 00:15 del 09/05/2021
Mezzano TN 6.9°C 0% 0°C 0 mm 0 mm/h 7.2 km/h 0 hPa 00:15 del 09/05/2021
Mezzolombardo TN 8.5°C 0% 0°C 0 mm 0 mm/h 0 km/h 0 hPa 00:15 del 09/05/2021
Moena TN 4.1°C 0% 0°C 0 mm 0 mm/h 0 km/h 0 hPa 00:15 del 09/05/2021
Molveno TN 7°C 0% 0°C 0 mm 0 mm/h 0 km/h 0 hPa 00:15 del 09/05/2021
Montagne TN 8.6°C 0% 0°C 0 mm 0 mm/h 0 km/h 0 hPa 00:15 del 09/05/2021
Trento TN 5.1°C 0% 0°C 0 mm 0 mm/h 4.7 km/h 0 hPa 00:15 del 09/05/2021
Ragoli TN 1.6°C 0% 0°C 0 mm 0 mm/h 0 km/h 0 hPa 00:15 del 09/05/2021
Palù del Fersina TN 3.8°C 0% 0°C 0 mm 0 mm/h 0 km/h 0 hPa 00:00 del 09/05/2021
Mori TN 10.8°C 0% 0°C 0 mm 0 mm/h 0 km/h 0 hPa 00:15 del 09/05/2021
Castello Tesino TN 3.6°C 0% 0°C 0 mm 0 mm/h 1.8 km/h 0 hPa 00:15 del 09/05/2021
Tonadico TN 4.5°C 0% 0°C 0 mm 0 mm/h 0 km/h 0 hPa 00:15 del 09/05/2021
Vigo di Fassa TN 2.2°C 0% 0°C 0 mm 0 mm/h 0 km/h 0 hPa 00:15 del 09/05/2021
Telve TN 2.5°C 0% 0°C 0 mm 0 mm/h 0 km/h 0 hPa 00:00 del 09/05/2021
Ruffrè-Mendola TN 5.7°C 0% 0°C 0 mm 0 mm/h 0 km/h 0 hPa 00:15 del 09/05/2021
Vallarsa TN 5.2°C 0% 0°C 0 mm 0 mm/h 7.6 km/h 0 hPa 00:15 del 09/05/2021
Siror TN 2.4°C 0% 0°C 0 mm 0 mm/h 3.2 km/h 0 hPa 00:15 del 09/05/2021
Folgaria TN 5.6°C 0% 0°C 0 mm 0 mm/h 3.2 km/h 0 hPa 00:15 del 09/05/2021
Vermiglio TN 2.1°C 0% 0°C 0 mm 0 mm/h 6.5 km/h 0 hPa 00:15 del 09/05/2021
Peio TN 5.2°C 0% 0°C 0 mm 0 mm/h 1.4 km/h 0 hPa 00:15 del 09/05/2021
Pergine Valsugana TN 10.2°C 0% 0°C 0 mm 0 mm/h 0 km/h 0 hPa 00:15 del 09/05/2021
Canazei TN 2°C 0% 0°C 0 mm 0 mm/h 0 km/h 0 hPa 00:15 del 09/05/2021
Peio TN 2.1°C 0% 0°C 0 mm 0 mm/h 0 km/h 0 hPa 00:15 del 09/05/2021
Pieve di Bono TN 8.8°C 0% 0°C 0 mm 0 mm/h 0 km/h 0 hPa 00:15 del 09/05/2021
Pieve Tesino TN 3.3°C 0% 0°C 0 mm 0 mm/h 0 km/h 0 hPa 00:15 del 09/05/2021
Pinzolo TN 7.4°C 0% 0°C 0 mm 0 mm/h 2.5 km/h 0 hPa 00:15 del 09/05/2021
Pinzolo TN 1.6°C 0% 0°C 0 mm 0 mm/h 0 km/h 0 hPa 00:15 del 09/05/2021
Pinzolo TN 2.1°C 0% 0°C 0 mm 0 mm/h 0 km/h 0 hPa 00:15 del 09/05/2021
Predazzo TN 6.5°C 0% 0°C 0 mm 0 mm/h 0 km/h 0 hPa 00:15 del 09/05/2021
Rabbi TN 6.8°C 0% 0°C 0 mm 0 mm/h 0.7 km/h 0 hPa 00:15 del 09/05/2021
Romeno TN 7.2°C 0% 0°C 0 mm 0 mm/h 0 km/h 0 hPa 00:15 del 09/05/2021
Ronchi Valsugana TN 3.6°C 0% 0°C 0 mm 0 mm/h 0 km/h 0 hPa 00:00 del 09/05/2021
Rovereto TN 13.8°C 0% 0°C 0 mm 0 mm/h 6.1 km/h 0 hPa 00:15 del 09/05/2021
Rovereto TN 4°C 0% 0°C 0 mm 0 mm/h 7.2 km/h 0 hPa 00:00 del 09/05/2021
Rumo TN 6°C 0% 0°C 0 mm 0 mm/h 5.4 km/h 0 hPa 00:15 del 09/05/2021
San Lorenzo in Banale TN 10.1°C 0% 0°C 0 mm 0 mm/h 3.6 km/h 0 hPa 00:15 del 09/05/2021
San Martino di Castrozza TN 1.9°C 0% 0°C 0 mm 0 mm/h 0 km/h 0 hPa 00:15 del 09/05/2021
Padergnone TN 9.9°C 0% 0°C 0 mm 0 mm/h 0 km/h 0 hPa 00:15 del 09/05/2021
Sant'Orsola Terme TN 8.3°C 0% 0°C 0 mm 0 mm/h 0 km/h 0 hPa 00:15 del 09/05/2021
Spormaggiore TN 11.3°C 0% 0°C 0 mm 0 mm/h 0 km/h 0 hPa 00:15 del 09/05/2021
Storo TN 11.5°C 0% 0°C 0 mm 0 mm/h 0 km/h 0 hPa 00:15 del 09/05/2021
Telve TN 10.3°C 0% 0°C 0 mm 0 mm/h 0 km/h 0 hPa 00:15 del 09/05/2021
Telve TN 6.5°C 0% 0°C 0 mm 0 mm/h 0 km/h 0 hPa 00:15 del 09/05/2021
Tenno TN 11.4°C 0% 0°C 0 mm 0 mm/h 0 km/h 0 hPa 00:15 del 09/05/2021
Tione di Trento TN 8.4°C 0% 0°C 0 mm 0 mm/h 1.4 km/h 0 hPa 00:15 del 09/05/2021
Tonadico TN 5.3°C 0% 0°C 0 mm 0 mm/h 0 km/h 0 hPa 00:15 del 09/05/2021
Nago-Torbole TN 13.9°C 0% 0°C 0 mm 0 mm/h 6.5 km/h 0 hPa 00:15 del 09/05/2021
Tiarno di Sopra TN 3°C 0% 0°C 0 mm 0 mm/h 2.5 km/h 0 hPa 00:15 del 09/05/2021
Trento TN 10.5°C 0% 0°C 0 mm 0 mm/h 0 km/h 0 hPa 00:15 del 09/05/2021
Trento TN 13.1°C 0% 0°C 0 mm 0 mm/h 15.8 km/h 0 hPa 00:15 del 09/05/2021
Trento TN 13.5°C 0% 0°C 0 mm 0 mm/h 0 km/h 0 hPa 00:15 del 09/05/2021
Trento TN 11.7°C 0% 0°C 0 mm 0 mm/h 2.2 km/h 0 hPa 00:15 del 09/05/2021
Tres TN 6.4°C 0% 0°C 0 mm 0 mm/h 0 km/h 0 hPa 00:15 del 09/05/2021
San Lorenzo in Banale TN 2.4°C 0% 0°C 0 mm 0 mm/h 0 km/h 0 hPa 00:00 del 09/05/2021
Breguzzo TN 4.1°C 0% 0°C 0 mm 0 mm/h 0 km/h 0 hPa 00:15 del 09/05/2021
Carisolo TN 1.3°C 0% 0°C 0 mm 0 mm/h 2.2 km/h 0 hPa 00:00 del 09/05/2021
Mezzano TN 5.5°C 0% 0°C 0 mm 0 mm/h 0 km/h 0 hPa 00:15 del 09/05/2021
Borgo Valsugana TN 5.4°C 0% 0°C 0 mm 0 mm/h 0 km/h 0 hPa 00:15 del 09/05/2021
Vallarsa TN 7.7°C 0% 0°C 0 mm 0 mm/h 0 km/h 0 hPa 00:15 del 09/05/2021
Vermiglio TN 3.9°C 0% 0°C 0 mm 0 mm/h 0 km/h 0 hPa 00:15 del 09/05/2021
Vermiglio TN 1.7°C 0% 0°C 0 mm 0 mm/h 0 km/h 0 hPa 00:00 del 09/05/2021
Vigo di Fassa TN 1°C 0% 0°C 0 mm 0 mm/h 0 km/h 0 hPa 00:00 del 09/05/2021
Villa Rendena TN 4.6°C 0% 0°C 0 mm 0 mm/h 0 km/h 0 hPa 00:00 del 09/05/2021
Zambana TN 13.3°C 0% 0°C 0 mm 0 mm/h 0 km/h 0 hPa 00:15 del 09/05/2021
Ziano di Fiemme TN 2.8°C 0% 0°C 0 mm 0 mm/h 0 km/h 0 hPa 00:15 del 09/05/2021
Zuclo TN 3.4°C 0% 0°C 0 mm 0 mm/h 0 km/h 0 hPa 00:00 del 09/05/2021
Borgo Valsugana TN 11.2°C 60% 3°C 0 mm 0 mm/h 4 km/h 1020 hPa 00:27 del 09/05/2021
Trento TN 14.1°C 60% 6.5°C 0 mm 0 mm/h 0 km/h 1019.4 hPa 00:29 del 09/05/2021
Fiavè TN 8.1°C 81% 5°C 0 mm 0 mm/h 2.4 km/h 1020.2 hPa 00:28 del 09/05/2021
Calliano TN 12.8°C 64% 6.2°C 0 mm 0 mm/h 8 km/h 1019.4 hPa 00:29 del 09/05/2021
Siror TN 7°C 83% 4.4°C 0 mm 0 mm/h 0 km/h 1022.4 hPa 00:27 del 09/05/2021
Bleggio Superiore TN 9°C 74% 4.6°C 0 mm 0 mm/h 1.4 km/h 1021.5 hPa 00:28 del 09/05/2021
Isera TN 11.7°C 71% 6.6°C 0 mm 0 mm/h 3.1 km/h 1018.6 hPa 00:30 del 09/05/2021
Fiavè TN 3.6°C 90% 2.1°C 0 mm 0 mm/h 0.1 km/h 1021.4 hPa 00:28 del 09/05/2021
Pergine Valsugana TN 10.7°C 71% 5.6°C 0 mm 0 mm/h 0 km/h 1021.7 hPa 00:27 del 09/05/2021
Bleggio Inferiore TN 4.8°C 88% 3°C 0 mm 0 mm/h 1.1 km/h 1024.8 hPa 00:30 del 09/05/2021
Bressanone BZ 11.3°C 63% 4.4°C 0 mm 0 mm/h 0 km/h 1019.8 hPa 00:27 del 09/05/2021
Cavedine TN 8.8°C 85% 6.7°C 0 mm 0 mm/h 4.8 km/h 1021.6 hPa 00:27 del 09/05/2021
Baselga di Pinè TN 3.1°C 83% 0.5°C 0 mm 0 mm/h 2.6 km/h 1022.4 hPa 00:29 del 09/05/2021
Badia BZ 4.1°C 80% 0.9°C 0 mm 0 mm/h 0 km/h 1023.1 hPa 00:29 del 09/05/2021
Ospedaletto TN 10.6°C 70% 5.4°C 0 mm 0 mm/h 4.7 km/h 979.3 hPa 00:30 del 09/05/2021
Valle di Casies BZ 2.6°C 71% 0°C 0 mm 0 mm/h 7.2 km/h 0 hPa 00:10 del 09/05/2021
Barbiano BZ 2.4°C 88% 0°C 0 mm 0 mm/h 14.4 km/h 0 hPa 00:10 del 09/05/2021
Valle di Casies BZ -1.2°C 85% 0°C 0 mm 0 mm/h 3.2 km/h 0 hPa 00:10 del 09/05/2021
Curon Venosta BZ 1.1°C 67% 0°C 0 mm 0 mm/h 10.4 km/h 0 hPa 00:10 del 09/05/2021
Curon Venosta BZ 0.6°C 75% 0°C 0 mm 0 mm/h 0 km/h 0 hPa 00:00 del 09/05/2021
Stelvio BZ -1.6°C 0% 0°C 0 mm 0 mm/h 30.6 km/h 0 hPa 00:10 del 09/05/2021
Stelvio BZ 1.5°C 71% 0°C 0 mm 0 mm/h 6.8 km/h 0 hPa 00:10 del 09/05/2021
San Leonardo in Passiria BZ 1.6°C 99% 0°C 0 mm 0 mm/h 21.2 km/h 0 hPa 00:10 del 09/05/2021
Predoi BZ -3°C 0% 0°C 0 mm 0 mm/h 14.4 km/h 0 hPa 00:10 del 09/05/2021
Predoi BZ 2.6°C 69% 0°C 0 mm 0 mm/h 0.7 km/h 0 hPa 00:10 del 09/05/2021
Badia BZ 4°C 66% 0°C 0 mm 0 mm/h 2.2 km/h 0 hPa 00:10 del 09/05/2021
Corvara in Badia BZ 0.8°C 60% 0°C 0 mm 0 mm/h 27 km/h 0 hPa 00:10 del 09/05/2021
Moso in Passiria BZ 0.8°C 64% 0°C 0 mm 0 mm/h 6.5 km/h 0 hPa 00:10 del 09/05/2021
Moso in Passiria BZ 2.3°C 75% 0°C 0 mm 0 mm/h 5.8 km/h 0 hPa 00:10 del 09/05/2021
San Candido BZ -2.2°C 100% 0°C 0 mm 0 mm/h 1.1 km/h 0 hPa 00:10 del 09/05/2021
Sesto BZ 3.9°C 72% 0°C 0 mm 0 mm/h 0.4 km/h 0 hPa 00:10 del 09/05/2021
Ultimo BZ 2.3°C 67% 0°C 0 mm 0 mm/h 10.1 km/h 0 hPa 00:00 del 09/05/2021
Nova Ponente BZ 3.2°C 72% 0°C 0 mm 0 mm/h 0.4 km/h 0 hPa 00:10 del 09/05/2021
Senales BZ -1.5°C 84% 0°C 0 mm 0 mm/h 0 km/h 0 hPa 00:10 del 09/05/2021
Racines BZ 0.1°C 83% 0°C 0 mm 0 mm/h 28.8 km/h 0 hPa 00:10 del 09/05/2021
Brennero BZ 4.2°C 66% 0°C 0 mm 0 mm/h 2.5 km/h 0 hPa 00:10 del 09/05/2021
Vandoies BZ -0.7°C 79% 0°C 0 mm 0 mm/h 6.8 km/h 0 hPa 00:10 del 09/05/2021
Vandoies BZ 3.6°C 70% 0°C 0 mm 0 mm/h 1.8 km/h 0 hPa 00:10 del 09/05/2021
Sarentino BZ 0.6°C 85% 0°C 0 mm 0 mm/h 1.1 km/h 0 hPa 00:10 del 09/05/2021
Lauregno BZ 2.8°C 76% 0°C 0 mm 0 mm/h 0.7 km/h 0 hPa 00:10 del 09/05/2021
Senales BZ 0°C 0% 0°C 0 mm 0 mm/h 15.5 km/h 0 hPa 00:10 del 09/05/2021
Vipiteno BZ 6°C 80% 0°C 0 mm 0 mm/h 1.4 km/h 0 hPa 00:10 del 09/05/2021
Moso in Passiria BZ 1.8°C 94% 0°C 0 mm 0 mm/h 5 km/h 1023.9 hPa 00:10 del 09/05/2021
Naturno BZ 8.1°C 84% 0°C 0 mm 0 mm/h 1.1 km/h 1022.1 hPa 00:10 del 09/05/2021
Sarentino BZ 1°C 99% 0°C 0 mm 0 mm/h 0 km/h 1025.6 hPa 00:10 del 09/05/2021
Predoi BZ 3.5°C 82% 0°C 0 mm 0 mm/h 3.6 km/h 1022.4 hPa 00:10 del 09/05/2021
Racines BZ 5.4°C 77% 0°C 0 mm 0 mm/h 0 km/h 1024.6 hPa 00:10 del 09/05/2021
Campo Tures BZ 9.2°C 63% 0°C 0 mm 0 mm/h 5.4 km/h 1018.1 hPa 00:10 del 09/05/2021
Campo Tures BZ 3°C 83% 0°C 0 mm 0 mm/h 1.4 km/h 1022.6 hPa 00:10 del 09/05/2021
Bressanone BZ 0.7°C 84% 0°C 0 mm 0 mm/h 25.2 km/h 0 hPa 00:10 del 09/05/2021
Silandro BZ 8.8°C 72% 0°C 0 mm 0 mm/h 7.9 km/h 1020.2 hPa 00:10 del 09/05/2021
Sarentino BZ 6.6°C 79% 0°C 0 mm 0 mm/h 2.9 km/h 1022.4 hPa 00:10 del 09/05/2021
Salorno BZ 12.8°C 63% 0°C 0 mm 0 mm/h 2.5 km/h 1021.1 hPa 00:10 del 09/05/2021
Brunico BZ 8.9°C 71% 0°C 0 mm 0 mm/h 1.1 km/h 1021 hPa 00:10 del 09/05/2021
Nova Ponente BZ 7°C 70% 0°C 0 mm 0 mm/h 6.8 km/h 1020.2 hPa 00:10 del 09/05/2021
Bolzano BZ 14.4°C 51% 0°C 0 mm 0 mm/h 10.4 km/h 1020.4 hPa 00:10 del 09/05/2021
Ora BZ 16.4°C 47% 0°C 0 mm 0 mm/h 0 km/h 1019.6 hPa 00:10 del 09/05/2021
Varna BZ 10.3°C 66% 0°C 0 mm 0 mm/h 2.2 km/h 1020 hPa 00:10 del 09/05/2021
Lasa BZ 5.3°C 92% 0°C 0 mm 0 mm/h 1.8 km/h 1022.7 hPa 00:10 del 09/05/2021
Lagundo BZ 10.8°C 73% 0°C 0 mm 0 mm/h 4.3 km/h 1020.6 hPa 00:10 del 09/05/2021
Rasun Anterselva BZ 5.1°C 76% 0°C 0 mm 0 mm/h 8.6 km/h 1019.5 hPa 00:10 del 09/05/2021
Vadena BZ 14.9°C 60% 0°C 0 mm 0 mm/h 4 km/h 1020.7 hPa 00:10 del 09/05/2021
Fortezza BZ 7.9°C 87% 0°C 0 mm 0 mm/h 2.2 km/h 1019.8 hPa 00:10 del 09/05/2021
Barbiano BZ 10.3°C 72% 0°C 0 mm 0 mm/h 1.1 km/h 1019.9 hPa 00:10 del 09/05/2021
Caldaro sulla Strada del Vino BZ 10.6°C 67% 0°C 0 mm 0 mm/h 4.7 km/h 1020.8 hPa 00:10 del 09/05/2021
San Martino in Passiria BZ 7.9°C 91% 0°C 0 mm 0 mm/h 3.6 km/h 1021.4 hPa 00:10 del 09/05/2021
Ultimo BZ 6.2°C 76% 0°C 0 mm 0 mm/h 10.4 km/h 1022.5 hPa 00:10 del 09/05/2021
Selva di Val Gardena BZ 2.8°C 80% 0°C 0 mm 0 mm/h 0 km/h 1023.4 hPa 00:10 del 09/05/2021
Rio di Pusteria BZ 4.9°C 75% 0°C 0 mm 0 mm/h 1.1 km/h 1021.8 hPa 00:10 del 09/05/2021
Curon Venosta BZ 6°C 66% 0°C 0 mm 0 mm/h 9 km/h 1020.4 hPa 00:10 del 09/05/2021
Tubre BZ 6.3°C 65% 0°C 0 mm 0 mm/h 7.9 km/h 1021.3 hPa 00:10 del 09/05/2021
Dobbiaco BZ 5.3°C 84% 0°C 0 mm 0 mm/h 4.3 km/h 1022.8 hPa 00:10 del 09/05/2021
Fiè allo Sciliar BZ 10.2°C 61% 0°C 0 mm 0 mm/h 2.5 km/h 1018.9 hPa 00:10 del 09/05/2021
San Martino in Badia BZ 5.4°C 81% 0°C 0 mm 0 mm/h 0.4 km/h 1021.6 hPa 00:10 del 09/05/2021
Castelrotto BZ 2.3°C 81% 0°C 0 mm 0 mm/h 4 km/h 0 hPa 00:10 del 09/05/2021
Martello BZ 3°C 75% 0°C 0 mm 0 mm/h 6.5 km/h 1024.8 hPa 00:10 del 09/05/2021
Malles Venosta BZ 7.8°C 58% 0°C 0 mm 0 mm/h 0 km/h 1019.5 hPa 00:10 del 09/05/2021
Val di Vizze BZ 1.3°C 94% 0°C 0 mm 0 mm/h 1.1 km/h 1024.5 hPa 00:10 del 09/05/2021
Valle di Casies BZ 4.3°C 79% 0°C 0 mm 0 mm/h 10.8 km/h 1026.5 hPa 00:10 del 09/05/2021
Stelvio BZ 2°C 79% 0°C 0 mm 0 mm/h 0 km/h 1021 hPa 00:10 del 09/05/2021
Terento BZ 7.6°C 65% 0°C 0 mm 0 mm/h 12.2 km/h 1020.7 hPa 00:10 del 09/05/2021
Ultimo BZ 2.9°C 80% 0°C 0 mm 0 mm/h 0 km/h 1021.1 hPa 00:10 del 09/05/2021
Monguelfo BZ 4.9°C 84% 0°C 0 mm 0 mm/h 4.7 km/h 1019.7 hPa 00:10 del 09/05/2021
Nova Levante BZ 6.2°C 78% 0°C 0 mm 0 mm/h 0 km/h 1018.5 hPa 00:10 del 09/05/2021
Selva dei Molini BZ 5.7°C 87% 0°C 0 mm 0 mm/h 0 km/h 1021.7 hPa 00:10 del 09/05/2021
Braies BZ 2.5°C 87% 0°C 0 mm 0 mm/h 0 km/h 1026.5 hPa 00:10 del 09/05/2021
Senales BZ 3.9°C 76% 0°C 0 mm 0 mm/h 0 km/h 1022.6 hPa 00:10 del 09/05/2021
Vandoies BZ 9°C 76% 0°C 0 mm 0 mm/h 1.4 km/h 1019.4 hPa 00:10 del 09/05/2021
Curon Venosta BZ 3.5°C 52% 0°C 0 mm 0 mm/h 1.1 km/h 0 hPa 00:10 del 09/05/2021
Moso in Passiria BZ 0.8°C 73% 0°C 0 mm 0 mm/h 10.4 km/h 0 hPa 00:10 del 09/05/2021
San Genesio Atesino BZ 7.5°C 76% 0°C 0 mm 0 mm/h 2.9 km/h 1022.5 hPa 00:10 del 09/05/2021
Racines BZ 2.8°C 82% 0°C 0 mm 0 mm/h 18.4 km/h 0 hPa 00:10 del 09/05/2021
Ultimo BZ -0.3°C 90% 0°C 0 mm 0 mm/h 0 km/h 0 hPa 23:50 del 08/05/2021
Valle Aurina BZ 1.3°C 61% 0°C 0 mm 0 mm/h 9 km/h 0 hPa 00:10 del 09/05/2021
Braies BZ 2.1°C 73% 0°C 0 mm 0 mm/h 2.5 km/h 0 hPa 00:10 del 09/05/2021
Gargazzone BZ 9.4°C 93% 0°C 0 mm 0 mm/h 4.7 km/h 1021.4 hPa 00:10 del 09/05/2021
Bronzolo BZ 12.3°C 73% 0°C 0 mm 0 mm/h 3.6 km/h 1020.1 hPa 00:10 del 09/05/2021
Vezzano TN 10.7°C 76% 6.6°C 0 mm 0 mm/h 0 km/h 1018.3 hPa 00:29 del 09/05/2021
Bleggio Inferiore TN 7.4°C 88% 5.5°C 0 mm 0 mm/h 0 km/h 1021.3 hPa 00:29 del 09/05/2021
Ala TN 3.3°C 100% 3.3°C 0 mm 0 mm/h 6.8 km/h 1024.7 hPa 00:29 del 09/05/2021
Rovereto TN 12.9°C 68% 7.1°C 0 mm 0 mm/h 0 km/h 1028.4 hPa 00:29 del 09/05/2021
Vezzano TN 8°C 81% 5°C 0 mm 0 mm/h 1.7 km/h 1022 hPa 00:25 del 09/05/2021
Pisa PI 15.7°C 82% 12.6°C 0 mm 0 mm/h 0 km/h 1018.9 hPa 00:15 del 09/05/2021
Castelnuovo di Val di Cecina PI 9.8°C 91% 8.3°C 0 mm 0 mm/h 3.2 km/h 1019.9 hPa 00:27 del 09/05/2021
Prato PO 14.6°C 73% 10°C 0 mm 0 mm/h 0 km/h 1019.8 hPa 00:27 del 09/05/2021
Rosignano Marittimo LI 15.4°C 70% 9.9°C 0 mm 0 mm/h 3.2 km/h 1018.7 hPa 00:20 del 09/05/2021
Firenze FI 15.8°C 74% 11.2°C 0 mm 0 mm/h 0 km/h 1020.6 hPa 00:15 del 09/05/2021
Rignano sull'Arno FI 13.3°C 85% 10.8°C 0 mm 0 mm/h 1.6 km/h 1018.1 hPa 00:20 del 09/05/2021
Ponsacco PI 13.1°C 82% 10.1°C 0 mm 0 mm/h 9.7 km/h 1018 hPa 00:20 del 09/05/2021
Carmignano PO 13.3°C 80% 9.9°C 0 mm 0 mm/h 1.8 km/h 1020.2 hPa 00:30 del 09/05/2021
Arezzo AR 13.8°C 84% 11.1°C 0 mm 0 mm/h 0 km/h 1020.5 hPa 00:27 del 09/05/2021
Loro Ciuffenna AR 13.8°C 77% 10°C 0 mm 0 mm/h 11.3 km/h 1017.6 hPa 00:36 del 09/05/2021
Pisa PI 16.5°C 79% 12.8°C 0 mm 0 mm/h 0 km/h 1020.2 hPa 00:29 del 09/05/2021
Pisa PI 16.5°C 79% 12.8°C 0 mm 0 mm/h 0 km/h 1020.2 hPa 00:29 del 09/05/2021
Pescia PT 15.1°C 71% 9.9°C 0 mm 0 mm/h 8 km/h 1018.4 hPa 00:25 del 09/05/2021
Carmignano PO 14°C 77% 10°C 0 mm 0 mm/h 1.9 km/h 1019.3 hPa 00:25 del 09/05/2021
Viareggio LU 13.8°C 84% 11.1°C 0 mm 0 mm/h 1.6 km/h 1018.6 hPa 00:27 del 09/05/2021
Cavriglia AR 11.6°C 68% 5.8°C 0 mm 0 mm/h 0 km/h 1017.9 hPa 23:54 del 08/05/2021
Chiusi SI 15.4°C 76% 11.2°C 0 mm 0 mm/h 3.2 km/h 1019.5 hPa 00:26 del 09/05/2021
Campi Bisenzio FI 16.3°C 70% 10.9°C 0 mm 0 mm/h 0 km/h 1017.3 hPa 23:52 del 08/05/2021
Cascina PI 14.6°C 77% 10.6°C 0 mm 0 mm/h 2 km/h 1018.2 hPa 00:29 del 09/05/2021
Vicchio FI 12.3°C 90% 10.7°C 0 mm 0 mm/h 0 km/h 1019.8 hPa 00:20 del 09/05/2021
Torrita di Siena SI 12.7°C 83% 9.9°C 0 mm 0 mm/h 0 km/h 1020.2 hPa 00:30 del 09/05/2021
Foiano della Chiana AR 14.9°C 74% 10.3°C 0 mm 0 mm/h 0 km/h 1018.7 hPa 00:27 del 09/05/2021
Pontassieve FI 11.7°C 92% 10.5°C 0 mm 0 mm/h 0 km/h 1018.4 hPa 00:24 del 09/05/2021
Arezzo AR 14.4°C 80% 11°C 0 mm 0 mm/h 3 km/h 1019.3 hPa 00:26 del 09/05/2021
Vaiano PO 12.7°C 86% 10.4°C 0 mm 0 mm/h 0 km/h 1018.1 hPa 00:29 del 09/05/2021
Castiglione della Pescaia GR 14.5°C 74% 9.9°C 0 mm 0 mm/h 3.2 km/h 1015.2 hPa 00:30 del 09/05/2021
Arezzo AR 14.3°C 83% 11.4°C 0 mm 0 mm/h 0 km/h 1019.5 hPa 00:20 del 09/05/2021
San Marcello Pistoiese PT 7.5°C 96% 7.2°C 0 mm 0 mm/h 0 km/h 1020.2 hPa 00:27 del 09/05/2021
Bagno a Ripoli FI 16.3°C 67% 10°C 0 mm 0 mm/h 1.6 km/h 1020.9 hPa 00:27 del 09/05/2021
Foiano della Chiana AR 15.6°C 76% 11.1°C 0 mm 0 mm/h 0 km/h 1017.3 hPa 01:27 del 09/05/2021
Chiusi SI 12.2°C 90% 10.6°C 0 mm 0 mm/h 1.6 km/h 1019.4 hPa 00:27 del 09/05/2021
Calci PI 13.7°C 78% 9.9°C 0 mm 0 mm/h 1.6 km/h 1019.8 hPa 00:29 del 09/05/2021
Sarteano SI 13.1°C 78% 9.4°C 0 mm 0 mm/h 0 km/h 1020.8 hPa 00:27 del 09/05/2021
Collesalvetti LI 14°C 79% 10.4°C 0 mm 0 mm/h 3.6 km/h 1016.7 hPa 00:29 del 09/05/2021
Fauglia PI 12.6°C 89% 11.1°C 0 mm 0 mm/h 0 km/h 1017.6 hPa 00:45 del 09/05/2021
Montepulciano SI 14.4°C 83% 11.7°C 0 mm 0 mm/h 0 km/h 0 hPa 00:27 del 09/05/2021
Montecatini-Terme PT 15.1°C 77% 11.1°C 0 mm 0 mm/h 0 km/h 1020.1 hPa 00:29 del 09/05/2021
Reggello FI 13.2°C 84% 10.6°C 0 mm 0 mm/h 0 km/h 1014.2 hPa 00:27 del 09/05/2021
Vaiano PO 12.1°C 91% 10.6°C 0 mm 0 mm/h 6.4 km/h 1021.2 hPa 00:29 del 09/05/2021
Campi Bisenzio FI 13.1°C 79% 9.5°C 0 mm 0 mm/h 0 km/h 1019.1 hPa 00:27 del 09/05/2021
San Giuliano Terme PI 14.3°C 82% 11.1°C 0 mm 0 mm/h 0 km/h 1017.9 hPa 00:27 del 09/05/2021
Vernio PO 11.3°C 78% 7.6°C 0 mm 0 mm/h 1.6 km/h 1021.4 hPa 00:29 del 09/05/2021
Montepulciano SI 16.4°C 73% 11.5°C 0 mm 0 mm/h 0 km/h 1019.1 hPa 00:29 del 09/05/2021
San Giuliano Terme PI 13.7°C 88% 11.8°C 0 mm 0 mm/h 0 km/h 1018.6 hPa 00:25 del 09/05/2021
Montepulciano SI 15.6°C 0% 11.6°C 0 mm 0 mm/h 0 km/h 0 hPa 00:27 del 09/05/2021
Capannori LU 11.4°C 85% 9°C 0 mm 0 mm/h 0 km/h 1016.1 hPa 00:29 del 09/05/2021
Camaiore LU 11.6°C 94% 10.7°C 0 mm 0 mm/h 1.1 km/h 1019.6 hPa 00:29 del 09/05/2021
Pisa PI 14.9°C 80% 11.5°C 0 mm 0 mm/h 0 km/h 1018.7 hPa 00:29 del 09/05/2021
Castel San Niccolò AR 10.4°C 88% 8.6°C 0 mm 0 mm/h 0 km/h 1022.5 hPa 00:27 del 09/05/2021
Chianciano Terme SI 12.8°C 83% 10°C 0 mm 0 mm/h 3.2 km/h 1020.3 hPa 23:59 del 08/05/2021
San Casciano in Val di Pesa FI 15°C 74% 10.4°C 0 mm 0 mm/h 1.6 km/h 1019.9 hPa 00:25 del 09/05/2021
Pistoia PT 13.6°C 81% 10.4°C 0 mm 0 mm/h 8.2 km/h 1019.9 hPa 00:25 del 09/05/2021
Orbetello GR 0°C 0% 0°C 0 mm 0 mm/h 0 km/h 0 hPa 00:27 del 09/05/2021
Massa MS 15.3°C 82% 12.2°C 0 mm 0 mm/h 0 km/h 1020.3 hPa 00:25 del 09/05/2021
Reggello FI 14.4°C 59% 6.1°C 0 mm 0 mm/h 0 km/h 1017.9 hPa 00:27 del 09/05/2021
Pescaglia LU 11.2°C 93% 10.1°C 0 mm 0 mm/h 1.6 km/h 1019.1 hPa 00:20 del 09/05/2021
Firenze FI 16.5°C 72% 11.4°C 0 mm 0 mm/h 5 km/h 1019.6 hPa 23:54 del 08/05/2021
Pisa PI 14.5°C 84% 11.8°C 0 mm 0 mm/h 0 km/h 1018 hPa 00:29 del 09/05/2021
Montepulciano SI 14.8°C 75% 10.4°C 0 mm 0 mm/h 6.5 km/h 1018.8 hPa 00:28 del 09/05/2021
Reggello FI 15°C 74% 10.4°C 0 mm 0 mm/h 2.2 km/h 1018.2 hPa 00:29 del 09/05/2021
Vernio PO 11.6°C 87% 9.5°C 0 mm 0 mm/h 1.6 km/h 1022.2 hPa 00:29 del 09/05/2021
Capraia e Limite FI 16.2°C 62% 8.9°C 0 mm 0 mm/h 0 km/h 1017.9 hPa 00:27 del 09/05/2021
Chiusi SI 16.5°C 72% 11.4°C 0 mm 0 mm/h 3 km/h 1018.9 hPa 00:25 del 09/05/2021
Firenze FI 15.3°C 76% 11.1°C 0 mm 0 mm/h 0 km/h 1019.2 hPa 00:27 del 09/05/2021
Carmignano PO 16°C 69% 10.3°C 0 mm 0 mm/h 0.7 km/h 1021.4 hPa 00:25 del 09/05/2021
Quarrata PT 11°C 57% 2.8°C 0 mm 0 mm/h 0 km/h 1019 hPa 00:27 del 09/05/2021
Campi Bisenzio FI 16.2°C 73% 11.4°C 0 mm 0 mm/h 0 km/h 1018.9 hPa 00:25 del 09/05/2021
Poggio a Caiano PO 13.3°C 84% 10.7°C 0 mm 0 mm/h 0 km/h 1018.6 hPa 00:29 del 09/05/2021